<?xml version="1.0" encoding="UTF-8" standalone="no" ?>
<gpx xmlns="http://www.topografix.com/GPX/1/1" xmlns:xsi="http://www.w3.org/2001/XMLSchema-instance" xsi:schemaLocation="http://www.topografix.com/GPX/1/1 http://www.topografix.com/GPX/1/1/gpx.xsd" version="1.1" creator="VisuGPX - https://www.visugpx.com">
  <metadata>
    <name>Domblans - Château-Chalon - Ménétru - Frontenay - Blandans</name>
    <desc><![CDATA[Randonnée pédestre effectuée le 3 octobre 2019
L'indice IBP d'effort est de 65, (suivant l'échelle de la FFRP) un score compris entre 51 et 75 correspond au niveau 3 qualifié de "PEU DIFFICILE". La randonnée pédestre nécessite un certain engagement physique qui reste toutefois mesuré. Ce niveau correspond à des randonnées pédestres modérées.]]></desc>
  </metadata>
  <trk>
    <name><![CDATA[3 oct. 2019 à 08:46:26]]></name>
    <trkseg>
      <trkpt lat="46.76697" lon="5.60127">
        <ele>245</ele>
        <time>2019-10-03T06:46:27Z</time>
      </trkpt>
      <trkpt lat="46.76689" lon="5.60149">
        <ele>246</ele>
        <time>2019-10-03T06:46:43Z</time>
      </trkpt>
      <trkpt lat="46.76687" lon="5.60154">
        <ele>246</ele>
        <time>2019-10-03T06:46:47Z</time>
      </trkpt>
      <trkpt lat="46.76684" lon="5.60163">
        <ele>246</ele>
        <time>2019-10-03T06:46:55Z</time>
      </trkpt>
      <trkpt lat="46.76677" lon="5.60184">
        <ele>247</ele>
        <time>2019-10-03T06:47:10Z</time>
      </trkpt>
      <trkpt lat="46.76675" lon="5.60191">
        <ele>247</ele>
        <time>2019-10-03T06:47:14Z</time>
      </trkpt>
      <trkpt lat="46.76672" lon="5.60198">
        <ele>247</ele>
        <time>2019-10-03T06:47:19Z</time>
      </trkpt>
      <trkpt lat="46.76665" lon="5.60217">
        <ele>249</ele>
        <time>2019-10-03T06:47:31Z</time>
      </trkpt>
      <trkpt lat="46.76662" lon="5.60223">
        <ele>249</ele>
        <time>2019-10-03T06:47:36Z</time>
      </trkpt>
      <trkpt lat="46.76658" lon="5.60236">
        <ele>248</ele>
        <time>2019-10-03T06:47:44Z</time>
      </trkpt>
      <trkpt lat="46.76656" lon="5.60244">
        <ele>248</ele>
        <time>2019-10-03T06:47:48Z</time>
      </trkpt>
      <trkpt lat="46.76653" lon="5.60252">
        <ele>248</ele>
        <time>2019-10-03T06:47:52Z</time>
      </trkpt>
      <trkpt lat="46.7665" lon="5.60259">
        <ele>248</ele>
        <time>2019-10-03T06:47:56Z</time>
      </trkpt>
      <trkpt lat="46.76643" lon="5.60278">
        <ele>249</ele>
        <time>2019-10-03T06:48:09Z</time>
      </trkpt>
      <trkpt lat="46.76639" lon="5.6029">
        <ele>249</ele>
        <time>2019-10-03T06:48:18Z</time>
      </trkpt>
      <trkpt lat="46.76637" lon="5.60297">
        <ele>249</ele>
        <time>2019-10-03T06:48:22Z</time>
      </trkpt>
      <trkpt lat="46.76635" lon="5.60303">
        <ele>249</ele>
        <time>2019-10-03T06:48:26Z</time>
      </trkpt>
      <trkpt lat="46.76629" lon="5.60324">
        <ele>250</ele>
        <time>2019-10-03T06:48:38Z</time>
      </trkpt>
      <trkpt lat="46.76626" lon="5.6033">
        <ele>251</ele>
        <time>2019-10-03T06:48:42Z</time>
      </trkpt>
      <trkpt lat="46.76624" lon="5.60338">
        <ele>251</ele>
        <time>2019-10-03T06:48:46Z</time>
      </trkpt>
      <trkpt lat="46.76622" lon="5.60345">
        <ele>251</ele>
        <time>2019-10-03T06:48:51Z</time>
      </trkpt>
      <trkpt lat="46.7662" lon="5.60351">
        <ele>251</ele>
        <time>2019-10-03T06:48:55Z</time>
      </trkpt>
      <trkpt lat="46.76617" lon="5.60357">
        <ele>251</ele>
        <time>2019-10-03T06:48:59Z</time>
      </trkpt>
      <trkpt lat="46.76615" lon="5.60363">
        <ele>250</ele>
        <time>2019-10-03T06:49:02Z</time>
      </trkpt>
      <trkpt lat="46.76612" lon="5.60369">
        <ele>251</ele>
        <time>2019-10-03T06:49:05Z</time>
      </trkpt>
      <trkpt lat="46.76606" lon="5.60391">
        <ele>251</ele>
        <time>2019-10-03T06:49:16Z</time>
      </trkpt>
      <trkpt lat="46.76604" lon="5.60398">
        <ele>250</ele>
        <time>2019-10-03T06:49:20Z</time>
      </trkpt>
      <trkpt lat="46.76602" lon="5.60405">
        <ele>250</ele>
        <time>2019-10-03T06:49:24Z</time>
      </trkpt>
      <trkpt lat="46.76595" lon="5.60419">
        <ele>249</ele>
        <time>2019-10-03T06:49:33Z</time>
      </trkpt>
      <trkpt lat="46.76594" lon="5.60425">
        <ele>250</ele>
        <time>2019-10-03T06:49:37Z</time>
      </trkpt>
      <trkpt lat="46.76589" lon="5.60435">
        <ele>249</ele>
        <time>2019-10-03T06:49:46Z</time>
      </trkpt>
      <trkpt lat="46.76585" lon="5.60443">
        <ele>249</ele>
        <time>2019-10-03T06:49:50Z</time>
      </trkpt>
      <trkpt lat="46.76582" lon="5.60449">
        <ele>248</ele>
        <time>2019-10-03T06:49:54Z</time>
      </trkpt>
      <trkpt lat="46.76561" lon="5.60516">
        <ele>247</ele>
        <time>2019-10-03T06:50:34Z</time>
      </trkpt>
      <trkpt lat="46.76556" lon="5.60527">
        <ele>246</ele>
        <time>2019-10-03T06:50:41Z</time>
      </trkpt>
      <trkpt lat="46.76549" lon="5.60553">
        <ele>246</ele>
        <time>2019-10-03T06:50:58Z</time>
      </trkpt>
      <trkpt lat="46.76537" lon="5.60577">
        <ele>246</ele>
        <time>2019-10-03T06:51:12Z</time>
      </trkpt>
      <trkpt lat="46.7652" lon="5.60592">
        <ele>246</ele>
        <time>2019-10-03T06:51:28Z</time>
      </trkpt>
      <trkpt lat="46.76514" lon="5.60603">
        <ele>246</ele>
        <time>2019-10-03T06:51:37Z</time>
      </trkpt>
      <trkpt lat="46.7651" lon="5.60617">
        <ele>247</ele>
        <time>2019-10-03T06:51:46Z</time>
      </trkpt>
      <trkpt lat="46.76503" lon="5.60625">
        <ele>246</ele>
        <time>2019-10-03T06:51:54Z</time>
      </trkpt>
      <trkpt lat="46.76496" lon="5.60639">
        <ele>246</ele>
        <time>2019-10-03T06:52:05Z</time>
      </trkpt>
      <trkpt lat="46.76492" lon="5.60645">
        <ele>246</ele>
        <time>2019-10-03T06:52:09Z</time>
      </trkpt>
      <trkpt lat="46.76489" lon="5.60653">
        <ele>245</ele>
        <time>2019-10-03T06:52:13Z</time>
      </trkpt>
      <trkpt lat="46.76485" lon="5.60658">
        <ele>246</ele>
        <time>2019-10-03T06:52:16Z</time>
      </trkpt>
      <trkpt lat="46.76483" lon="5.60664">
        <ele>245</ele>
        <time>2019-10-03T06:52:19Z</time>
      </trkpt>
      <trkpt lat="46.76479" lon="5.60669">
        <ele>246</ele>
        <time>2019-10-03T06:52:23Z</time>
      </trkpt>
      <trkpt lat="46.76475" lon="5.60673">
        <ele>246</ele>
        <time>2019-10-03T06:52:27Z</time>
      </trkpt>
      <trkpt lat="46.76465" lon="5.60689">
        <ele>246</ele>
        <time>2019-10-03T06:52:39Z</time>
      </trkpt>
      <trkpt lat="46.76464" lon="5.60696">
        <ele>246</ele>
        <time>2019-10-03T06:52:42Z</time>
      </trkpt>
      <trkpt lat="46.76457" lon="5.60705">
        <ele>247</ele>
        <time>2019-10-03T06:52:50Z</time>
      </trkpt>
      <trkpt lat="46.76449" lon="5.60711">
        <ele>247</ele>
        <time>2019-10-03T06:52:58Z</time>
      </trkpt>
      <trkpt lat="46.76446" lon="5.60717">
        <ele>247</ele>
        <time>2019-10-03T06:53:02Z</time>
      </trkpt>
      <trkpt lat="46.76438" lon="5.60725">
        <ele>247</ele>
        <time>2019-10-03T06:53:08Z</time>
      </trkpt>
      <trkpt lat="46.76434" lon="5.60729">
        <ele>247</ele>
        <time>2019-10-03T06:53:13Z</time>
      </trkpt>
      <trkpt lat="46.7643" lon="5.60733">
        <ele>247</ele>
        <time>2019-10-03T06:53:17Z</time>
      </trkpt>
      <trkpt lat="46.76427" lon="5.60739">
        <ele>246</ele>
        <time>2019-10-03T06:53:21Z</time>
      </trkpt>
      <trkpt lat="46.76422" lon="5.60744">
        <ele>246</ele>
        <time>2019-10-03T06:53:26Z</time>
      </trkpt>
      <trkpt lat="46.76418" lon="5.60748">
        <ele>247</ele>
        <time>2019-10-03T06:53:31Z</time>
      </trkpt>
      <trkpt lat="46.76414" lon="5.60752">
        <ele>247</ele>
        <time>2019-10-03T06:53:35Z</time>
      </trkpt>
      <trkpt lat="46.76408" lon="5.60753">
        <ele>247</ele>
        <time>2019-10-03T06:53:39Z</time>
      </trkpt>
      <trkpt lat="46.76405" lon="5.60758">
        <ele>247</ele>
        <time>2019-10-03T06:53:43Z</time>
      </trkpt>
      <trkpt lat="46.76394" lon="5.60765">
        <ele>246</ele>
        <time>2019-10-03T06:53:55Z</time>
      </trkpt>
      <trkpt lat="46.76389" lon="5.60771">
        <ele>245</ele>
        <time>2019-10-03T06:53:59Z</time>
      </trkpt>
      <trkpt lat="46.76381" lon="5.60779">
        <ele>246</ele>
        <time>2019-10-03T06:54:07Z</time>
      </trkpt>
      <trkpt lat="46.76374" lon="5.6079">
        <ele>246</ele>
        <time>2019-10-03T06:54:16Z</time>
      </trkpt>
      <trkpt lat="46.76348" lon="5.60814">
        <ele>247</ele>
        <time>2019-10-03T06:54:36Z</time>
      </trkpt>
      <trkpt lat="46.76339" lon="5.60824">
        <ele>246</ele>
        <time>2019-10-03T06:54:46Z</time>
      </trkpt>
      <trkpt lat="46.76332" lon="5.60834">
        <ele>247</ele>
        <time>2019-10-03T06:54:55Z</time>
      </trkpt>
      <trkpt lat="46.7632" lon="5.60856">
        <ele>247</ele>
        <time>2019-10-03T06:55:11Z</time>
      </trkpt>
      <trkpt lat="46.76312" lon="5.60867">
        <ele>247</ele>
        <time>2019-10-03T06:55:20Z</time>
      </trkpt>
      <trkpt lat="46.76307" lon="5.60879">
        <ele>247</ele>
        <time>2019-10-03T06:55:28Z</time>
      </trkpt>
      <trkpt lat="46.76299" lon="5.6089">
        <ele>247</ele>
        <time>2019-10-03T06:55:36Z</time>
      </trkpt>
      <trkpt lat="46.76286" lon="5.60904">
        <ele>247</ele>
        <time>2019-10-03T06:55:48Z</time>
      </trkpt>
      <trkpt lat="46.76284" lon="5.60909">
        <ele>247</ele>
        <time>2019-10-03T06:55:51Z</time>
      </trkpt>
      <trkpt lat="46.76281" lon="5.60914">
        <ele>247</ele>
        <time>2019-10-03T06:55:54Z</time>
      </trkpt>
      <trkpt lat="46.76276" lon="5.60927">
        <ele>248</ele>
        <time>2019-10-03T06:56:02Z</time>
      </trkpt>
      <trkpt lat="46.76273" lon="5.60932">
        <ele>248</ele>
        <time>2019-10-03T06:56:05Z</time>
      </trkpt>
      <trkpt lat="46.7627" lon="5.60936">
        <ele>247</ele>
        <time>2019-10-03T06:56:09Z</time>
      </trkpt>
      <trkpt lat="46.76267" lon="5.60943">
        <ele>246</ele>
        <time>2019-10-03T06:56:16Z</time>
      </trkpt>
      <trkpt lat="46.76264" lon="5.60948">
        <ele>247</ele>
        <time>2019-10-03T06:56:21Z</time>
      </trkpt>
      <trkpt lat="46.76261" lon="5.60954">
        <ele>247</ele>
        <time>2019-10-03T06:56:25Z</time>
      </trkpt>
      <trkpt lat="46.76258" lon="5.6096">
        <ele>247</ele>
        <time>2019-10-03T06:56:28Z</time>
      </trkpt>
      <trkpt lat="46.76255" lon="5.60967">
        <ele>247</ele>
        <time>2019-10-03T06:56:32Z</time>
      </trkpt>
      <trkpt lat="46.76255" lon="5.60975">
        <ele>247</ele>
        <time>2019-10-03T06:56:36Z</time>
      </trkpt>
      <trkpt lat="46.76254" lon="5.60981">
        <ele>248</ele>
        <time>2019-10-03T06:56:39Z</time>
      </trkpt>
      <trkpt lat="46.76236" lon="5.60992">
        <ele>249</ele>
        <time>2019-10-03T06:56:54Z</time>
      </trkpt>
      <trkpt lat="46.76232" lon="5.60997">
        <ele>249</ele>
        <time>2019-10-03T06:56:58Z</time>
      </trkpt>
      <trkpt lat="46.76228" lon="5.61001">
        <ele>249</ele>
        <time>2019-10-03T06:57:02Z</time>
      </trkpt>
      <trkpt lat="46.76225" lon="5.61008">
        <ele>248</ele>
        <time>2019-10-03T06:57:06Z</time>
      </trkpt>
      <trkpt lat="46.76202" lon="5.61023">
        <ele>247</ele>
        <time>2019-10-03T06:57:28Z</time>
      </trkpt>
      <trkpt lat="46.76193" lon="5.61023">
        <ele>247</ele>
        <time>2019-10-03T06:57:36Z</time>
      </trkpt>
      <trkpt lat="46.76184" lon="5.61026">
        <ele>247</ele>
        <time>2019-10-03T06:57:45Z</time>
      </trkpt>
      <trkpt lat="46.76175" lon="5.61032">
        <ele>247</ele>
        <time>2019-10-03T06:58:00Z</time>
      </trkpt>
      <trkpt lat="46.76171" lon="5.61038">
        <ele>246</ele>
        <time>2019-10-03T06:59:00Z</time>
      </trkpt>
      <trkpt lat="46.76169" lon="5.6105">
        <ele>248</ele>
        <time>2019-10-03T06:59:37Z</time>
      </trkpt>
      <trkpt lat="46.76164" lon="5.61059">
        <ele>247</ele>
        <time>2019-10-03T07:00:20Z</time>
      </trkpt>
      <trkpt lat="46.76158" lon="5.61062">
        <ele>248</ele>
        <time>2019-10-03T07:00:28Z</time>
      </trkpt>
      <trkpt lat="46.7615" lon="5.61074">
        <ele>249</ele>
        <time>2019-10-03T07:00:37Z</time>
      </trkpt>
      <trkpt lat="46.76142" lon="5.61085">
        <ele>248</ele>
        <time>2019-10-03T07:00:47Z</time>
      </trkpt>
      <trkpt lat="46.76133" lon="5.61092">
        <ele>248</ele>
        <time>2019-10-03T07:00:56Z</time>
      </trkpt>
      <trkpt lat="46.76128" lon="5.61097">
        <ele>248</ele>
        <time>2019-10-03T07:01:00Z</time>
      </trkpt>
      <trkpt lat="46.76124" lon="5.611">
        <ele>247</ele>
        <time>2019-10-03T07:01:04Z</time>
      </trkpt>
      <trkpt lat="46.76119" lon="5.61109">
        <ele>247</ele>
        <time>2019-10-03T07:01:13Z</time>
      </trkpt>
      <trkpt lat="46.76117" lon="5.61121">
        <ele>248</ele>
        <time>2019-10-03T07:01:23Z</time>
      </trkpt>
      <trkpt lat="46.76112" lon="5.61122">
        <ele>248</ele>
        <time>2019-10-03T07:01:27Z</time>
      </trkpt>
      <trkpt lat="46.76106" lon="5.61127">
        <ele>248</ele>
        <time>2019-10-03T07:01:34Z</time>
      </trkpt>
      <trkpt lat="46.76103" lon="5.61131">
        <ele>248</ele>
        <time>2019-10-03T07:01:39Z</time>
      </trkpt>
      <trkpt lat="46.76099" lon="5.61135">
        <ele>248</ele>
        <time>2019-10-03T07:01:43Z</time>
      </trkpt>
      <trkpt lat="46.76093" lon="5.61149">
        <ele>249</ele>
        <time>2019-10-03T07:01:52Z</time>
      </trkpt>
      <trkpt lat="46.76087" lon="5.61161">
        <ele>247</ele>
        <time>2019-10-03T07:02:01Z</time>
      </trkpt>
      <trkpt lat="46.76084" lon="5.61167">
        <ele>247</ele>
        <time>2019-10-03T07:02:06Z</time>
      </trkpt>
      <trkpt lat="46.76078" lon="5.61178">
        <ele>246</ele>
        <time>2019-10-03T07:02:13Z</time>
      </trkpt>
      <trkpt lat="46.76075" lon="5.61185">
        <ele>247</ele>
        <time>2019-10-03T07:02:17Z</time>
      </trkpt>
      <trkpt lat="46.76068" lon="5.61205">
        <ele>246</ele>
        <time>2019-10-03T07:02:29Z</time>
      </trkpt>
      <trkpt lat="46.7606" lon="5.61226">
        <ele>247</ele>
        <time>2019-10-03T07:02:42Z</time>
      </trkpt>
      <trkpt lat="46.76048" lon="5.61241">
        <ele>247</ele>
        <time>2019-10-03T07:02:54Z</time>
      </trkpt>
      <trkpt lat="46.76043" lon="5.61245">
        <ele>247</ele>
        <time>2019-10-03T07:02:58Z</time>
      </trkpt>
      <trkpt lat="46.76034" lon="5.61253">
        <ele>247</ele>
        <time>2019-10-03T07:03:06Z</time>
      </trkpt>
      <trkpt lat="46.76018" lon="5.6127">
        <ele>248</ele>
        <time>2019-10-03T07:03:23Z</time>
      </trkpt>
      <trkpt lat="46.76013" lon="5.61272">
        <ele>249</ele>
        <time>2019-10-03T07:03:28Z</time>
      </trkpt>
      <trkpt lat="46.76009" lon="5.61276">
        <ele>249</ele>
        <time>2019-10-03T07:03:33Z</time>
      </trkpt>
      <trkpt lat="46.75991" lon="5.61328">
        <ele>251</ele>
        <time>2019-10-03T07:04:07Z</time>
      </trkpt>
      <trkpt lat="46.7599" lon="5.61342">
        <ele>251</ele>
        <time>2019-10-03T07:04:15Z</time>
      </trkpt>
      <trkpt lat="46.75989" lon="5.6135">
        <ele>251</ele>
        <time>2019-10-03T07:04:19Z</time>
      </trkpt>
      <trkpt lat="46.75988" lon="5.61358">
        <ele>251</ele>
        <time>2019-10-03T07:04:23Z</time>
      </trkpt>
      <trkpt lat="46.75987" lon="5.61387">
        <ele>252</ele>
        <time>2019-10-03T07:04:40Z</time>
      </trkpt>
      <trkpt lat="46.75983" lon="5.61398">
        <ele>252</ele>
        <time>2019-10-03T07:04:46Z</time>
      </trkpt>
      <trkpt lat="46.75982" lon="5.61406">
        <ele>253</ele>
        <time>2019-10-03T07:04:51Z</time>
      </trkpt>
      <trkpt lat="46.7598" lon="5.61418">
        <ele>253</ele>
        <time>2019-10-03T07:04:59Z</time>
      </trkpt>
      <trkpt lat="46.75983" lon="5.61434">
        <ele>253</ele>
        <time>2019-10-03T07:05:08Z</time>
      </trkpt>
      <trkpt lat="46.75984" lon="5.61441">
        <ele>252</ele>
        <time>2019-10-03T07:05:11Z</time>
      </trkpt>
      <trkpt lat="46.75986" lon="5.61455">
        <ele>253</ele>
        <time>2019-10-03T07:05:19Z</time>
      </trkpt>
      <trkpt lat="46.75987" lon="5.61462">
        <ele>253</ele>
        <time>2019-10-03T07:05:24Z</time>
      </trkpt>
      <trkpt lat="46.75986" lon="5.61471">
        <ele>253</ele>
        <time>2019-10-03T07:05:28Z</time>
      </trkpt>
      <trkpt lat="46.75983" lon="5.61476">
        <ele>254</ele>
        <time>2019-10-03T07:05:32Z</time>
      </trkpt>
      <trkpt lat="46.7598" lon="5.61481">
        <ele>254</ele>
        <time>2019-10-03T07:05:46Z</time>
      </trkpt>
      <trkpt lat="46.75981" lon="5.61488">
        <ele>254</ele>
        <time>2019-10-03T07:05:52Z</time>
      </trkpt>
      <trkpt lat="46.75985" lon="5.61491">
        <ele>254</ele>
        <time>2019-10-03T07:05:57Z</time>
      </trkpt>
      <trkpt lat="46.75995" lon="5.61488">
        <ele>254</ele>
        <time>2019-10-03T07:06:07Z</time>
      </trkpt>
      <trkpt lat="46.76004" lon="5.61483">
        <ele>254</ele>
        <time>2019-10-03T07:06:17Z</time>
      </trkpt>
      <trkpt lat="46.7601" lon="5.61483">
        <ele>255</ele>
        <time>2019-10-03T07:06:23Z</time>
      </trkpt>
      <trkpt lat="46.76015" lon="5.61483">
        <ele>254</ele>
        <time>2019-10-03T07:06:27Z</time>
      </trkpt>
      <trkpt lat="46.76041" lon="5.61486">
        <ele>255</ele>
        <time>2019-10-03T07:06:50Z</time>
      </trkpt>
      <trkpt lat="46.76047" lon="5.6149">
        <ele>256</ele>
        <time>2019-10-03T07:06:57Z</time>
      </trkpt>
      <trkpt lat="46.76051" lon="5.61494">
        <ele>256</ele>
        <time>2019-10-03T07:07:01Z</time>
      </trkpt>
      <trkpt lat="46.76051" lon="5.61521">
        <ele>256</ele>
        <time>2019-10-03T07:07:26Z</time>
      </trkpt>
      <trkpt lat="46.76051" lon="5.6153">
        <ele>257</ele>
        <time>2019-10-03T07:07:30Z</time>
      </trkpt>
      <trkpt lat="46.76052" lon="5.61538">
        <ele>257</ele>
        <time>2019-10-03T07:07:34Z</time>
      </trkpt>
      <trkpt lat="46.76052" lon="5.61546">
        <ele>256</ele>
        <time>2019-10-03T07:07:38Z</time>
      </trkpt>
      <trkpt lat="46.76056" lon="5.61568">
        <ele>256</ele>
        <time>2019-10-03T07:07:51Z</time>
      </trkpt>
      <trkpt lat="46.76056" lon="5.61575">
        <ele>255</ele>
        <time>2019-10-03T07:07:56Z</time>
      </trkpt>
      <trkpt lat="46.76057" lon="5.61583">
        <ele>255</ele>
        <time>2019-10-03T07:08:01Z</time>
      </trkpt>
      <trkpt lat="46.76057" lon="5.61598">
        <ele>256</ele>
        <time>2019-10-03T07:08:09Z</time>
      </trkpt>
      <trkpt lat="46.76058" lon="5.61605">
        <ele>256</ele>
        <time>2019-10-03T07:08:13Z</time>
      </trkpt>
      <trkpt lat="46.76059" lon="5.61613">
        <ele>256</ele>
        <time>2019-10-03T07:08:17Z</time>
      </trkpt>
      <trkpt lat="46.76058" lon="5.61621">
        <ele>256</ele>
        <time>2019-10-03T07:08:21Z</time>
      </trkpt>
      <trkpt lat="46.76059" lon="5.61627">
        <ele>256</ele>
        <time>2019-10-03T07:08:25Z</time>
      </trkpt>
      <trkpt lat="46.7606" lon="5.61634">
        <ele>256</ele>
        <time>2019-10-03T07:08:29Z</time>
      </trkpt>
      <trkpt lat="46.76061" lon="5.61648">
        <ele>257</ele>
        <time>2019-10-03T07:08:36Z</time>
      </trkpt>
      <trkpt lat="46.76062" lon="5.61656">
        <ele>257</ele>
        <time>2019-10-03T07:08:41Z</time>
      </trkpt>
      <trkpt lat="46.76063" lon="5.61663">
        <ele>257</ele>
        <time>2019-10-03T07:08:45Z</time>
      </trkpt>
      <trkpt lat="46.76064" lon="5.61669">
        <ele>256</ele>
        <time>2019-10-03T07:08:49Z</time>
      </trkpt>
      <trkpt lat="46.76065" lon="5.61677">
        <ele>256</ele>
        <time>2019-10-03T07:08:53Z</time>
      </trkpt>
      <trkpt lat="46.76065" lon="5.61684">
        <ele>256</ele>
        <time>2019-10-03T07:08:57Z</time>
      </trkpt>
      <trkpt lat="46.76064" lon="5.61692">
        <ele>256</ele>
        <time>2019-10-03T07:09:01Z</time>
      </trkpt>
      <trkpt lat="46.76063" lon="5.61699">
        <ele>256</ele>
        <time>2019-10-03T07:09:05Z</time>
      </trkpt>
      <trkpt lat="46.76062" lon="5.61716">
        <ele>257</ele>
        <time>2019-10-03T07:09:15Z</time>
      </trkpt>
      <trkpt lat="46.76063" lon="5.61731">
        <ele>257</ele>
        <time>2019-10-03T07:09:23Z</time>
      </trkpt>
      <trkpt lat="46.76061" lon="5.61752">
        <ele>257</ele>
        <time>2019-10-03T07:09:33Z</time>
      </trkpt>
      <trkpt lat="46.76061" lon="5.61761">
        <ele>257</ele>
        <time>2019-10-03T07:09:40Z</time>
      </trkpt>
      <trkpt lat="46.7606" lon="5.61777">
        <ele>258</ele>
        <time>2019-10-03T07:09:48Z</time>
      </trkpt>
      <trkpt lat="46.76062" lon="5.61784">
        <ele>260</ele>
        <time>2019-10-03T07:09:52Z</time>
      </trkpt>
      <trkpt lat="46.7607" lon="5.61807">
        <ele>260</ele>
        <time>2019-10-03T07:10:09Z</time>
      </trkpt>
      <trkpt lat="46.76073" lon="5.61814">
        <ele>260</ele>
        <time>2019-10-03T07:10:13Z</time>
      </trkpt>
      <trkpt lat="46.76076" lon="5.61819">
        <ele>261</ele>
        <time>2019-10-03T07:10:17Z</time>
      </trkpt>
      <trkpt lat="46.76078" lon="5.61825">
        <ele>261</ele>
        <time>2019-10-03T07:10:21Z</time>
      </trkpt>
      <trkpt lat="46.76081" lon="5.61832">
        <ele>261</ele>
        <time>2019-10-03T07:10:26Z</time>
      </trkpt>
      <trkpt lat="46.76087" lon="5.61854">
        <ele>261</ele>
        <time>2019-10-03T07:10:39Z</time>
      </trkpt>
      <trkpt lat="46.7609" lon="5.61861">
        <ele>261</ele>
        <time>2019-10-03T07:10:43Z</time>
      </trkpt>
      <trkpt lat="46.76096" lon="5.61873">
        <ele>263</ele>
        <time>2019-10-03T07:10:52Z</time>
      </trkpt>
      <trkpt lat="46.76098" lon="5.61879">
        <ele>264</ele>
        <time>2019-10-03T07:10:56Z</time>
      </trkpt>
      <trkpt lat="46.76101" lon="5.61888">
        <ele>263</ele>
        <time>2019-10-03T07:11:03Z</time>
      </trkpt>
      <trkpt lat="46.76108" lon="5.61922">
        <ele>264</ele>
        <time>2019-10-03T07:11:24Z</time>
      </trkpt>
      <trkpt lat="46.76109" lon="5.6193">
        <ele>264</ele>
        <time>2019-10-03T07:11:28Z</time>
      </trkpt>
      <trkpt lat="46.76109" lon="5.61938">
        <ele>264</ele>
        <time>2019-10-03T07:11:31Z</time>
      </trkpt>
      <trkpt lat="46.76113" lon="5.61959">
        <ele>265</ele>
        <time>2019-10-03T07:11:45Z</time>
      </trkpt>
      <trkpt lat="46.76113" lon="5.61968">
        <ele>265</ele>
        <time>2019-10-03T07:11:48Z</time>
      </trkpt>
      <trkpt lat="46.76116" lon="5.61977">
        <ele>264</ele>
        <time>2019-10-03T07:11:55Z</time>
      </trkpt>
      <trkpt lat="46.76117" lon="5.61984">
        <ele>265</ele>
        <time>2019-10-03T07:11:59Z</time>
      </trkpt>
      <trkpt lat="46.76118" lon="5.61991">
        <ele>265</ele>
        <time>2019-10-03T07:12:03Z</time>
      </trkpt>
      <trkpt lat="46.76119" lon="5.61998">
        <ele>265</ele>
        <time>2019-10-03T07:12:07Z</time>
      </trkpt>
      <trkpt lat="46.7612" lon="5.62005">
        <ele>265</ele>
        <time>2019-10-03T07:12:11Z</time>
      </trkpt>
      <trkpt lat="46.7612" lon="5.62014">
        <ele>265</ele>
        <time>2019-10-03T07:12:14Z</time>
      </trkpt>
      <trkpt lat="46.76128" lon="5.62025">
        <ele>265</ele>
        <time>2019-10-03T07:12:23Z</time>
      </trkpt>
      <trkpt lat="46.76131" lon="5.62034">
        <ele>266</ele>
        <time>2019-10-03T07:12:33Z</time>
      </trkpt>
      <trkpt lat="46.76132" lon="5.62046">
        <ele>268</ele>
        <time>2019-10-03T07:12:57Z</time>
      </trkpt>
      <trkpt lat="46.76131" lon="5.62053">
        <ele>268</ele>
        <time>2019-10-03T07:13:03Z</time>
      </trkpt>
      <trkpt lat="46.76131" lon="5.62064">
        <ele>269</ele>
        <time>2019-10-03T07:13:37Z</time>
      </trkpt>
      <trkpt lat="46.7613" lon="5.62079">
        <ele>269</ele>
        <time>2019-10-03T07:13:45Z</time>
      </trkpt>
      <trkpt lat="46.76133" lon="5.62085">
        <ele>269</ele>
        <time>2019-10-03T07:13:49Z</time>
      </trkpt>
      <trkpt lat="46.76136" lon="5.62089">
        <ele>269</ele>
        <time>2019-10-03T07:13:53Z</time>
      </trkpt>
      <trkpt lat="46.76141" lon="5.62091">
        <ele>269</ele>
        <time>2019-10-03T07:13:57Z</time>
      </trkpt>
      <trkpt lat="46.76146" lon="5.62092">
        <ele>269</ele>
        <time>2019-10-03T07:14:01Z</time>
      </trkpt>
      <trkpt lat="46.76156" lon="5.62096">
        <ele>271</ele>
        <time>2019-10-03T07:14:11Z</time>
      </trkpt>
      <trkpt lat="46.76174" lon="5.62109">
        <ele>272</ele>
        <time>2019-10-03T07:14:29Z</time>
      </trkpt>
      <trkpt lat="46.76186" lon="5.62123">
        <ele>274</ele>
        <time>2019-10-03T07:14:44Z</time>
      </trkpt>
      <trkpt lat="46.7619" lon="5.62128">
        <ele>274</ele>
        <time>2019-10-03T07:14:49Z</time>
      </trkpt>
      <trkpt lat="46.76193" lon="5.62132">
        <ele>275</ele>
        <time>2019-10-03T07:14:54Z</time>
      </trkpt>
      <trkpt lat="46.76195" lon="5.62145">
        <ele>275</ele>
        <time>2019-10-03T07:15:05Z</time>
      </trkpt>
      <trkpt lat="46.76194" lon="5.62158">
        <ele>275</ele>
        <time>2019-10-03T07:15:19Z</time>
      </trkpt>
      <trkpt lat="46.76189" lon="5.62186">
        <ele>278</ele>
        <time>2019-10-03T07:15:36Z</time>
      </trkpt>
      <trkpt lat="46.76187" lon="5.62193">
        <ele>278</ele>
        <time>2019-10-03T07:15:40Z</time>
      </trkpt>
      <trkpt lat="46.76185" lon="5.622">
        <ele>278</ele>
        <time>2019-10-03T07:15:44Z</time>
      </trkpt>
      <trkpt lat="46.76183" lon="5.62207">
        <ele>278</ele>
        <time>2019-10-03T07:15:48Z</time>
      </trkpt>
      <trkpt lat="46.76183" lon="5.62214">
        <ele>278</ele>
        <time>2019-10-03T07:15:53Z</time>
      </trkpt>
      <trkpt lat="46.76178" lon="5.62249">
        <ele>280</ele>
        <time>2019-10-03T07:16:14Z</time>
      </trkpt>
      <trkpt lat="46.76177" lon="5.62256">
        <ele>279</ele>
        <time>2019-10-03T07:16:19Z</time>
      </trkpt>
      <trkpt lat="46.76175" lon="5.62273">
        <ele>280</ele>
        <time>2019-10-03T07:16:30Z</time>
      </trkpt>
      <trkpt lat="46.76174" lon="5.62279">
        <ele>280</ele>
        <time>2019-10-03T07:16:34Z</time>
      </trkpt>
      <trkpt lat="46.76171" lon="5.62294">
        <ele>280</ele>
        <time>2019-10-03T07:16:43Z</time>
      </trkpt>
      <trkpt lat="46.7617" lon="5.623">
        <ele>279</ele>
        <time>2019-10-03T07:16:47Z</time>
      </trkpt>
      <trkpt lat="46.76162" lon="5.62322">
        <ele>279</ele>
        <time>2019-10-03T07:16:59Z</time>
      </trkpt>
      <trkpt lat="46.76157" lon="5.62341">
        <ele>279</ele>
        <time>2019-10-03T07:17:10Z</time>
      </trkpt>
      <trkpt lat="46.76155" lon="5.62349">
        <ele>279</ele>
        <time>2019-10-03T07:17:15Z</time>
      </trkpt>
      <trkpt lat="46.76151" lon="5.62363">
        <ele>278</ele>
        <time>2019-10-03T07:17:24Z</time>
      </trkpt>
      <trkpt lat="46.76149" lon="5.6237">
        <ele>278</ele>
        <time>2019-10-03T07:17:28Z</time>
      </trkpt>
      <trkpt lat="46.76134" lon="5.62426">
        <ele>280</ele>
        <time>2019-10-03T07:18:00Z</time>
      </trkpt>
      <trkpt lat="46.76132" lon="5.62433">
        <ele>281</ele>
        <time>2019-10-03T07:18:04Z</time>
      </trkpt>
      <trkpt lat="46.7613" lon="5.62447">
        <ele>280</ele>
        <time>2019-10-03T07:18:12Z</time>
      </trkpt>
      <trkpt lat="46.76129" lon="5.62455">
        <ele>281</ele>
        <time>2019-10-03T07:18:16Z</time>
      </trkpt>
      <trkpt lat="46.76127" lon="5.62469">
        <ele>281</ele>
        <time>2019-10-03T07:18:25Z</time>
      </trkpt>
      <trkpt lat="46.76125" lon="5.62484">
        <ele>281</ele>
        <time>2019-10-03T07:18:33Z</time>
      </trkpt>
      <trkpt lat="46.76125" lon="5.62492">
        <ele>281</ele>
        <time>2019-10-03T07:18:37Z</time>
      </trkpt>
      <trkpt lat="46.76125" lon="5.62499">
        <ele>281</ele>
        <time>2019-10-03T07:18:42Z</time>
      </trkpt>
      <trkpt lat="46.76125" lon="5.62507">
        <ele>281</ele>
        <time>2019-10-03T07:18:47Z</time>
      </trkpt>
      <trkpt lat="46.76127" lon="5.62522">
        <ele>281</ele>
        <time>2019-10-03T07:18:56Z</time>
      </trkpt>
      <trkpt lat="46.76129" lon="5.62535">
        <ele>281</ele>
        <time>2019-10-03T07:19:04Z</time>
      </trkpt>
      <trkpt lat="46.76132" lon="5.62549">
        <ele>281</ele>
        <time>2019-10-03T07:19:12Z</time>
      </trkpt>
      <trkpt lat="46.76133" lon="5.62556">
        <ele>281</ele>
        <time>2019-10-03T07:19:16Z</time>
      </trkpt>
      <trkpt lat="46.76135" lon="5.62578">
        <ele>281</ele>
        <time>2019-10-03T07:19:29Z</time>
      </trkpt>
      <trkpt lat="46.76136" lon="5.62584">
        <ele>281</ele>
        <time>2019-10-03T07:19:33Z</time>
      </trkpt>
      <trkpt lat="46.76137" lon="5.62599">
        <ele>281</ele>
        <time>2019-10-03T07:19:43Z</time>
      </trkpt>
      <trkpt lat="46.76147" lon="5.62661">
        <ele>283</ele>
        <time>2019-10-03T07:20:18Z</time>
      </trkpt>
      <trkpt lat="46.76158" lon="5.62715">
        <ele>287</ele>
        <time>2019-10-03T07:20:52Z</time>
      </trkpt>
      <trkpt lat="46.76161" lon="5.62729">
        <ele>287</ele>
        <time>2019-10-03T07:21:01Z</time>
      </trkpt>
      <trkpt lat="46.76162" lon="5.62744">
        <ele>287</ele>
        <time>2019-10-03T07:21:09Z</time>
      </trkpt>
      <trkpt lat="46.76161" lon="5.62784">
        <ele>290</ele>
        <time>2019-10-03T07:21:33Z</time>
      </trkpt>
      <trkpt lat="46.76159" lon="5.62793">
        <ele>289</ele>
        <time>2019-10-03T07:21:39Z</time>
      </trkpt>
      <trkpt lat="46.76157" lon="5.62799">
        <ele>289</ele>
        <time>2019-10-03T07:21:43Z</time>
      </trkpt>
      <trkpt lat="46.76152" lon="5.62802">
        <ele>289</ele>
        <time>2019-10-03T07:21:48Z</time>
      </trkpt>
      <trkpt lat="46.76147" lon="5.62797">
        <ele>289</ele>
        <time>2019-10-03T07:21:53Z</time>
      </trkpt>
      <trkpt lat="46.76141" lon="5.62783">
        <ele>289</ele>
        <time>2019-10-03T07:22:03Z</time>
      </trkpt>
      <trkpt lat="46.76139" lon="5.62777">
        <ele>289</ele>
        <time>2019-10-03T07:22:07Z</time>
      </trkpt>
      <trkpt lat="46.76128" lon="5.62762">
        <ele>289</ele>
        <time>2019-10-03T07:22:23Z</time>
      </trkpt>
      <trkpt lat="46.76124" lon="5.62757">
        <ele>290</ele>
        <time>2019-10-03T07:22:28Z</time>
      </trkpt>
      <trkpt lat="46.76122" lon="5.62751">
        <ele>290</ele>
        <time>2019-10-03T07:22:32Z</time>
      </trkpt>
      <trkpt lat="46.76119" lon="5.62745">
        <ele>290</ele>
        <time>2019-10-03T07:22:36Z</time>
      </trkpt>
      <trkpt lat="46.76115" lon="5.62739">
        <ele>290</ele>
        <time>2019-10-03T07:22:40Z</time>
      </trkpt>
      <trkpt lat="46.76092" lon="5.62688">
        <ele>289</ele>
        <time>2019-10-03T07:23:16Z</time>
      </trkpt>
      <trkpt lat="46.7607" lon="5.62642">
        <ele>288</ele>
        <time>2019-10-03T07:23:47Z</time>
      </trkpt>
      <trkpt lat="46.76058" lon="5.6262">
        <ele>287</ele>
        <time>2019-10-03T07:24:03Z</time>
      </trkpt>
      <trkpt lat="46.76051" lon="5.62611">
        <ele>287</ele>
        <time>2019-10-03T07:24:10Z</time>
      </trkpt>
      <trkpt lat="46.76035" lon="5.62591">
        <ele>285</ele>
        <time>2019-10-03T07:24:28Z</time>
      </trkpt>
      <trkpt lat="46.76028" lon="5.6258">
        <ele>286</ele>
        <time>2019-10-03T07:24:36Z</time>
      </trkpt>
      <trkpt lat="46.76023" lon="5.62568">
        <ele>286</ele>
        <time>2019-10-03T07:24:44Z</time>
      </trkpt>
      <trkpt lat="46.76021" lon="5.62554">
        <ele>285</ele>
        <time>2019-10-03T07:24:52Z</time>
      </trkpt>
      <trkpt lat="46.76025" lon="5.6254">
        <ele>285</ele>
        <time>2019-10-03T07:25:00Z</time>
      </trkpt>
      <trkpt lat="46.76017" lon="5.62486">
        <ele>285</ele>
        <time>2019-10-03T07:25:35Z</time>
      </trkpt>
      <trkpt lat="46.76015" lon="5.62472">
        <ele>285</ele>
        <time>2019-10-03T07:25:44Z</time>
      </trkpt>
      <trkpt lat="46.76012" lon="5.62444">
        <ele>285</ele>
        <time>2019-10-03T07:26:00Z</time>
      </trkpt>
      <trkpt lat="46.76011" lon="5.62402">
        <ele>285</ele>
        <time>2019-10-03T07:26:22Z</time>
      </trkpt>
      <trkpt lat="46.76008" lon="5.62389">
        <ele>285</ele>
        <time>2019-10-03T07:26:30Z</time>
      </trkpt>
      <trkpt lat="46.76004" lon="5.62333">
        <ele>282</ele>
        <time>2019-10-03T07:27:01Z</time>
      </trkpt>
      <trkpt lat="46.76003" lon="5.6232">
        <ele>282</ele>
        <time>2019-10-03T07:27:09Z</time>
      </trkpt>
      <trkpt lat="46.76001" lon="5.62306">
        <ele>281</ele>
        <time>2019-10-03T07:27:18Z</time>
      </trkpt>
      <trkpt lat="46.75996" lon="5.62295">
        <ele>281</ele>
        <time>2019-10-03T07:27:25Z</time>
      </trkpt>
      <trkpt lat="46.75991" lon="5.62292">
        <ele>282</ele>
        <time>2019-10-03T07:27:28Z</time>
      </trkpt>
      <trkpt lat="46.75981" lon="5.62293">
        <ele>283</ele>
        <time>2019-10-03T07:27:38Z</time>
      </trkpt>
      <trkpt lat="46.75941" lon="5.62308">
        <ele>287</ele>
        <time>2019-10-03T07:28:17Z</time>
      </trkpt>
      <trkpt lat="46.75935" lon="5.62311">
        <ele>288</ele>
        <time>2019-10-03T07:28:23Z</time>
      </trkpt>
      <trkpt lat="46.75927" lon="5.62312">
        <ele>289</ele>
        <time>2019-10-03T07:28:33Z</time>
      </trkpt>
      <trkpt lat="46.75922" lon="5.62313">
        <ele>289</ele>
        <time>2019-10-03T07:28:38Z</time>
      </trkpt>
      <trkpt lat="46.7589" lon="5.62327">
        <ele>295</ele>
        <time>2019-10-03T07:29:16Z</time>
      </trkpt>
      <trkpt lat="46.75885" lon="5.62324">
        <ele>296</ele>
        <time>2019-10-03T07:29:22Z</time>
      </trkpt>
      <trkpt lat="46.75881" lon="5.62314">
        <ele>297</ele>
        <time>2019-10-03T07:29:32Z</time>
      </trkpt>
      <trkpt lat="46.75871" lon="5.62259">
        <ele>298</ele>
        <time>2019-10-03T07:30:06Z</time>
      </trkpt>
      <trkpt lat="46.75868" lon="5.62244">
        <ele>297</ele>
        <time>2019-10-03T07:30:16Z</time>
      </trkpt>
      <trkpt lat="46.75864" lon="5.6224">
        <ele>297</ele>
        <time>2019-10-03T07:30:21Z</time>
      </trkpt>
      <trkpt lat="46.75859" lon="5.62247">
        <ele>298</ele>
        <time>2019-10-03T07:30:31Z</time>
      </trkpt>
      <trkpt lat="46.7586" lon="5.62258">
        <ele>300</ele>
        <time>2019-10-03T07:31:12Z</time>
      </trkpt>
      <trkpt lat="46.75863" lon="5.62271">
        <ele>301</ele>
        <time>2019-10-03T07:31:23Z</time>
      </trkpt>
      <trkpt lat="46.75865" lon="5.6229">
        <ele>301</ele>
        <time>2019-10-03T07:31:37Z</time>
      </trkpt>
      <trkpt lat="46.75863" lon="5.62335">
        <ele>306</ele>
        <time>2019-10-03T07:32:12Z</time>
      </trkpt>
      <trkpt lat="46.75858" lon="5.62358">
        <ele>309</ele>
        <time>2019-10-03T07:32:29Z</time>
      </trkpt>
      <trkpt lat="46.75853" lon="5.62373">
        <ele>315</ele>
        <time>2019-10-03T07:32:43Z</time>
      </trkpt>
      <trkpt lat="46.75852" lon="5.62387">
        <ele>317</ele>
        <time>2019-10-03T07:32:56Z</time>
      </trkpt>
      <trkpt lat="46.75852" lon="5.62395">
        <ele>317</ele>
        <time>2019-10-03T07:33:02Z</time>
      </trkpt>
      <trkpt lat="46.7585" lon="5.62402">
        <ele>318</ele>
        <time>2019-10-03T07:33:07Z</time>
      </trkpt>
      <trkpt lat="46.7585" lon="5.62411">
        <ele>318</ele>
        <time>2019-10-03T07:33:14Z</time>
      </trkpt>
      <trkpt lat="46.75847" lon="5.62419">
        <ele>319</ele>
        <time>2019-10-03T07:33:22Z</time>
      </trkpt>
      <trkpt lat="46.75845" lon="5.62426">
        <ele>319</ele>
        <time>2019-10-03T07:33:28Z</time>
      </trkpt>
      <trkpt lat="46.75846" lon="5.62459">
        <ele>322</ele>
        <time>2019-10-03T07:33:52Z</time>
      </trkpt>
      <trkpt lat="46.7584" lon="5.6247">
        <ele>325</ele>
        <time>2019-10-03T07:34:06Z</time>
      </trkpt>
      <trkpt lat="46.75844" lon="5.62501">
        <ele>328</ele>
        <time>2019-10-03T07:34:35Z</time>
      </trkpt>
      <trkpt lat="46.7584" lon="5.62534">
        <ele>331</ele>
        <time>2019-10-03T07:35:03Z</time>
      </trkpt>
      <trkpt lat="46.75842" lon="5.62549">
        <ele>333</ele>
        <time>2019-10-03T07:35:17Z</time>
      </trkpt>
      <trkpt lat="46.75847" lon="5.6256">
        <ele>337</ele>
        <time>2019-10-03T07:35:29Z</time>
      </trkpt>
      <trkpt lat="46.75844" lon="5.62578">
        <ele>341</ele>
        <time>2019-10-03T07:35:47Z</time>
      </trkpt>
      <trkpt lat="46.75845" lon="5.62593">
        <ele>343</ele>
        <time>2019-10-03T07:35:59Z</time>
      </trkpt>
      <trkpt lat="46.75848" lon="5.62605">
        <ele>346</ele>
        <time>2019-10-03T07:36:48Z</time>
      </trkpt>
      <trkpt lat="46.75841" lon="5.62621">
        <ele>349</ele>
        <time>2019-10-03T07:36:59Z</time>
      </trkpt>
      <trkpt lat="46.7585" lon="5.62636">
        <ele>350</ele>
        <time>2019-10-03T07:37:35Z</time>
      </trkpt>
      <trkpt lat="46.75854" lon="5.62649">
        <ele>350</ele>
        <time>2019-10-03T07:37:43Z</time>
      </trkpt>
      <trkpt lat="46.75861" lon="5.62658">
        <ele>348</ele>
        <time>2019-10-03T07:37:55Z</time>
      </trkpt>
      <trkpt lat="46.75857" lon="5.62676">
        <ele>353</ele>
        <time>2019-10-03T07:38:11Z</time>
      </trkpt>
      <trkpt lat="46.75854" lon="5.62696">
        <ele>354</ele>
        <time>2019-10-03T07:38:27Z</time>
      </trkpt>
      <trkpt lat="46.75848" lon="5.62727">
        <ele>356</ele>
        <time>2019-10-03T07:38:57Z</time>
      </trkpt>
      <trkpt lat="46.75837" lon="5.62747">
        <ele>357</ele>
        <time>2019-10-03T07:39:09Z</time>
      </trkpt>
      <trkpt lat="46.75832" lon="5.62764">
        <ele>359</ele>
        <time>2019-10-03T07:39:28Z</time>
      </trkpt>
      <trkpt lat="46.75825" lon="5.62781">
        <ele>359</ele>
        <time>2019-10-03T07:39:43Z</time>
      </trkpt>
      <trkpt lat="46.75816" lon="5.62799">
        <ele>361</ele>
        <time>2019-10-03T07:40:07Z</time>
      </trkpt>
      <trkpt lat="46.75797" lon="5.62825">
        <ele>364</ele>
        <time>2019-10-03T07:40:35Z</time>
      </trkpt>
      <trkpt lat="46.75789" lon="5.62829">
        <ele>366</ele>
        <time>2019-10-03T07:40:47Z</time>
      </trkpt>
      <trkpt lat="46.7578" lon="5.62838">
        <ele>367</ele>
        <time>2019-10-03T07:41:00Z</time>
      </trkpt>
      <trkpt lat="46.75775" lon="5.62851">
        <ele>368</ele>
        <time>2019-10-03T07:41:10Z</time>
      </trkpt>
      <trkpt lat="46.75766" lon="5.6286">
        <ele>368</ele>
        <time>2019-10-03T07:41:15Z</time>
      </trkpt>
      <trkpt lat="46.75758" lon="5.62868">
        <ele>370</ele>
        <time>2019-10-03T07:41:36Z</time>
      </trkpt>
      <trkpt lat="46.75747" lon="5.62881">
        <ele>372</ele>
        <time>2019-10-03T07:41:51Z</time>
      </trkpt>
      <trkpt lat="46.75743" lon="5.6291">
        <ele>375</ele>
        <time>2019-10-03T07:42:14Z</time>
      </trkpt>
      <trkpt lat="46.75743" lon="5.62924">
        <ele>375</ele>
        <time>2019-10-03T07:42:25Z</time>
      </trkpt>
      <trkpt lat="46.75745" lon="5.62945">
        <ele>377</ele>
        <time>2019-10-03T07:42:40Z</time>
      </trkpt>
      <trkpt lat="46.7575" lon="5.62955">
        <ele>377</ele>
        <time>2019-10-03T07:42:48Z</time>
      </trkpt>
      <trkpt lat="46.75748" lon="5.62972">
        <ele>377</ele>
        <time>2019-10-03T07:42:58Z</time>
      </trkpt>
      <trkpt lat="46.75745" lon="5.62999">
        <ele>381</ele>
        <time>2019-10-03T07:43:13Z</time>
      </trkpt>
      <trkpt lat="46.75749" lon="5.63014">
        <ele>381</ele>
        <time>2019-10-03T07:43:25Z</time>
      </trkpt>
      <trkpt lat="46.75749" lon="5.63028">
        <ele>382</ele>
        <time>2019-10-03T07:43:32Z</time>
      </trkpt>
      <trkpt lat="46.75752" lon="5.63039">
        <ele>383</ele>
        <time>2019-10-03T07:43:39Z</time>
      </trkpt>
      <trkpt lat="46.75753" lon="5.63053">
        <ele>384</ele>
        <time>2019-10-03T07:43:49Z</time>
      </trkpt>
      <trkpt lat="46.75759" lon="5.63066">
        <ele>384</ele>
        <time>2019-10-03T07:44:00Z</time>
      </trkpt>
      <trkpt lat="46.75757" lon="5.63082">
        <ele>386</ele>
        <time>2019-10-03T07:44:14Z</time>
      </trkpt>
      <trkpt lat="46.75758" lon="5.63095">
        <ele>388</ele>
        <time>2019-10-03T07:44:23Z</time>
      </trkpt>
      <trkpt lat="46.75757" lon="5.6311">
        <ele>390</ele>
        <time>2019-10-03T07:44:31Z</time>
      </trkpt>
      <trkpt lat="46.75751" lon="5.63122">
        <ele>391</ele>
        <time>2019-10-03T07:44:46Z</time>
      </trkpt>
      <trkpt lat="46.7574" lon="5.6313">
        <ele>396</ele>
        <time>2019-10-03T07:45:10Z</time>
      </trkpt>
      <trkpt lat="46.75728" lon="5.63121">
        <ele>398</ele>
        <time>2019-10-03T07:45:21Z</time>
      </trkpt>
      <trkpt lat="46.75716" lon="5.63088">
        <ele>397</ele>
        <time>2019-10-03T07:45:51Z</time>
      </trkpt>
      <trkpt lat="46.75704" lon="5.63074">
        <ele>399</ele>
        <time>2019-10-03T07:46:09Z</time>
      </trkpt>
      <trkpt lat="46.75693" lon="5.63054">
        <ele>401</ele>
        <time>2019-10-03T07:46:32Z</time>
      </trkpt>
      <trkpt lat="46.75686" lon="5.63041">
        <ele>404</ele>
        <time>2019-10-03T07:46:47Z</time>
      </trkpt>
      <trkpt lat="46.75686" lon="5.63027">
        <ele>404</ele>
        <time>2019-10-03T07:46:57Z</time>
      </trkpt>
      <trkpt lat="46.75681" lon="5.63015">
        <ele>404</ele>
        <time>2019-10-03T07:47:04Z</time>
      </trkpt>
      <trkpt lat="46.75676" lon="5.63005">
        <ele>404</ele>
        <time>2019-10-03T07:47:12Z</time>
      </trkpt>
      <trkpt lat="46.75673" lon="5.62991">
        <ele>405</ele>
        <time>2019-10-03T07:47:22Z</time>
      </trkpt>
      <trkpt lat="46.75667" lon="5.62976">
        <ele>405</ele>
        <time>2019-10-03T07:47:37Z</time>
      </trkpt>
      <trkpt lat="46.75667" lon="5.62962">
        <ele>405</ele>
        <time>2019-10-03T07:47:45Z</time>
      </trkpt>
      <trkpt lat="46.7566" lon="5.62951">
        <ele>405</ele>
        <time>2019-10-03T07:47:56Z</time>
      </trkpt>
      <trkpt lat="46.75654" lon="5.62941">
        <ele>406</ele>
        <time>2019-10-03T07:48:04Z</time>
      </trkpt>
      <trkpt lat="46.75645" lon="5.62936">
        <ele>407</ele>
        <time>2019-10-03T07:48:15Z</time>
      </trkpt>
      <trkpt lat="46.75638" lon="5.62944">
        <ele>410</ele>
        <time>2019-10-03T07:48:29Z</time>
      </trkpt>
      <trkpt lat="46.75616" lon="5.62917">
        <ele>414</ele>
        <time>2019-10-03T07:49:03Z</time>
      </trkpt>
      <trkpt lat="46.7561" lon="5.62906">
        <ele>413</ele>
        <time>2019-10-03T07:49:10Z</time>
      </trkpt>
      <trkpt lat="46.75608" lon="5.6287">
        <ele>414</ele>
        <time>2019-10-03T07:49:37Z</time>
      </trkpt>
      <trkpt lat="46.75601" lon="5.62861">
        <ele>417</ele>
        <time>2019-10-03T07:49:47Z</time>
      </trkpt>
      <trkpt lat="46.75596" lon="5.6285">
        <ele>417</ele>
        <time>2019-10-03T07:49:59Z</time>
      </trkpt>
      <trkpt lat="46.75592" lon="5.62817">
        <ele>420</ele>
        <time>2019-10-03T07:50:25Z</time>
      </trkpt>
      <trkpt lat="46.75589" lon="5.62809">
        <ele>423</ele>
        <time>2019-10-03T07:50:32Z</time>
      </trkpt>
      <trkpt lat="46.75586" lon="5.62779">
        <ele>427</ele>
        <time>2019-10-03T07:50:56Z</time>
      </trkpt>
      <trkpt lat="46.75585" lon="5.6277">
        <ele>427</ele>
        <time>2019-10-03T07:51:04Z</time>
      </trkpt>
      <trkpt lat="46.75585" lon="5.62763">
        <ele>429</ele>
        <time>2019-10-03T07:51:22Z</time>
      </trkpt>
      <trkpt lat="46.75581" lon="5.62754">
        <ele>428</ele>
        <time>2019-10-03T07:52:39Z</time>
      </trkpt>
      <trkpt lat="46.75579" lon="5.62734">
        <ele>431</ele>
        <time>2019-10-03T07:52:58Z</time>
      </trkpt>
      <trkpt lat="46.7558" lon="5.62712">
        <ele>433</ele>
        <time>2019-10-03T07:53:12Z</time>
      </trkpt>
      <trkpt lat="46.75584" lon="5.62704">
        <ele>433</ele>
        <time>2019-10-03T07:53:19Z</time>
      </trkpt>
      <trkpt lat="46.75589" lon="5.62702">
        <ele>433</ele>
        <time>2019-10-03T07:53:24Z</time>
      </trkpt>
      <trkpt lat="46.75601" lon="5.62692">
        <ele>436</ele>
        <time>2019-10-03T07:53:38Z</time>
      </trkpt>
      <trkpt lat="46.75616" lon="5.62687">
        <ele>437</ele>
        <time>2019-10-03T07:53:56Z</time>
      </trkpt>
      <trkpt lat="46.75627" lon="5.62675">
        <ele>439</ele>
        <time>2019-10-03T07:54:11Z</time>
      </trkpt>
      <trkpt lat="46.75631" lon="5.62671">
        <ele>439</ele>
        <time>2019-10-03T07:54:16Z</time>
      </trkpt>
      <trkpt lat="46.75634" lon="5.62666">
        <ele>440</ele>
        <time>2019-10-03T07:54:21Z</time>
      </trkpt>
      <trkpt lat="46.75637" lon="5.62639">
        <ele>443</ele>
        <time>2019-10-03T07:54:40Z</time>
      </trkpt>
      <trkpt lat="46.75637" lon="5.62631">
        <ele>443</ele>
        <time>2019-10-03T07:54:45Z</time>
      </trkpt>
      <trkpt lat="46.75637" lon="5.62623">
        <ele>444</ele>
        <time>2019-10-03T07:54:53Z</time>
      </trkpt>
      <trkpt lat="46.75647" lon="5.6261">
        <ele>445</ele>
        <time>2019-10-03T07:55:08Z</time>
      </trkpt>
      <trkpt lat="46.75655" lon="5.62591">
        <ele>445</ele>
        <time>2019-10-03T07:55:22Z</time>
      </trkpt>
      <trkpt lat="46.75658" lon="5.62578">
        <ele>444</ele>
        <time>2019-10-03T07:55:30Z</time>
      </trkpt>
      <trkpt lat="46.75656" lon="5.62571">
        <ele>445</ele>
        <time>2019-10-03T07:55:35Z</time>
      </trkpt>
      <trkpt lat="46.75657" lon="5.62564">
        <ele>445</ele>
        <time>2019-10-03T07:55:40Z</time>
      </trkpt>
      <trkpt lat="46.75657" lon="5.62549">
        <ele>446</ele>
        <time>2019-10-03T07:55:50Z</time>
      </trkpt>
      <trkpt lat="46.75658" lon="5.62541">
        <ele>446</ele>
        <time>2019-10-03T07:55:58Z</time>
      </trkpt>
      <trkpt lat="46.75663" lon="5.62535">
        <ele>446</ele>
        <time>2019-10-03T07:56:10Z</time>
      </trkpt>
      <trkpt lat="46.75662" lon="5.62528">
        <ele>442</ele>
        <time>2019-10-03T07:59:10Z</time>
      </trkpt>
      <trkpt lat="46.75657" lon="5.6252">
        <ele>440</ele>
        <time>2019-10-03T08:00:56Z</time>
      </trkpt>
      <trkpt lat="46.75655" lon="5.62514">
        <ele>440</ele>
        <time>2019-10-03T08:01:01Z</time>
      </trkpt>
      <trkpt lat="46.75655" lon="5.62506">
        <ele>440</ele>
        <time>2019-10-03T08:01:07Z</time>
      </trkpt>
      <trkpt lat="46.75653" lon="5.625">
        <ele>441</ele>
        <time>2019-10-03T08:01:15Z</time>
      </trkpt>
      <trkpt lat="46.75653" lon="5.62504">
        <ele>441</ele>
        <time>2019-10-03T08:05:32Z</time>
      </trkpt>
      <trkpt lat="46.75655" lon="5.62511">
        <ele>440</ele>
        <time>2019-10-03T08:05:38Z</time>
      </trkpt>
      <trkpt lat="46.75658" lon="5.62517">
        <ele>440</ele>
        <time>2019-10-03T08:05:43Z</time>
      </trkpt>
      <trkpt lat="46.7566" lon="5.62523">
        <ele>440</ele>
        <time>2019-10-03T08:05:47Z</time>
      </trkpt>
      <trkpt lat="46.75661" lon="5.6253">
        <ele>440</ele>
        <time>2019-10-03T08:05:52Z</time>
      </trkpt>
      <trkpt lat="46.75659" lon="5.6253">
        <ele>441</ele>
        <time>2019-10-03T08:07:06Z</time>
      </trkpt>
      <trkpt lat="46.75654" lon="5.62511">
        <ele>438</ele>
        <time>2019-10-03T08:07:31Z</time>
      </trkpt>
      <trkpt lat="46.75653" lon="5.62504">
        <ele>438</ele>
        <time>2019-10-03T08:07:35Z</time>
      </trkpt>
      <trkpt lat="46.7565" lon="5.62497">
        <ele>438</ele>
        <time>2019-10-03T08:07:43Z</time>
      </trkpt>
      <trkpt lat="46.75644" lon="5.62493">
        <ele>437</ele>
        <time>2019-10-03T08:10:00Z</time>
      </trkpt>
      <trkpt lat="46.75638" lon="5.62487">
        <ele>441</ele>
        <time>2019-10-03T08:10:48Z</time>
      </trkpt>
      <trkpt lat="46.75631" lon="5.6248">
        <ele>440</ele>
        <time>2019-10-03T08:10:58Z</time>
      </trkpt>
      <trkpt lat="46.75626" lon="5.62477">
        <ele>440</ele>
        <time>2019-10-03T08:11:03Z</time>
      </trkpt>
      <trkpt lat="46.75622" lon="5.62474">
        <ele>440</ele>
        <time>2019-10-03T08:11:08Z</time>
      </trkpt>
      <trkpt lat="46.75616" lon="5.62472">
        <ele>441</ele>
        <time>2019-10-03T08:11:12Z</time>
      </trkpt>
      <trkpt lat="46.75611" lon="5.62472">
        <ele>441</ele>
        <time>2019-10-03T08:11:16Z</time>
      </trkpt>
      <trkpt lat="46.75609" lon="5.62465">
        <ele>441</ele>
        <time>2019-10-03T08:11:20Z</time>
      </trkpt>
      <trkpt lat="46.75606" lon="5.6246">
        <ele>441</ele>
        <time>2019-10-03T08:11:24Z</time>
      </trkpt>
      <trkpt lat="46.75601" lon="5.62456">
        <ele>442</ele>
        <time>2019-10-03T08:11:29Z</time>
      </trkpt>
      <trkpt lat="46.75597" lon="5.62454">
        <ele>443</ele>
        <time>2019-10-03T08:11:33Z</time>
      </trkpt>
      <trkpt lat="46.75592" lon="5.62454">
        <ele>443</ele>
        <time>2019-10-03T08:11:37Z</time>
      </trkpt>
      <trkpt lat="46.75588" lon="5.62447">
        <ele>442</ele>
        <time>2019-10-03T08:11:39Z</time>
      </trkpt>
      <trkpt lat="46.75585" lon="5.6244">
        <ele>442</ele>
        <time>2019-10-03T08:11:41Z</time>
      </trkpt>
      <trkpt lat="46.75572" lon="5.62428">
        <ele>443</ele>
        <time>2019-10-03T08:11:59Z</time>
      </trkpt>
      <trkpt lat="46.75565" lon="5.62422">
        <ele>443</ele>
        <time>2019-10-03T08:12:06Z</time>
      </trkpt>
      <trkpt lat="46.75554" lon="5.62416">
        <ele>443</ele>
        <time>2019-10-03T08:12:22Z</time>
      </trkpt>
      <trkpt lat="46.75549" lon="5.62404">
        <ele>443</ele>
        <time>2019-10-03T08:12:30Z</time>
      </trkpt>
      <trkpt lat="46.75539" lon="5.62404">
        <ele>442</ele>
        <time>2019-10-03T08:12:40Z</time>
      </trkpt>
      <trkpt lat="46.75531" lon="5.624">
        <ele>442</ele>
        <time>2019-10-03T08:12:49Z</time>
      </trkpt>
      <trkpt lat="46.75526" lon="5.62397">
        <ele>442</ele>
        <time>2019-10-03T08:12:53Z</time>
      </trkpt>
      <trkpt lat="46.75521" lon="5.62397">
        <ele>442</ele>
        <time>2019-10-03T08:12:57Z</time>
      </trkpt>
      <trkpt lat="46.75516" lon="5.62398">
        <ele>441</ele>
        <time>2019-10-03T08:13:02Z</time>
      </trkpt>
      <trkpt lat="46.75512" lon="5.62396">
        <ele>441</ele>
        <time>2019-10-03T08:13:07Z</time>
      </trkpt>
      <trkpt lat="46.75501" lon="5.62386">
        <ele>441</ele>
        <time>2019-10-03T08:13:13Z</time>
      </trkpt>
      <trkpt lat="46.75497" lon="5.62384">
        <ele>440</ele>
        <time>2019-10-03T08:13:17Z</time>
      </trkpt>
      <trkpt lat="46.755" lon="5.62389">
        <ele>439</ele>
        <time>2019-10-03T08:14:15Z</time>
      </trkpt>
      <trkpt lat="46.75505" lon="5.62393">
        <ele>440</ele>
        <time>2019-10-03T08:14:23Z</time>
      </trkpt>
      <trkpt lat="46.7551" lon="5.62395">
        <ele>439</ele>
        <time>2019-10-03T08:14:27Z</time>
      </trkpt>
      <trkpt lat="46.75516" lon="5.624">
        <ele>440</ele>
        <time>2019-10-03T08:14:41Z</time>
      </trkpt>
      <trkpt lat="46.75516" lon="5.62407">
        <ele>440</ele>
        <time>2019-10-03T08:14:47Z</time>
      </trkpt>
      <trkpt lat="46.75511" lon="5.62419">
        <ele>440</ele>
        <time>2019-10-03T08:14:55Z</time>
      </trkpt>
      <trkpt lat="46.75509" lon="5.62427">
        <ele>440</ele>
        <time>2019-10-03T08:14:59Z</time>
      </trkpt>
      <trkpt lat="46.75504" lon="5.62442">
        <ele>439</ele>
        <time>2019-10-03T08:15:10Z</time>
      </trkpt>
      <trkpt lat="46.75491" lon="5.62481">
        <ele>441</ele>
        <time>2019-10-03T08:15:37Z</time>
      </trkpt>
      <trkpt lat="46.75488" lon="5.62494">
        <ele>440</ele>
        <time>2019-10-03T08:15:56Z</time>
      </trkpt>
      <trkpt lat="46.75481" lon="5.62519">
        <ele>440</ele>
        <time>2019-10-03T08:16:10Z</time>
      </trkpt>
      <trkpt lat="46.75477" lon="5.62535">
        <ele>444</ele>
        <time>2019-10-03T08:16:22Z</time>
      </trkpt>
      <trkpt lat="46.75472" lon="5.62545">
        <ele>444</ele>
        <time>2019-10-03T08:16:32Z</time>
      </trkpt>
      <trkpt lat="46.75466" lon="5.62557">
        <ele>444</ele>
        <time>2019-10-03T08:16:41Z</time>
      </trkpt>
      <trkpt lat="46.75438" lon="5.62541">
        <ele>443</ele>
        <time>2019-10-03T08:16:54Z</time>
      </trkpt>
      <trkpt lat="46.7544" lon="5.62519">
        <ele>443</ele>
        <time>2019-10-03T08:17:20Z</time>
      </trkpt>
      <trkpt lat="46.75431" lon="5.62495">
        <ele>442</ele>
        <time>2019-10-03T08:17:39Z</time>
      </trkpt>
      <trkpt lat="46.75417" lon="5.62473">
        <ele>442</ele>
        <time>2019-10-03T08:18:37Z</time>
      </trkpt>
      <trkpt lat="46.75415" lon="5.62466">
        <ele>442</ele>
        <time>2019-10-03T08:18:42Z</time>
      </trkpt>
      <trkpt lat="46.75412" lon="5.62453">
        <ele>441</ele>
        <time>2019-10-03T08:20:02Z</time>
      </trkpt>
      <trkpt lat="46.75404" lon="5.62447">
        <ele>440</ele>
        <time>2019-10-03T08:20:12Z</time>
      </trkpt>
      <trkpt lat="46.75393" lon="5.62448">
        <ele>441</ele>
        <time>2019-10-03T08:20:59Z</time>
      </trkpt>
      <trkpt lat="46.75384" lon="5.62444">
        <ele>441</ele>
        <time>2019-10-03T08:21:08Z</time>
      </trkpt>
      <trkpt lat="46.75375" lon="5.62437">
        <ele>440</ele>
        <time>2019-10-03T08:21:30Z</time>
      </trkpt>
      <trkpt lat="46.7536" lon="5.62442">
        <ele>436</ele>
        <time>2019-10-03T08:22:07Z</time>
      </trkpt>
      <trkpt lat="46.75355" lon="5.62441">
        <ele>436</ele>
        <time>2019-10-03T08:22:13Z</time>
      </trkpt>
      <trkpt lat="46.7535" lon="5.62439">
        <ele>436</ele>
        <time>2019-10-03T08:22:18Z</time>
      </trkpt>
      <trkpt lat="46.75346" lon="5.62431">
        <ele>435</ele>
        <time>2019-10-03T08:22:28Z</time>
      </trkpt>
      <trkpt lat="46.75343" lon="5.62421">
        <ele>434</ele>
        <time>2019-10-03T08:22:40Z</time>
      </trkpt>
      <trkpt lat="46.75338" lon="5.62418">
        <ele>433</ele>
        <time>2019-10-03T08:22:52Z</time>
      </trkpt>
      <trkpt lat="46.75335" lon="5.62413">
        <ele>432</ele>
        <time>2019-10-03T08:23:08Z</time>
      </trkpt>
      <trkpt lat="46.7533" lon="5.6241">
        <ele>430</ele>
        <time>2019-10-03T08:23:49Z</time>
      </trkpt>
      <trkpt lat="46.75326" lon="5.62403">
        <ele>428</ele>
        <time>2019-10-03T08:24:01Z</time>
      </trkpt>
      <trkpt lat="46.75321" lon="5.62397">
        <ele>427</ele>
        <time>2019-10-03T08:24:13Z</time>
      </trkpt>
      <trkpt lat="46.75316" lon="5.624">
        <ele>426</ele>
        <time>2019-10-03T08:24:49Z</time>
      </trkpt>
      <trkpt lat="46.75316" lon="5.62405">
        <ele>427</ele>
        <time>2019-10-03T08:27:19Z</time>
      </trkpt>
      <trkpt lat="46.75321" lon="5.6241">
        <ele>428</ele>
        <time>2019-10-03T08:28:19Z</time>
      </trkpt>
      <trkpt lat="46.75327" lon="5.62412">
        <ele>428</ele>
        <time>2019-10-03T08:28:55Z</time>
      </trkpt>
      <trkpt lat="46.75331" lon="5.62413">
        <ele>428</ele>
        <time>2019-10-03T08:29:01Z</time>
      </trkpt>
      <trkpt lat="46.75339" lon="5.62417">
        <ele>432</ele>
        <time>2019-10-03T08:29:13Z</time>
      </trkpt>
      <trkpt lat="46.75344" lon="5.62419">
        <ele>432</ele>
        <time>2019-10-03T08:29:19Z</time>
      </trkpt>
      <trkpt lat="46.75348" lon="5.62422">
        <ele>434</ele>
        <time>2019-10-03T08:29:25Z</time>
      </trkpt>
      <trkpt lat="46.7535" lon="5.62429">
        <ele>434</ele>
        <time>2019-10-03T08:29:30Z</time>
      </trkpt>
      <trkpt lat="46.75351" lon="5.62445">
        <ele>435</ele>
        <time>2019-10-03T08:29:44Z</time>
      </trkpt>
      <trkpt lat="46.75351" lon="5.62472">
        <ele>432</ele>
        <time>2019-10-03T08:30:09Z</time>
      </trkpt>
      <trkpt lat="46.75354" lon="5.62485">
        <ele>432</ele>
        <time>2019-10-03T08:30:19Z</time>
      </trkpt>
      <trkpt lat="46.75378" lon="5.62497">
        <ele>437</ele>
        <time>2019-10-03T08:30:45Z</time>
      </trkpt>
      <trkpt lat="46.75377" lon="5.62504">
        <ele>436</ele>
        <time>2019-10-03T08:30:54Z</time>
      </trkpt>
      <trkpt lat="46.75382" lon="5.62501">
        <ele>438</ele>
        <time>2019-10-03T08:31:42Z</time>
      </trkpt>
      <trkpt lat="46.75389" lon="5.625">
        <ele>439</ele>
        <time>2019-10-03T08:31:49Z</time>
      </trkpt>
      <trkpt lat="46.75395" lon="5.62495">
        <ele>440</ele>
        <time>2019-10-03T08:31:57Z</time>
      </trkpt>
      <trkpt lat="46.75401" lon="5.62494">
        <ele>441</ele>
        <time>2019-10-03T08:32:05Z</time>
      </trkpt>
      <trkpt lat="46.75407" lon="5.62495">
        <ele>442</ele>
        <time>2019-10-03T08:32:08Z</time>
      </trkpt>
      <trkpt lat="46.75418" lon="5.62493">
        <ele>442</ele>
        <time>2019-10-03T08:32:15Z</time>
      </trkpt>
      <trkpt lat="46.75427" lon="5.62498">
        <ele>443</ele>
        <time>2019-10-03T08:32:20Z</time>
      </trkpt>
      <trkpt lat="46.75433" lon="5.62496">
        <ele>442</ele>
        <time>2019-10-03T08:32:25Z</time>
      </trkpt>
      <trkpt lat="46.75441" lon="5.62509">
        <ele>443</ele>
        <time>2019-10-03T08:32:57Z</time>
      </trkpt>
      <trkpt lat="46.75441" lon="5.6252">
        <ele>444</ele>
        <time>2019-10-03T08:33:06Z</time>
      </trkpt>
      <trkpt lat="46.75443" lon="5.62526">
        <ele>444</ele>
        <time>2019-10-03T08:33:10Z</time>
      </trkpt>
      <trkpt lat="46.75453" lon="5.62547">
        <ele>446</ele>
        <time>2019-10-03T08:33:36Z</time>
      </trkpt>
      <trkpt lat="46.75457" lon="5.62554">
        <ele>446</ele>
        <time>2019-10-03T08:33:41Z</time>
      </trkpt>
      <trkpt lat="46.75455" lon="5.62564">
        <ele>446</ele>
        <time>2019-10-03T08:33:48Z</time>
      </trkpt>
      <trkpt lat="46.75458" lon="5.62571">
        <ele>447</ele>
        <time>2019-10-03T08:33:53Z</time>
      </trkpt>
      <trkpt lat="46.75462" lon="5.62575">
        <ele>448</ele>
        <time>2019-10-03T08:33:57Z</time>
      </trkpt>
      <trkpt lat="46.75466" lon="5.62577">
        <ele>449</ele>
        <time>2019-10-03T08:34:07Z</time>
      </trkpt>
      <trkpt lat="46.75477" lon="5.62595">
        <ele>449</ele>
        <time>2019-10-03T08:34:42Z</time>
      </trkpt>
      <trkpt lat="46.75482" lon="5.62601">
        <ele>450</ele>
        <time>2019-10-03T08:34:48Z</time>
      </trkpt>
      <trkpt lat="46.75485" lon="5.6261">
        <ele>451</ele>
        <time>2019-10-03T08:34:56Z</time>
      </trkpt>
      <trkpt lat="46.7548" lon="5.62617">
        <ele>451</ele>
        <time>2019-10-03T08:35:09Z</time>
      </trkpt>
      <trkpt lat="46.75473" lon="5.62624">
        <ele>451</ele>
        <time>2019-10-03T08:35:18Z</time>
      </trkpt>
      <trkpt lat="46.75469" lon="5.62629">
        <ele>452</ele>
        <time>2019-10-03T08:35:24Z</time>
      </trkpt>
      <trkpt lat="46.75448" lon="5.62649">
        <ele>451</ele>
        <time>2019-10-03T08:35:49Z</time>
      </trkpt>
      <trkpt lat="46.75443" lon="5.62649">
        <ele>451</ele>
        <time>2019-10-03T08:35:54Z</time>
      </trkpt>
      <trkpt lat="46.75432" lon="5.62657">
        <ele>451</ele>
        <time>2019-10-03T08:36:07Z</time>
      </trkpt>
      <trkpt lat="46.75417" lon="5.62668">
        <ele>451</ele>
        <time>2019-10-03T08:36:24Z</time>
      </trkpt>
      <trkpt lat="46.75413" lon="5.6267">
        <ele>452</ele>
        <time>2019-10-03T08:36:29Z</time>
      </trkpt>
      <trkpt lat="46.7541" lon="5.62665">
        <ele>452</ele>
        <time>2019-10-03T08:36:43Z</time>
      </trkpt>
      <trkpt lat="46.75411" lon="5.62665">
        <ele>451</ele>
        <time>2019-10-03T08:38:12Z</time>
      </trkpt>
      <trkpt lat="46.75416" lon="5.62669">
        <ele>453</ele>
        <time>2019-10-03T08:39:06Z</time>
      </trkpt>
      <trkpt lat="46.75419" lon="5.62663">
        <ele>452</ele>
        <time>2019-10-03T08:39:29Z</time>
      </trkpt>
      <trkpt lat="46.75426" lon="5.62659">
        <ele>451</ele>
        <time>2019-10-03T08:40:43Z</time>
      </trkpt>
      <trkpt lat="46.75431" lon="5.62657">
        <ele>451</ele>
        <time>2019-10-03T08:40:48Z</time>
      </trkpt>
      <trkpt lat="46.75435" lon="5.62654">
        <ele>451</ele>
        <time>2019-10-03T08:40:53Z</time>
      </trkpt>
      <trkpt lat="46.75439" lon="5.6265">
        <ele>451</ele>
        <time>2019-10-03T08:41:03Z</time>
      </trkpt>
      <trkpt lat="46.75444" lon="5.62646">
        <ele>451</ele>
        <time>2019-10-03T08:41:09Z</time>
      </trkpt>
      <trkpt lat="46.7545" lon="5.6264">
        <ele>451</ele>
        <time>2019-10-03T08:41:18Z</time>
      </trkpt>
      <trkpt lat="46.75454" lon="5.62636">
        <ele>451</ele>
        <time>2019-10-03T08:41:23Z</time>
      </trkpt>
      <trkpt lat="46.75458" lon="5.62632">
        <ele>452</ele>
        <time>2019-10-03T08:41:28Z</time>
      </trkpt>
      <trkpt lat="46.75463" lon="5.62629">
        <ele>452</ele>
        <time>2019-10-03T08:41:33Z</time>
      </trkpt>
      <trkpt lat="46.75467" lon="5.62626">
        <ele>452</ele>
        <time>2019-10-03T08:41:38Z</time>
      </trkpt>
      <trkpt lat="46.75473" lon="5.62624">
        <ele>452</ele>
        <time>2019-10-03T08:41:46Z</time>
      </trkpt>
      <trkpt lat="46.75478" lon="5.62629">
        <ele>453</ele>
        <time>2019-10-03T08:41:52Z</time>
      </trkpt>
      <trkpt lat="46.7549" lon="5.62647">
        <ele>453</ele>
        <time>2019-10-03T08:42:11Z</time>
      </trkpt>
      <trkpt lat="46.75504" lon="5.62657">
        <ele>452</ele>
        <time>2019-10-03T08:42:31Z</time>
      </trkpt>
      <trkpt lat="46.75509" lon="5.62664">
        <ele>453</ele>
        <time>2019-10-03T08:42:38Z</time>
      </trkpt>
      <trkpt lat="46.75514" lon="5.62667">
        <ele>452</ele>
        <time>2019-10-03T08:42:43Z</time>
      </trkpt>
      <trkpt lat="46.75519" lon="5.62667">
        <ele>452</ele>
        <time>2019-10-03T08:42:48Z</time>
      </trkpt>
      <trkpt lat="46.75529" lon="5.62666">
        <ele>451</ele>
        <time>2019-10-03T08:42:56Z</time>
      </trkpt>
      <trkpt lat="46.75557" lon="5.62674">
        <ele>446</ele>
        <time>2019-10-03T08:43:32Z</time>
      </trkpt>
      <trkpt lat="46.75564" lon="5.62686">
        <ele>444</ele>
        <time>2019-10-03T08:43:42Z</time>
      </trkpt>
      <trkpt lat="46.7557" lon="5.62693">
        <ele>443</ele>
        <time>2019-10-03T08:43:50Z</time>
      </trkpt>
      <trkpt lat="46.75574" lon="5.62694">
        <ele>443</ele>
        <time>2019-10-03T08:43:54Z</time>
      </trkpt>
      <trkpt lat="46.75583" lon="5.62698">
        <ele>441</ele>
        <time>2019-10-03T08:44:02Z</time>
      </trkpt>
      <trkpt lat="46.75583" lon="5.62719">
        <ele>438</ele>
        <time>2019-10-03T08:44:21Z</time>
      </trkpt>
      <trkpt lat="46.75579" lon="5.62732">
        <ele>437</ele>
        <time>2019-10-03T08:44:30Z</time>
      </trkpt>
      <trkpt lat="46.75582" lon="5.62759">
        <ele>435</ele>
        <time>2019-10-03T08:44:46Z</time>
      </trkpt>
      <trkpt lat="46.75587" lon="5.62771">
        <ele>434</ele>
        <time>2019-10-03T08:44:55Z</time>
      </trkpt>
      <trkpt lat="46.75587" lon="5.62779">
        <ele>433</ele>
        <time>2019-10-03T08:45:00Z</time>
      </trkpt>
      <trkpt lat="46.75589" lon="5.62809">
        <ele>432</ele>
        <time>2019-10-03T08:45:15Z</time>
      </trkpt>
      <trkpt lat="46.75593" lon="5.62826">
        <ele>431</ele>
        <time>2019-10-03T08:45:30Z</time>
      </trkpt>
      <trkpt lat="46.75598" lon="5.62835">
        <ele>429</ele>
        <time>2019-10-03T08:45:42Z</time>
      </trkpt>
      <trkpt lat="46.756" lon="5.62843">
        <ele>429</ele>
        <time>2019-10-03T08:45:49Z</time>
      </trkpt>
      <trkpt lat="46.75608" lon="5.62857">
        <ele>425</ele>
        <time>2019-10-03T08:46:01Z</time>
      </trkpt>
      <trkpt lat="46.75613" lon="5.62879">
        <ele>425</ele>
        <time>2019-10-03T08:46:18Z</time>
      </trkpt>
      <trkpt lat="46.75613" lon="5.62893">
        <ele>425</ele>
        <time>2019-10-03T08:46:25Z</time>
      </trkpt>
      <trkpt lat="46.75621" lon="5.62918">
        <ele>424</ele>
        <time>2019-10-03T08:46:41Z</time>
      </trkpt>
      <trkpt lat="46.75631" lon="5.62938">
        <ele>423</ele>
        <time>2019-10-03T08:46:58Z</time>
      </trkpt>
      <trkpt lat="46.75641" lon="5.6294">
        <ele>420</ele>
        <time>2019-10-03T08:47:04Z</time>
      </trkpt>
      <trkpt lat="46.75646" lon="5.62952">
        <ele>420</ele>
        <time>2019-10-03T08:47:11Z</time>
      </trkpt>
      <trkpt lat="46.75647" lon="5.62967">
        <ele>420</ele>
        <time>2019-10-03T08:47:19Z</time>
      </trkpt>
      <trkpt lat="46.75656" lon="5.62993">
        <ele>420</ele>
        <time>2019-10-03T08:47:39Z</time>
      </trkpt>
      <trkpt lat="46.75662" lon="5.63005">
        <ele>420</ele>
        <time>2019-10-03T08:47:49Z</time>
      </trkpt>
      <trkpt lat="46.75668" lon="5.63017">
        <ele>419</ele>
        <time>2019-10-03T08:47:59Z</time>
      </trkpt>
      <trkpt lat="46.75671" lon="5.6303">
        <ele>420</ele>
        <time>2019-10-03T08:48:07Z</time>
      </trkpt>
      <trkpt lat="46.7567" lon="5.63044">
        <ele>421</ele>
        <time>2019-10-03T08:48:12Z</time>
      </trkpt>
      <trkpt lat="46.75672" lon="5.63071">
        <ele>423</ele>
        <time>2019-10-03T08:48:26Z</time>
      </trkpt>
      <trkpt lat="46.75679" lon="5.63083">
        <ele>423</ele>
        <time>2019-10-03T08:48:39Z</time>
      </trkpt>
      <trkpt lat="46.75679" lon="5.63099">
        <ele>423</ele>
        <time>2019-10-03T08:48:50Z</time>
      </trkpt>
      <trkpt lat="46.75684" lon="5.6311">
        <ele>423</ele>
        <time>2019-10-03T08:48:59Z</time>
      </trkpt>
      <trkpt lat="46.75699" lon="5.63127">
        <ele>422</ele>
        <time>2019-10-03T08:49:14Z</time>
      </trkpt>
      <trkpt lat="46.75713" lon="5.63149">
        <ele>422</ele>
        <time>2019-10-03T08:49:32Z</time>
      </trkpt>
      <trkpt lat="46.7571" lon="5.63168">
        <ele>422</ele>
        <time>2019-10-03T08:49:46Z</time>
      </trkpt>
      <trkpt lat="46.75704" lon="5.63184">
        <ele>425</ele>
        <time>2019-10-03T08:49:57Z</time>
      </trkpt>
      <trkpt lat="46.75712" lon="5.63209">
        <ele>427</ele>
        <time>2019-10-03T08:50:12Z</time>
      </trkpt>
      <trkpt lat="46.75725" lon="5.63228">
        <ele>427</ele>
        <time>2019-10-03T08:50:28Z</time>
      </trkpt>
      <trkpt lat="46.75745" lon="5.63258">
        <ele>428</ele>
        <time>2019-10-03T08:50:55Z</time>
      </trkpt>
      <trkpt lat="46.75753" lon="5.63265">
        <ele>429</ele>
        <time>2019-10-03T08:51:02Z</time>
      </trkpt>
      <trkpt lat="46.75764" lon="5.63272">
        <ele>429</ele>
        <time>2019-10-03T08:51:13Z</time>
      </trkpt>
      <trkpt lat="46.75771" lon="5.6328">
        <ele>428</ele>
        <time>2019-10-03T08:51:24Z</time>
      </trkpt>
      <trkpt lat="46.75788" lon="5.63292">
        <ele>427</ele>
        <time>2019-10-03T08:51:47Z</time>
      </trkpt>
      <trkpt lat="46.75799" lon="5.63302">
        <ele>428</ele>
        <time>2019-10-03T08:52:03Z</time>
      </trkpt>
      <trkpt lat="46.75806" lon="5.63312">
        <ele>428</ele>
        <time>2019-10-03T08:52:19Z</time>
      </trkpt>
      <trkpt lat="46.75811" lon="5.63327">
        <ele>430</ele>
        <time>2019-10-03T08:52:35Z</time>
      </trkpt>
      <trkpt lat="46.75843" lon="5.63351">
        <ele>430</ele>
        <time>2019-10-03T08:53:12Z</time>
      </trkpt>
      <trkpt lat="46.75864" lon="5.63381">
        <ele>429</ele>
        <time>2019-10-03T08:53:43Z</time>
      </trkpt>
      <trkpt lat="46.75869" lon="5.63395">
        <ele>429</ele>
        <time>2019-10-03T08:53:55Z</time>
      </trkpt>
      <trkpt lat="46.75871" lon="5.6341">
        <ele>430</ele>
        <time>2019-10-03T08:54:03Z</time>
      </trkpt>
      <trkpt lat="46.75876" lon="5.6342">
        <ele>431</ele>
        <time>2019-10-03T08:54:10Z</time>
      </trkpt>
      <trkpt lat="46.75884" lon="5.63427">
        <ele>430</ele>
        <time>2019-10-03T08:54:19Z</time>
      </trkpt>
      <trkpt lat="46.75889" lon="5.6344">
        <ele>432</ele>
        <time>2019-10-03T08:54:33Z</time>
      </trkpt>
      <trkpt lat="46.75919" lon="5.63476">
        <ele>435</ele>
        <time>2019-10-03T08:55:10Z</time>
      </trkpt>
      <trkpt lat="46.75927" lon="5.63482">
        <ele>434</ele>
        <time>2019-10-03T08:55:19Z</time>
      </trkpt>
      <trkpt lat="46.75934" lon="5.63491">
        <ele>435</ele>
        <time>2019-10-03T08:55:30Z</time>
      </trkpt>
      <trkpt lat="46.75951" lon="5.63513">
        <ele>436</ele>
        <time>2019-10-03T08:55:58Z</time>
      </trkpt>
      <trkpt lat="46.75957" lon="5.63525">
        <ele>437</ele>
        <time>2019-10-03T08:56:08Z</time>
      </trkpt>
      <trkpt lat="46.75964" lon="5.63533">
        <ele>439</ele>
        <time>2019-10-03T08:56:17Z</time>
      </trkpt>
      <trkpt lat="46.75973" lon="5.63538">
        <ele>439</ele>
        <time>2019-10-03T08:56:25Z</time>
      </trkpt>
      <trkpt lat="46.7598" lon="5.63546">
        <ele>440</ele>
        <time>2019-10-03T08:56:32Z</time>
      </trkpt>
      <trkpt lat="46.75989" lon="5.63549">
        <ele>439</ele>
        <time>2019-10-03T08:56:41Z</time>
      </trkpt>
      <trkpt lat="46.75998" lon="5.63557">
        <ele>438</ele>
        <time>2019-10-03T08:56:50Z</time>
      </trkpt>
      <trkpt lat="46.76033" lon="5.63598">
        <ele>444</ele>
        <time>2019-10-03T08:57:36Z</time>
      </trkpt>
      <trkpt lat="46.76042" lon="5.63606">
        <ele>444</ele>
        <time>2019-10-03T08:57:44Z</time>
      </trkpt>
      <trkpt lat="46.76058" lon="5.63623">
        <ele>443</ele>
        <time>2019-10-03T08:58:00Z</time>
      </trkpt>
      <trkpt lat="46.76067" lon="5.6363">
        <ele>445</ele>
        <time>2019-10-03T08:58:09Z</time>
      </trkpt>
      <trkpt lat="46.76071" lon="5.63642">
        <ele>446</ele>
        <time>2019-10-03T08:58:18Z</time>
      </trkpt>
      <trkpt lat="46.76092" lon="5.63662">
        <ele>448</ele>
        <time>2019-10-03T08:58:48Z</time>
      </trkpt>
      <trkpt lat="46.76107" lon="5.63672">
        <ele>449</ele>
        <time>2019-10-03T08:59:02Z</time>
      </trkpt>
      <trkpt lat="46.76115" lon="5.63675">
        <ele>448</ele>
        <time>2019-10-03T08:59:10Z</time>
      </trkpt>
      <trkpt lat="46.76123" lon="5.63685">
        <ele>449</ele>
        <time>2019-10-03T08:59:22Z</time>
      </trkpt>
      <trkpt lat="46.76129" lon="5.63694">
        <ele>449</ele>
        <time>2019-10-03T08:59:30Z</time>
      </trkpt>
      <trkpt lat="46.76135" lon="5.63705">
        <ele>450</ele>
        <time>2019-10-03T08:59:40Z</time>
      </trkpt>
      <trkpt lat="46.76141" lon="5.63729">
        <ele>452</ele>
        <time>2019-10-03T08:59:54Z</time>
      </trkpt>
      <trkpt lat="46.76151" lon="5.63738">
        <ele>451</ele>
        <time>2019-10-03T09:00:05Z</time>
      </trkpt>
      <trkpt lat="46.76156" lon="5.63749">
        <ele>451</ele>
        <time>2019-10-03T09:00:14Z</time>
      </trkpt>
      <trkpt lat="46.76161" lon="5.63762">
        <ele>453</ele>
        <time>2019-10-03T09:00:23Z</time>
      </trkpt>
      <trkpt lat="46.76173" lon="5.63781">
        <ele>455</ele>
        <time>2019-10-03T09:00:42Z</time>
      </trkpt>
      <trkpt lat="46.76177" lon="5.63792">
        <ele>456</ele>
        <time>2019-10-03T09:00:49Z</time>
      </trkpt>
      <trkpt lat="46.76183" lon="5.63802">
        <ele>457</ele>
        <time>2019-10-03T09:00:59Z</time>
      </trkpt>
      <trkpt lat="46.76193" lon="5.63812">
        <ele>456</ele>
        <time>2019-10-03T09:01:12Z</time>
      </trkpt>
      <trkpt lat="46.76209" lon="5.63835">
        <ele>458</ele>
        <time>2019-10-03T09:01:36Z</time>
      </trkpt>
      <trkpt lat="46.76217" lon="5.63887">
        <ele>464</ele>
        <time>2019-10-03T09:02:15Z</time>
      </trkpt>
      <trkpt lat="46.76219" lon="5.63916">
        <ele>467</ele>
        <time>2019-10-03T09:02:32Z</time>
      </trkpt>
      <trkpt lat="46.76222" lon="5.63937">
        <ele>467</ele>
        <time>2019-10-03T09:02:46Z</time>
      </trkpt>
      <trkpt lat="46.76235" lon="5.63973">
        <ele>469</ele>
        <time>2019-10-03T09:03:09Z</time>
      </trkpt>
      <trkpt lat="46.76238" lon="5.63989">
        <ele>470</ele>
        <time>2019-10-03T09:03:21Z</time>
      </trkpt>
      <trkpt lat="46.76244" lon="5.64001">
        <ele>470</ele>
        <time>2019-10-03T09:03:29Z</time>
      </trkpt>
      <trkpt lat="46.7625" lon="5.64013">
        <ele>473</ele>
        <time>2019-10-03T09:03:39Z</time>
      </trkpt>
      <trkpt lat="46.76255" lon="5.64024">
        <ele>473</ele>
        <time>2019-10-03T09:03:47Z</time>
      </trkpt>
      <trkpt lat="46.76269" lon="5.64036">
        <ele>468</ele>
        <time>2019-10-03T09:04:05Z</time>
      </trkpt>
      <trkpt lat="46.76276" lon="5.64046">
        <ele>468</ele>
        <time>2019-10-03T09:04:15Z</time>
      </trkpt>
      <trkpt lat="46.76286" lon="5.64062">
        <ele>469</ele>
        <time>2019-10-03T09:04:32Z</time>
      </trkpt>
      <trkpt lat="46.76292" lon="5.64067">
        <ele>473</ele>
        <time>2019-10-03T09:05:08Z</time>
      </trkpt>
      <trkpt lat="46.76296" lon="5.6407">
        <ele>472</ele>
        <time>2019-10-03T09:05:14Z</time>
      </trkpt>
      <trkpt lat="46.763" lon="5.64074">
        <ele>472</ele>
        <time>2019-10-03T09:07:01Z</time>
      </trkpt>
      <trkpt lat="46.76305" lon="5.64066">
        <ele>474</ele>
        <time>2019-10-03T09:08:02Z</time>
      </trkpt>
      <trkpt lat="46.7631" lon="5.64062">
        <ele>474</ele>
        <time>2019-10-03T09:08:07Z</time>
      </trkpt>
      <trkpt lat="46.76319" lon="5.64054">
        <ele>475</ele>
        <time>2019-10-03T09:08:16Z</time>
      </trkpt>
      <trkpt lat="46.76323" lon="5.64051">
        <ele>475</ele>
        <time>2019-10-03T09:08:21Z</time>
      </trkpt>
      <trkpt lat="46.76337" lon="5.64042">
        <ele>476</ele>
        <time>2019-10-03T09:08:35Z</time>
      </trkpt>
      <trkpt lat="46.76342" lon="5.64039">
        <ele>476</ele>
        <time>2019-10-03T09:08:39Z</time>
      </trkpt>
      <trkpt lat="46.76346" lon="5.64036">
        <ele>476</ele>
        <time>2019-10-03T09:08:43Z</time>
      </trkpt>
      <trkpt lat="46.7635" lon="5.64034">
        <ele>476</ele>
        <time>2019-10-03T09:08:47Z</time>
      </trkpt>
      <trkpt lat="46.76354" lon="5.64031">
        <ele>477</ele>
        <time>2019-10-03T09:08:52Z</time>
      </trkpt>
      <trkpt lat="46.7637" lon="5.64021">
        <ele>477</ele>
        <time>2019-10-03T09:09:09Z</time>
      </trkpt>
      <trkpt lat="46.76375" lon="5.64019">
        <ele>478</ele>
        <time>2019-10-03T09:09:14Z</time>
      </trkpt>
      <trkpt lat="46.76379" lon="5.64017">
        <ele>478</ele>
        <time>2019-10-03T09:09:18Z</time>
      </trkpt>
      <trkpt lat="46.76384" lon="5.64015">
        <ele>477</ele>
        <time>2019-10-03T09:09:22Z</time>
      </trkpt>
      <trkpt lat="46.76389" lon="5.64013">
        <ele>478</ele>
        <time>2019-10-03T09:09:27Z</time>
      </trkpt>
      <trkpt lat="46.76395" lon="5.64011">
        <ele>478</ele>
        <time>2019-10-03T09:09:32Z</time>
      </trkpt>
      <trkpt lat="46.7642" lon="5.64005">
        <ele>480</ele>
        <time>2019-10-03T09:09:54Z</time>
      </trkpt>
      <trkpt lat="46.76436" lon="5.64004">
        <ele>481</ele>
        <time>2019-10-03T09:10:08Z</time>
      </trkpt>
      <trkpt lat="46.76451" lon="5.64002">
        <ele>481</ele>
        <time>2019-10-03T09:10:20Z</time>
      </trkpt>
      <trkpt lat="46.7647" lon="5.64001">
        <ele>483</ele>
        <time>2019-10-03T09:10:38Z</time>
      </trkpt>
      <trkpt lat="46.76474" lon="5.63998">
        <ele>483</ele>
        <time>2019-10-03T09:12:34Z</time>
      </trkpt>
      <trkpt lat="46.76493" lon="5.64005">
        <ele>487</ele>
        <time>2019-10-03T09:12:50Z</time>
      </trkpt>
      <trkpt lat="46.76499" lon="5.64006">
        <ele>486</ele>
        <time>2019-10-03T09:12:55Z</time>
      </trkpt>
      <trkpt lat="46.76503" lon="5.64008">
        <ele>487</ele>
        <time>2019-10-03T09:12:59Z</time>
      </trkpt>
      <trkpt lat="46.76508" lon="5.64009">
        <ele>486</ele>
        <time>2019-10-03T09:13:04Z</time>
      </trkpt>
      <trkpt lat="46.76514" lon="5.6401">
        <ele>487</ele>
        <time>2019-10-03T09:13:09Z</time>
      </trkpt>
      <trkpt lat="46.76519" lon="5.64011">
        <ele>487</ele>
        <time>2019-10-03T09:13:13Z</time>
      </trkpt>
      <trkpt lat="46.76523" lon="5.64012">
        <ele>487</ele>
        <time>2019-10-03T09:13:17Z</time>
      </trkpt>
      <trkpt lat="46.76533" lon="5.64016">
        <ele>488</ele>
        <time>2019-10-03T09:13:25Z</time>
      </trkpt>
      <trkpt lat="46.76543" lon="5.64019">
        <ele>488</ele>
        <time>2019-10-03T09:13:35Z</time>
      </trkpt>
      <trkpt lat="46.76553" lon="5.64021">
        <ele>489</ele>
        <time>2019-10-03T09:13:44Z</time>
      </trkpt>
      <trkpt lat="46.76558" lon="5.64023">
        <ele>489</ele>
        <time>2019-10-03T09:13:48Z</time>
      </trkpt>
      <trkpt lat="46.76563" lon="5.64025">
        <ele>489</ele>
        <time>2019-10-03T09:13:52Z</time>
      </trkpt>
      <trkpt lat="46.76569" lon="5.64027">
        <ele>489</ele>
        <time>2019-10-03T09:13:57Z</time>
      </trkpt>
      <trkpt lat="46.76591" lon="5.64034">
        <ele>491</ele>
        <time>2019-10-03T09:14:17Z</time>
      </trkpt>
      <trkpt lat="46.76596" lon="5.64036">
        <ele>491</ele>
        <time>2019-10-03T09:14:21Z</time>
      </trkpt>
      <trkpt lat="46.7661" lon="5.64039">
        <ele>492</ele>
        <time>2019-10-03T09:14:33Z</time>
      </trkpt>
      <trkpt lat="46.76616" lon="5.6404">
        <ele>492</ele>
        <time>2019-10-03T09:14:37Z</time>
      </trkpt>
      <trkpt lat="46.76626" lon="5.64042">
        <ele>492</ele>
        <time>2019-10-03T09:14:45Z</time>
      </trkpt>
      <trkpt lat="46.76657" lon="5.64047">
        <ele>492</ele>
        <time>2019-10-03T09:15:11Z</time>
      </trkpt>
      <trkpt lat="46.76662" lon="5.64048">
        <ele>492</ele>
        <time>2019-10-03T09:15:15Z</time>
      </trkpt>
      <trkpt lat="46.76672" lon="5.64052">
        <ele>492</ele>
        <time>2019-10-03T09:15:23Z</time>
      </trkpt>
      <trkpt lat="46.76676" lon="5.64056">
        <ele>492</ele>
        <time>2019-10-03T09:15:27Z</time>
      </trkpt>
      <trkpt lat="46.76696" lon="5.64066">
        <ele>490</ele>
        <time>2019-10-03T09:15:44Z</time>
      </trkpt>
      <trkpt lat="46.76705" lon="5.64071">
        <ele>490</ele>
        <time>2019-10-03T09:15:52Z</time>
      </trkpt>
      <trkpt lat="46.76726" lon="5.64081">
        <ele>488</ele>
        <time>2019-10-03T09:16:08Z</time>
      </trkpt>
      <trkpt lat="46.76731" lon="5.64084">
        <ele>489</ele>
        <time>2019-10-03T09:16:12Z</time>
      </trkpt>
      <trkpt lat="46.76745" lon="5.64092">
        <ele>488</ele>
        <time>2019-10-03T09:16:26Z</time>
      </trkpt>
      <trkpt lat="46.76755" lon="5.64095">
        <ele>488</ele>
        <time>2019-10-03T09:16:34Z</time>
      </trkpt>
      <trkpt lat="46.7676" lon="5.64097">
        <ele>488</ele>
        <time>2019-10-03T09:16:38Z</time>
      </trkpt>
      <trkpt lat="46.76789" lon="5.64103">
        <ele>488</ele>
        <time>2019-10-03T09:17:03Z</time>
      </trkpt>
      <trkpt lat="46.76793" lon="5.64103">
        <ele>489</ele>
        <time>2019-10-03T09:17:07Z</time>
      </trkpt>
      <trkpt lat="46.76806" lon="5.64105">
        <ele>489</ele>
        <time>2019-10-03T09:17:20Z</time>
      </trkpt>
      <trkpt lat="46.76816" lon="5.64106">
        <ele>488</ele>
        <time>2019-10-03T09:17:29Z</time>
      </trkpt>
      <trkpt lat="46.7683" lon="5.64102">
        <ele>489</ele>
        <time>2019-10-03T09:17:43Z</time>
      </trkpt>
      <trkpt lat="46.7685" lon="5.64098">
        <ele>487</ele>
        <time>2019-10-03T09:18:00Z</time>
      </trkpt>
      <trkpt lat="46.76871" lon="5.64095">
        <ele>487</ele>
        <time>2019-10-03T09:18:19Z</time>
      </trkpt>
      <trkpt lat="46.76876" lon="5.64095">
        <ele>487</ele>
        <time>2019-10-03T09:18:23Z</time>
      </trkpt>
      <trkpt lat="46.7689" lon="5.64091">
        <ele>488</ele>
        <time>2019-10-03T09:18:36Z</time>
      </trkpt>
      <trkpt lat="46.76899" lon="5.64092">
        <ele>488</ele>
        <time>2019-10-03T09:18:43Z</time>
      </trkpt>
      <trkpt lat="46.76906" lon="5.64085">
        <ele>488</ele>
        <time>2019-10-03T09:18:52Z</time>
      </trkpt>
      <trkpt lat="46.76906" lon="5.64079">
        <ele>488</ele>
        <time>2019-10-03T09:18:57Z</time>
      </trkpt>
      <trkpt lat="46.76911" lon="5.64051">
        <ele>489</ele>
        <time>2019-10-03T09:19:15Z</time>
      </trkpt>
      <trkpt lat="46.76926" lon="5.64013">
        <ele>491</ele>
        <time>2019-10-03T09:19:44Z</time>
      </trkpt>
      <trkpt lat="46.76925" lon="5.64005">
        <ele>491</ele>
        <time>2019-10-03T09:19:49Z</time>
      </trkpt>
      <trkpt lat="46.76927" lon="5.63998">
        <ele>491</ele>
        <time>2019-10-03T09:19:54Z</time>
      </trkpt>
      <trkpt lat="46.7693" lon="5.63992">
        <ele>491</ele>
        <time>2019-10-03T09:19:59Z</time>
      </trkpt>
      <trkpt lat="46.76935" lon="5.63985">
        <ele>491</ele>
        <time>2019-10-03T09:20:06Z</time>
      </trkpt>
      <trkpt lat="46.76939" lon="5.63973">
        <ele>491</ele>
        <time>2019-10-03T09:20:14Z</time>
      </trkpt>
      <trkpt lat="46.76943" lon="5.6396">
        <ele>489</ele>
        <time>2019-10-03T09:20:24Z</time>
      </trkpt>
      <trkpt lat="46.76945" lon="5.63953">
        <ele>490</ele>
        <time>2019-10-03T09:20:28Z</time>
      </trkpt>
      <trkpt lat="46.76948" lon="5.63946">
        <ele>490</ele>
        <time>2019-10-03T09:20:32Z</time>
      </trkpt>
      <trkpt lat="46.76949" lon="5.6394">
        <ele>490</ele>
        <time>2019-10-03T09:20:35Z</time>
      </trkpt>
      <trkpt lat="46.76952" lon="5.63933">
        <ele>489</ele>
        <time>2019-10-03T09:20:40Z</time>
      </trkpt>
      <trkpt lat="46.76957" lon="5.63919">
        <ele>489</ele>
        <time>2019-10-03T09:20:49Z</time>
      </trkpt>
      <trkpt lat="46.76961" lon="5.63914">
        <ele>490</ele>
        <time>2019-10-03T09:20:53Z</time>
      </trkpt>
      <trkpt lat="46.76964" lon="5.63909">
        <ele>490</ele>
        <time>2019-10-03T09:20:57Z</time>
      </trkpt>
      <trkpt lat="46.76968" lon="5.63905">
        <ele>490</ele>
        <time>2019-10-03T09:21:00Z</time>
      </trkpt>
      <trkpt lat="46.76973" lon="5.639">
        <ele>490</ele>
        <time>2019-10-03T09:21:04Z</time>
      </trkpt>
      <trkpt lat="46.76976" lon="5.63896">
        <ele>490</ele>
        <time>2019-10-03T09:21:08Z</time>
      </trkpt>
      <trkpt lat="46.76988" lon="5.6387">
        <ele>488</ele>
        <time>2019-10-03T09:21:28Z</time>
      </trkpt>
      <trkpt lat="46.76995" lon="5.63862">
        <ele>486</ele>
        <time>2019-10-03T09:21:37Z</time>
      </trkpt>
      <trkpt lat="46.77011" lon="5.63823">
        <ele>484</ele>
        <time>2019-10-03T09:22:00Z</time>
      </trkpt>
      <trkpt lat="46.77004" lon="5.63819">
        <ele>483</ele>
        <time>2019-10-03T09:22:09Z</time>
      </trkpt>
      <trkpt lat="46.76994" lon="5.6382">
        <ele>481</ele>
        <time>2019-10-03T09:22:18Z</time>
      </trkpt>
      <trkpt lat="46.7699" lon="5.63815">
        <ele>480</ele>
        <time>2019-10-03T09:22:23Z</time>
      </trkpt>
      <trkpt lat="46.76989" lon="5.63808">
        <ele>480</ele>
        <time>2019-10-03T09:22:28Z</time>
      </trkpt>
      <trkpt lat="46.76991" lon="5.63797">
        <ele>479</ele>
        <time>2019-10-03T09:22:42Z</time>
      </trkpt>
      <trkpt lat="46.76988" lon="5.63792">
        <ele>478</ele>
        <time>2019-10-03T09:22:45Z</time>
      </trkpt>
      <trkpt lat="46.76979" lon="5.63785">
        <ele>477</ele>
        <time>2019-10-03T09:22:52Z</time>
      </trkpt>
      <trkpt lat="46.76974" lon="5.63782">
        <ele>476</ele>
        <time>2019-10-03T09:22:57Z</time>
      </trkpt>
      <trkpt lat="46.76959" lon="5.63765">
        <ele>474</ele>
        <time>2019-10-03T09:23:18Z</time>
      </trkpt>
      <trkpt lat="46.76934" lon="5.63728">
        <ele>473</ele>
        <time>2019-10-03T09:23:55Z</time>
      </trkpt>
      <trkpt lat="46.76919" lon="5.63707">
        <ele>473</ele>
        <time>2019-10-03T09:24:19Z</time>
      </trkpt>
      <trkpt lat="46.76913" lon="5.63703">
        <ele>472</ele>
        <time>2019-10-03T09:24:26Z</time>
      </trkpt>
      <trkpt lat="46.76907" lon="5.63696">
        <ele>469</ele>
        <time>2019-10-03T09:25:25Z</time>
      </trkpt>
      <trkpt lat="46.76904" lon="5.6369">
        <ele>469</ele>
        <time>2019-10-03T09:25:29Z</time>
      </trkpt>
      <trkpt lat="46.76898" lon="5.63679">
        <ele>469</ele>
        <time>2019-10-03T09:25:39Z</time>
      </trkpt>
      <trkpt lat="46.76894" lon="5.63667">
        <ele>469</ele>
        <time>2019-10-03T09:25:49Z</time>
      </trkpt>
      <trkpt lat="46.76887" lon="5.63653">
        <ele>470</ele>
        <time>2019-10-03T09:26:03Z</time>
      </trkpt>
      <trkpt lat="46.76879" lon="5.63646">
        <ele>470</ele>
        <time>2019-10-03T09:26:12Z</time>
      </trkpt>
      <trkpt lat="46.76871" lon="5.63634">
        <ele>470</ele>
        <time>2019-10-03T09:26:24Z</time>
      </trkpt>
      <trkpt lat="46.76866" lon="5.63621">
        <ele>471</ele>
        <time>2019-10-03T09:26:41Z</time>
      </trkpt>
      <trkpt lat="46.76859" lon="5.63615">
        <ele>471</ele>
        <time>2019-10-03T09:27:17Z</time>
      </trkpt>
      <trkpt lat="46.76863" lon="5.636">
        <ele>469</ele>
        <time>2019-10-03T09:29:40Z</time>
      </trkpt>
      <trkpt lat="46.76869" lon="5.63591">
        <ele>472</ele>
        <time>2019-10-03T09:29:57Z</time>
      </trkpt>
      <trkpt lat="46.76873" lon="5.63584">
        <ele>473</ele>
        <time>2019-10-03T09:30:02Z</time>
      </trkpt>
      <trkpt lat="46.76877" lon="5.63571">
        <ele>474</ele>
        <time>2019-10-03T09:30:10Z</time>
      </trkpt>
      <trkpt lat="46.76893" lon="5.6356">
        <ele>476</ele>
        <time>2019-10-03T09:30:26Z</time>
      </trkpt>
      <trkpt lat="46.76896" lon="5.63556">
        <ele>477</ele>
        <time>2019-10-03T09:30:31Z</time>
      </trkpt>
      <trkpt lat="46.76902" lon="5.63548">
        <ele>476</ele>
        <time>2019-10-03T09:30:45Z</time>
      </trkpt>
      <trkpt lat="46.76909" lon="5.63531">
        <ele>476</ele>
        <time>2019-10-03T09:31:01Z</time>
      </trkpt>
      <trkpt lat="46.76911" lon="5.63518">
        <ele>476</ele>
        <time>2019-10-03T09:31:16Z</time>
      </trkpt>
      <trkpt lat="46.76916" lon="5.63498">
        <ele>476</ele>
        <time>2019-10-03T09:31:36Z</time>
      </trkpt>
      <trkpt lat="46.76913" lon="5.63479">
        <ele>475</ele>
        <time>2019-10-03T09:31:52Z</time>
      </trkpt>
      <trkpt lat="46.7691" lon="5.63462">
        <ele>474</ele>
        <time>2019-10-03T09:32:09Z</time>
      </trkpt>
      <trkpt lat="46.76913" lon="5.63447">
        <ele>475</ele>
        <time>2019-10-03T09:32:18Z</time>
      </trkpt>
      <trkpt lat="46.76905" lon="5.63432">
        <ele>471</ele>
        <time>2019-10-03T09:32:57Z</time>
      </trkpt>
      <trkpt lat="46.76899" lon="5.63419">
        <ele>471</ele>
        <time>2019-10-03T09:33:09Z</time>
      </trkpt>
      <trkpt lat="46.76903" lon="5.63401">
        <ele>472</ele>
        <time>2019-10-03T09:33:30Z</time>
      </trkpt>
      <trkpt lat="46.76904" lon="5.63379">
        <ele>472</ele>
        <time>2019-10-03T09:33:47Z</time>
      </trkpt>
      <trkpt lat="46.76898" lon="5.63361">
        <ele>472</ele>
        <time>2019-10-03T09:34:00Z</time>
      </trkpt>
      <trkpt lat="46.76894" lon="5.63347">
        <ele>472</ele>
        <time>2019-10-03T09:34:06Z</time>
      </trkpt>
      <trkpt lat="46.76887" lon="5.63336">
        <ele>471</ele>
        <time>2019-10-03T09:34:13Z</time>
      </trkpt>
      <trkpt lat="46.76879" lon="5.63309">
        <ele>471</ele>
        <time>2019-10-03T09:34:31Z</time>
      </trkpt>
      <trkpt lat="46.76878" lon="5.63284">
        <ele>472</ele>
        <time>2019-10-03T09:34:50Z</time>
      </trkpt>
      <trkpt lat="46.76858" lon="5.63229">
        <ele>474</ele>
        <time>2019-10-03T09:35:25Z</time>
      </trkpt>
      <trkpt lat="46.76851" lon="5.63217">
        <ele>474</ele>
        <time>2019-10-03T09:35:35Z</time>
      </trkpt>
      <trkpt lat="46.76844" lon="5.6321">
        <ele>473</ele>
        <time>2019-10-03T09:35:41Z</time>
      </trkpt>
      <trkpt lat="46.76839" lon="5.63199">
        <ele>473</ele>
        <time>2019-10-03T09:35:48Z</time>
      </trkpt>
      <trkpt lat="46.76824" lon="5.6317">
        <ele>475</ele>
        <time>2019-10-03T09:36:16Z</time>
      </trkpt>
      <trkpt lat="46.76812" lon="5.63147">
        <ele>476</ele>
        <time>2019-10-03T09:36:33Z</time>
      </trkpt>
      <trkpt lat="46.76807" lon="5.63134">
        <ele>477</ele>
        <time>2019-10-03T09:36:43Z</time>
      </trkpt>
      <trkpt lat="46.76798" lon="5.63124">
        <ele>478</ele>
        <time>2019-10-03T09:36:51Z</time>
      </trkpt>
      <trkpt lat="46.76793" lon="5.63113">
        <ele>479</ele>
        <time>2019-10-03T09:36:58Z</time>
      </trkpt>
      <trkpt lat="46.76772" lon="5.63094">
        <ele>479</ele>
        <time>2019-10-03T09:37:23Z</time>
      </trkpt>
      <trkpt lat="46.76762" lon="5.63087">
        <ele>478</ele>
        <time>2019-10-03T09:37:33Z</time>
      </trkpt>
      <trkpt lat="46.76751" lon="5.63069">
        <ele>478</ele>
        <time>2019-10-03T09:37:51Z</time>
      </trkpt>
      <trkpt lat="46.7672" lon="5.63046">
        <ele>476</ele>
        <time>2019-10-03T09:38:26Z</time>
      </trkpt>
      <trkpt lat="46.76713" lon="5.63026">
        <ele>474</ele>
        <time>2019-10-03T09:38:48Z</time>
      </trkpt>
      <trkpt lat="46.76713" lon="5.6301">
        <ele>474</ele>
        <time>2019-10-03T09:39:01Z</time>
      </trkpt>
      <trkpt lat="46.7671" lon="5.62996">
        <ele>473</ele>
        <time>2019-10-03T09:39:07Z</time>
      </trkpt>
      <trkpt lat="46.76704" lon="5.62971">
        <ele>473</ele>
        <time>2019-10-03T09:39:23Z</time>
      </trkpt>
      <trkpt lat="46.76712" lon="5.62955">
        <ele>474</ele>
        <time>2019-10-03T09:39:41Z</time>
      </trkpt>
      <trkpt lat="46.76716" lon="5.6294">
        <ele>476</ele>
        <time>2019-10-03T09:39:52Z</time>
      </trkpt>
      <trkpt lat="46.76722" lon="5.62925">
        <ele>478</ele>
        <time>2019-10-03T09:40:04Z</time>
      </trkpt>
      <trkpt lat="46.76726" lon="5.6291">
        <ele>479</ele>
        <time>2019-10-03T09:40:13Z</time>
      </trkpt>
      <trkpt lat="46.76735" lon="5.62903">
        <ele>478</ele>
        <time>2019-10-03T09:40:20Z</time>
      </trkpt>
      <trkpt lat="46.76727" lon="5.62892">
        <ele>478</ele>
        <time>2019-10-03T09:40:35Z</time>
      </trkpt>
      <trkpt lat="46.76722" lon="5.62888">
        <ele>477</ele>
        <time>2019-10-03T09:40:45Z</time>
      </trkpt>
      <trkpt lat="46.76718" lon="5.62883">
        <ele>478</ele>
        <time>2019-10-03T09:40:55Z</time>
      </trkpt>
      <trkpt lat="46.76713" lon="5.62879">
        <ele>479</ele>
        <time>2019-10-03T09:40:59Z</time>
      </trkpt>
      <trkpt lat="46.7671" lon="5.62873">
        <ele>479</ele>
        <time>2019-10-03T09:41:02Z</time>
      </trkpt>
      <trkpt lat="46.7671" lon="5.62866">
        <ele>479</ele>
        <time>2019-10-03T09:41:06Z</time>
      </trkpt>
      <trkpt lat="46.76712" lon="5.62858">
        <ele>480</ele>
        <time>2019-10-03T09:41:11Z</time>
      </trkpt>
      <trkpt lat="46.76712" lon="5.62851">
        <ele>480</ele>
        <time>2019-10-03T09:41:16Z</time>
      </trkpt>
      <trkpt lat="46.76711" lon="5.62839">
        <ele>480</ele>
        <time>2019-10-03T09:41:25Z</time>
      </trkpt>
      <trkpt lat="46.76708" lon="5.62833">
        <ele>480</ele>
        <time>2019-10-03T09:41:29Z</time>
      </trkpt>
      <trkpt lat="46.76707" lon="5.62822">
        <ele>480</ele>
        <time>2019-10-03T09:41:39Z</time>
      </trkpt>
      <trkpt lat="46.76702" lon="5.62809">
        <ele>479</ele>
        <time>2019-10-03T09:41:46Z</time>
      </trkpt>
      <trkpt lat="46.76702" lon="5.62801">
        <ele>479</ele>
        <time>2019-10-03T09:41:51Z</time>
      </trkpt>
      <trkpt lat="46.76701" lon="5.62787">
        <ele>478</ele>
        <time>2019-10-03T09:42:01Z</time>
      </trkpt>
      <trkpt lat="46.76704" lon="5.62774">
        <ele>478</ele>
        <time>2019-10-03T09:42:10Z</time>
      </trkpt>
      <trkpt lat="46.76711" lon="5.62765">
        <ele>479</ele>
        <time>2019-10-03T09:42:19Z</time>
      </trkpt>
      <trkpt lat="46.76719" lon="5.6274">
        <ele>481</ele>
        <time>2019-10-03T09:42:35Z</time>
      </trkpt>
      <trkpt lat="46.76726" lon="5.62729">
        <ele>481</ele>
        <time>2019-10-03T09:42:43Z</time>
      </trkpt>
      <trkpt lat="46.76733" lon="5.62721">
        <ele>482</ele>
        <time>2019-10-03T09:42:50Z</time>
      </trkpt>
      <trkpt lat="46.76741" lon="5.62711">
        <ele>483</ele>
        <time>2019-10-03T09:42:59Z</time>
      </trkpt>
      <trkpt lat="46.76755" lon="5.62682">
        <ele>484</ele>
        <time>2019-10-03T09:43:25Z</time>
      </trkpt>
      <trkpt lat="46.76759" lon="5.62669">
        <ele>484</ele>
        <time>2019-10-03T09:43:35Z</time>
      </trkpt>
      <trkpt lat="46.7676" lon="5.62656">
        <ele>484</ele>
        <time>2019-10-03T09:43:44Z</time>
      </trkpt>
      <trkpt lat="46.76762" lon="5.62647">
        <ele>484</ele>
        <time>2019-10-03T09:43:49Z</time>
      </trkpt>
      <trkpt lat="46.76764" lon="5.6264">
        <ele>484</ele>
        <time>2019-10-03T09:43:54Z</time>
      </trkpt>
      <trkpt lat="46.76766" lon="5.62633">
        <ele>485</ele>
        <time>2019-10-03T09:43:59Z</time>
      </trkpt>
      <trkpt lat="46.76768" lon="5.62626">
        <ele>484</ele>
        <time>2019-10-03T09:44:03Z</time>
      </trkpt>
      <trkpt lat="46.76772" lon="5.62611">
        <ele>485</ele>
        <time>2019-10-03T09:44:11Z</time>
      </trkpt>
      <trkpt lat="46.76773" lon="5.62605">
        <ele>484</ele>
        <time>2019-10-03T09:44:15Z</time>
      </trkpt>
      <trkpt lat="46.76775" lon="5.62599">
        <ele>484</ele>
        <time>2019-10-03T09:44:20Z</time>
      </trkpt>
      <trkpt lat="46.76781" lon="5.62599">
        <ele>485</ele>
        <time>2019-10-03T09:44:27Z</time>
      </trkpt>
      <trkpt lat="46.76786" lon="5.626">
        <ele>485</ele>
        <time>2019-10-03T09:44:32Z</time>
      </trkpt>
      <trkpt lat="46.76791" lon="5.62598">
        <ele>485</ele>
        <time>2019-10-03T09:44:37Z</time>
      </trkpt>
      <trkpt lat="46.76796" lon="5.62597">
        <ele>485</ele>
        <time>2019-10-03T09:44:41Z</time>
      </trkpt>
      <trkpt lat="46.76804" lon="5.62598">
        <ele>487</ele>
        <time>2019-10-03T09:45:09Z</time>
      </trkpt>
      <trkpt lat="46.76802" lon="5.62601">
        <ele>486</ele>
        <time>2019-10-03T09:46:09Z</time>
      </trkpt>
      <trkpt lat="46.76798" lon="5.62597">
        <ele>485</ele>
        <time>2019-10-03T09:46:13Z</time>
      </trkpt>
      <trkpt lat="46.76795" lon="5.62592">
        <ele>482</ele>
        <time>2019-10-03T09:49:10Z</time>
      </trkpt>
      <trkpt lat="46.76825" lon="5.62616">
        <ele>487</ele>
        <time>2019-10-03T10:33:27Z</time>
      </trkpt>
      <trkpt lat="46.76844" lon="5.62626">
        <ele>488</ele>
        <time>2019-10-03T10:33:45Z</time>
      </trkpt>
      <trkpt lat="46.76872" lon="5.62635">
        <ele>484</ele>
        <time>2019-10-03T10:34:13Z</time>
      </trkpt>
      <trkpt lat="46.76894" lon="5.62641">
        <ele>484</ele>
        <time>2019-10-03T10:34:34Z</time>
      </trkpt>
      <trkpt lat="46.76903" lon="5.62644">
        <ele>483</ele>
        <time>2019-10-03T10:34:42Z</time>
      </trkpt>
      <trkpt lat="46.76911" lon="5.62648">
        <ele>483</ele>
        <time>2019-10-03T10:34:50Z</time>
      </trkpt>
      <trkpt lat="46.7692" lon="5.62654">
        <ele>483</ele>
        <time>2019-10-03T10:34:58Z</time>
      </trkpt>
      <trkpt lat="46.76955" lon="5.62669">
        <ele>482</ele>
        <time>2019-10-03T10:35:32Z</time>
      </trkpt>
      <trkpt lat="46.76963" lon="5.6268">
        <ele>482</ele>
        <time>2019-10-03T10:35:42Z</time>
      </trkpt>
      <trkpt lat="46.76971" lon="5.62687">
        <ele>481</ele>
        <time>2019-10-03T10:35:51Z</time>
      </trkpt>
      <trkpt lat="46.7698" lon="5.6269">
        <ele>481</ele>
        <time>2019-10-03T10:36:14Z</time>
      </trkpt>
      <trkpt lat="46.76994" lon="5.62681">
        <ele>479</ele>
        <time>2019-10-03T10:36:34Z</time>
      </trkpt>
      <trkpt lat="46.77015" lon="5.62672">
        <ele>473</ele>
        <time>2019-10-03T10:37:29Z</time>
      </trkpt>
      <trkpt lat="46.77025" lon="5.62671">
        <ele>473</ele>
        <time>2019-10-03T10:37:47Z</time>
      </trkpt>
      <trkpt lat="46.77025" lon="5.62657">
        <ele>469</ele>
        <time>2019-10-03T10:38:01Z</time>
      </trkpt>
      <trkpt lat="46.7702" lon="5.62644">
        <ele>466</ele>
        <time>2019-10-03T10:38:13Z</time>
      </trkpt>
      <trkpt lat="46.77009" lon="5.62638">
        <ele>465</ele>
        <time>2019-10-03T10:38:27Z</time>
      </trkpt>
      <trkpt lat="46.77" lon="5.62616">
        <ele>461</ele>
        <time>2019-10-03T10:38:48Z</time>
      </trkpt>
      <trkpt lat="46.76999" lon="5.62602">
        <ele>459</ele>
        <time>2019-10-03T10:39:02Z</time>
      </trkpt>
      <trkpt lat="46.76992" lon="5.62596">
        <ele>452</ele>
        <time>2019-10-03T10:39:42Z</time>
      </trkpt>
      <trkpt lat="46.76992" lon="5.62594">
        <ele>449</ele>
        <time>2019-10-03T10:42:23Z</time>
      </trkpt>
      <trkpt lat="46.76993" lon="5.62576">
        <ele>447</ele>
        <time>2019-10-03T10:42:34Z</time>
      </trkpt>
      <trkpt lat="46.7699" lon="5.62563">
        <ele>444</ele>
        <time>2019-10-03T10:42:43Z</time>
      </trkpt>
      <trkpt lat="46.76978" lon="5.62527">
        <ele>438</ele>
        <time>2019-10-03T10:43:18Z</time>
      </trkpt>
      <trkpt lat="46.76977" lon="5.62513">
        <ele>436</ele>
        <time>2019-10-03T10:43:30Z</time>
      </trkpt>
      <trkpt lat="46.7697" lon="5.62499">
        <ele>430</ele>
        <time>2019-10-03T10:44:00Z</time>
      </trkpt>
      <trkpt lat="46.76946" lon="5.62484">
        <ele>427</ele>
        <time>2019-10-03T10:44:29Z</time>
      </trkpt>
      <trkpt lat="46.7694" lon="5.6248">
        <ele>425</ele>
        <time>2019-10-03T10:44:35Z</time>
      </trkpt>
      <trkpt lat="46.76933" lon="5.62479">
        <ele>424</ele>
        <time>2019-10-03T10:44:43Z</time>
      </trkpt>
      <trkpt lat="46.76926" lon="5.62473">
        <ele>424</ele>
        <time>2019-10-03T10:44:54Z</time>
      </trkpt>
      <trkpt lat="46.76917" lon="5.62465">
        <ele>423</ele>
        <time>2019-10-03T10:45:06Z</time>
      </trkpt>
      <trkpt lat="46.76912" lon="5.62457">
        <ele>423</ele>
        <time>2019-10-03T10:45:19Z</time>
      </trkpt>
      <trkpt lat="46.7691" lon="5.62451">
        <ele>422</ele>
        <time>2019-10-03T10:45:23Z</time>
      </trkpt>
      <trkpt lat="46.76905" lon="5.62444">
        <ele>421</ele>
        <time>2019-10-03T10:45:33Z</time>
      </trkpt>
      <trkpt lat="46.76899" lon="5.62431">
        <ele>419</ele>
        <time>2019-10-03T10:45:52Z</time>
      </trkpt>
      <trkpt lat="46.76896" lon="5.62411">
        <ele>417</ele>
        <time>2019-10-03T10:46:08Z</time>
      </trkpt>
      <trkpt lat="46.76887" lon="5.62402">
        <ele>416</ele>
        <time>2019-10-03T10:46:17Z</time>
      </trkpt>
      <trkpt lat="46.76886" lon="5.62384">
        <ele>413</ele>
        <time>2019-10-03T10:46:41Z</time>
      </trkpt>
      <trkpt lat="46.7689" lon="5.62372">
        <ele>413</ele>
        <time>2019-10-03T10:46:50Z</time>
      </trkpt>
      <trkpt lat="46.76893" lon="5.62345">
        <ele>411</ele>
        <time>2019-10-03T10:47:11Z</time>
      </trkpt>
      <trkpt lat="46.76904" lon="5.62318">
        <ele>409</ele>
        <time>2019-10-03T10:47:37Z</time>
      </trkpt>
      <trkpt lat="46.76915" lon="5.62323">
        <ele>408</ele>
        <time>2019-10-03T10:48:01Z</time>
      </trkpt>
      <trkpt lat="46.7693" lon="5.62326">
        <ele>408</ele>
        <time>2019-10-03T10:48:16Z</time>
      </trkpt>
      <trkpt lat="46.76942" lon="5.62333">
        <ele>408</ele>
        <time>2019-10-03T10:48:31Z</time>
      </trkpt>
      <trkpt lat="46.76952" lon="5.62335">
        <ele>409</ele>
        <time>2019-10-03T10:48:37Z</time>
      </trkpt>
      <trkpt lat="46.76972" lon="5.62334">
        <ele>409</ele>
        <time>2019-10-03T10:48:50Z</time>
      </trkpt>
      <trkpt lat="46.76981" lon="5.62336">
        <ele>410</ele>
        <time>2019-10-03T10:48:58Z</time>
      </trkpt>
      <trkpt lat="46.7699" lon="5.62336">
        <ele>409</ele>
        <time>2019-10-03T10:49:06Z</time>
      </trkpt>
      <trkpt lat="46.76999" lon="5.62339">
        <ele>410</ele>
        <time>2019-10-03T10:49:14Z</time>
      </trkpt>
      <trkpt lat="46.77016" lon="5.6235">
        <ele>409</ele>
        <time>2019-10-03T10:49:31Z</time>
      </trkpt>
      <trkpt lat="46.77035" lon="5.62353">
        <ele>410</ele>
        <time>2019-10-03T10:49:46Z</time>
      </trkpt>
      <trkpt lat="46.77043" lon="5.6236">
        <ele>410</ele>
        <time>2019-10-03T10:49:55Z</time>
      </trkpt>
      <trkpt lat="46.77051" lon="5.62366">
        <ele>410</ele>
        <time>2019-10-03T10:50:03Z</time>
      </trkpt>
      <trkpt lat="46.7706" lon="5.62372">
        <ele>411</ele>
        <time>2019-10-03T10:50:11Z</time>
      </trkpt>
      <trkpt lat="46.77073" lon="5.62381">
        <ele>410</ele>
        <time>2019-10-03T10:50:24Z</time>
      </trkpt>
      <trkpt lat="46.77077" lon="5.62384">
        <ele>410</ele>
        <time>2019-10-03T10:50:29Z</time>
      </trkpt>
      <trkpt lat="46.77083" lon="5.6239">
        <ele>409</ele>
        <time>2019-10-03T10:50:51Z</time>
      </trkpt>
      <trkpt lat="46.7711" lon="5.62407">
        <ele>410</ele>
        <time>2019-10-03T10:51:18Z</time>
      </trkpt>
      <trkpt lat="46.77115" lon="5.6241">
        <ele>411</ele>
        <time>2019-10-03T10:51:27Z</time>
      </trkpt>
      <trkpt lat="46.77132" lon="5.62426">
        <ele>411</ele>
        <time>2019-10-03T10:51:49Z</time>
      </trkpt>
      <trkpt lat="46.77141" lon="5.62436">
        <ele>413</ele>
        <time>2019-10-03T10:52:02Z</time>
      </trkpt>
      <trkpt lat="46.77148" lon="5.62443">
        <ele>413</ele>
        <time>2019-10-03T10:52:20Z</time>
      </trkpt>
      <trkpt lat="46.77152" lon="5.62447">
        <ele>413</ele>
        <time>2019-10-03T10:52:26Z</time>
      </trkpt>
      <trkpt lat="46.77168" lon="5.62468">
        <ele>414</ele>
        <time>2019-10-03T10:52:50Z</time>
      </trkpt>
      <trkpt lat="46.77171" lon="5.62474">
        <ele>414</ele>
        <time>2019-10-03T10:52:55Z</time>
      </trkpt>
      <trkpt lat="46.77174" lon="5.62479">
        <ele>415</ele>
        <time>2019-10-03T10:53:00Z</time>
      </trkpt>
      <trkpt lat="46.77182" lon="5.62488">
        <ele>416</ele>
        <time>2019-10-03T10:53:09Z</time>
      </trkpt>
      <trkpt lat="46.77185" lon="5.62493">
        <ele>415</ele>
        <time>2019-10-03T10:53:14Z</time>
      </trkpt>
      <trkpt lat="46.77188" lon="5.62499">
        <ele>416</ele>
        <time>2019-10-03T10:53:19Z</time>
      </trkpt>
      <trkpt lat="46.77193" lon="5.62505">
        <ele>416</ele>
        <time>2019-10-03T10:53:26Z</time>
      </trkpt>
      <trkpt lat="46.77198" lon="5.62513">
        <ele>417</ele>
        <time>2019-10-03T10:53:34Z</time>
      </trkpt>
      <trkpt lat="46.77203" lon="5.62517">
        <ele>417</ele>
        <time>2019-10-03T10:53:39Z</time>
      </trkpt>
      <trkpt lat="46.77227" lon="5.62544">
        <ele>420</ele>
        <time>2019-10-03T10:54:08Z</time>
      </trkpt>
      <trkpt lat="46.77252" lon="5.62574">
        <ele>426</ele>
        <time>2019-10-03T10:54:42Z</time>
      </trkpt>
      <trkpt lat="46.77271" lon="5.62604">
        <ele>429</ele>
        <time>2019-10-03T10:55:16Z</time>
      </trkpt>
      <trkpt lat="46.77282" lon="5.62616">
        <ele>431</ele>
        <time>2019-10-03T10:55:33Z</time>
      </trkpt>
      <trkpt lat="46.77292" lon="5.62638">
        <ele>434</ele>
        <time>2019-10-03T10:55:55Z</time>
      </trkpt>
      <trkpt lat="46.77304" lon="5.62653">
        <ele>436</ele>
        <time>2019-10-03T10:56:12Z</time>
      </trkpt>
      <trkpt lat="46.77309" lon="5.62664">
        <ele>438</ele>
        <time>2019-10-03T10:56:22Z</time>
      </trkpt>
      <trkpt lat="46.77319" lon="5.62671">
        <ele>440</ele>
        <time>2019-10-03T10:56:33Z</time>
      </trkpt>
      <trkpt lat="46.77325" lon="5.62683">
        <ele>442</ele>
        <time>2019-10-03T10:56:47Z</time>
      </trkpt>
      <trkpt lat="46.77333" lon="5.62694">
        <ele>443</ele>
        <time>2019-10-03T10:57:45Z</time>
      </trkpt>
      <trkpt lat="46.77348" lon="5.62693">
        <ele>446</ele>
        <time>2019-10-03T10:58:01Z</time>
      </trkpt>
      <trkpt lat="46.77357" lon="5.62697">
        <ele>447</ele>
        <time>2019-10-03T10:58:10Z</time>
      </trkpt>
      <trkpt lat="46.77366" lon="5.62697">
        <ele>448</ele>
        <time>2019-10-03T10:58:18Z</time>
      </trkpt>
      <trkpt lat="46.77389" lon="5.6271">
        <ele>450</ele>
        <time>2019-10-03T10:58:48Z</time>
      </trkpt>
      <trkpt lat="46.77398" lon="5.62717">
        <ele>450</ele>
        <time>2019-10-03T10:59:01Z</time>
      </trkpt>
      <trkpt lat="46.77419" lon="5.62747">
        <ele>452</ele>
        <time>2019-10-03T10:59:36Z</time>
      </trkpt>
      <trkpt lat="46.77432" lon="5.62763">
        <ele>457</ele>
        <time>2019-10-03T10:59:58Z</time>
      </trkpt>
      <trkpt lat="46.7744" lon="5.62775">
        <ele>458</ele>
        <time>2019-10-03T11:00:10Z</time>
      </trkpt>
      <trkpt lat="46.77456" lon="5.6279">
        <ele>459</ele>
        <time>2019-10-03T11:00:26Z</time>
      </trkpt>
      <trkpt lat="46.77462" lon="5.62801">
        <ele>460</ele>
        <time>2019-10-03T11:00:34Z</time>
      </trkpt>
      <trkpt lat="46.77473" lon="5.62814">
        <ele>459</ele>
        <time>2019-10-03T11:00:51Z</time>
      </trkpt>
      <trkpt lat="46.7748" lon="5.62823">
        <ele>462</ele>
        <time>2019-10-03T11:01:00Z</time>
      </trkpt>
      <trkpt lat="46.77487" lon="5.62831">
        <ele>462</ele>
        <time>2019-10-03T11:01:09Z</time>
      </trkpt>
      <trkpt lat="46.77495" lon="5.62839">
        <ele>464</ele>
        <time>2019-10-03T11:01:27Z</time>
      </trkpt>
      <trkpt lat="46.775" lon="5.62843">
        <ele>463</ele>
        <time>2019-10-03T11:02:50Z</time>
      </trkpt>
      <trkpt lat="46.77506" lon="5.62842">
        <ele>466</ele>
        <time>2019-10-03T11:02:57Z</time>
      </trkpt>
      <trkpt lat="46.7751" lon="5.62842">
        <ele>466</ele>
        <time>2019-10-03T11:03:02Z</time>
      </trkpt>
      <trkpt lat="46.77521" lon="5.62841">
        <ele>468</ele>
        <time>2019-10-03T11:03:14Z</time>
      </trkpt>
      <trkpt lat="46.77526" lon="5.62842">
        <ele>468</ele>
        <time>2019-10-03T11:03:19Z</time>
      </trkpt>
      <trkpt lat="46.77536" lon="5.62843">
        <ele>468</ele>
        <time>2019-10-03T11:03:27Z</time>
      </trkpt>
      <trkpt lat="46.77541" lon="5.62844">
        <ele>467</ele>
        <time>2019-10-03T11:03:32Z</time>
      </trkpt>
      <trkpt lat="46.77564" lon="5.62854">
        <ele>470</ele>
        <time>2019-10-03T11:03:58Z</time>
      </trkpt>
      <trkpt lat="46.77583" lon="5.62862">
        <ele>468</ele>
        <time>2019-10-03T11:04:16Z</time>
      </trkpt>
      <trkpt lat="46.77593" lon="5.62863">
        <ele>468</ele>
        <time>2019-10-03T11:04:23Z</time>
      </trkpt>
      <trkpt lat="46.77602" lon="5.62865">
        <ele>469</ele>
        <time>2019-10-03T11:04:31Z</time>
      </trkpt>
      <trkpt lat="46.77612" lon="5.62869">
        <ele>469</ele>
        <time>2019-10-03T11:04:40Z</time>
      </trkpt>
      <trkpt lat="46.77621" lon="5.62868">
        <ele>468</ele>
        <time>2019-10-03T11:04:48Z</time>
      </trkpt>
      <trkpt lat="46.77629" lon="5.62858">
        <ele>468</ele>
        <time>2019-10-03T11:04:56Z</time>
      </trkpt>
      <trkpt lat="46.77644" lon="5.62833">
        <ele>466</ele>
        <time>2019-10-03T11:05:16Z</time>
      </trkpt>
      <trkpt lat="46.77647" lon="5.62829">
        <ele>467</ele>
        <time>2019-10-03T11:05:20Z</time>
      </trkpt>
      <trkpt lat="46.77661" lon="5.62805">
        <ele>465</ele>
        <time>2019-10-03T11:05:36Z</time>
      </trkpt>
      <trkpt lat="46.77667" lon="5.62793">
        <ele>465</ele>
        <time>2019-10-03T11:05:44Z</time>
      </trkpt>
      <trkpt lat="46.77673" lon="5.62781">
        <ele>464</ele>
        <time>2019-10-03T11:05:52Z</time>
      </trkpt>
      <trkpt lat="46.77675" lon="5.62775">
        <ele>465</ele>
        <time>2019-10-03T11:05:56Z</time>
      </trkpt>
      <trkpt lat="46.77678" lon="5.62768">
        <ele>464</ele>
        <time>2019-10-03T11:06:01Z</time>
      </trkpt>
      <trkpt lat="46.77691" lon="5.62739">
        <ele>463</ele>
        <time>2019-10-03T11:06:23Z</time>
      </trkpt>
      <trkpt lat="46.77694" lon="5.62733">
        <ele>464</ele>
        <time>2019-10-03T11:06:27Z</time>
      </trkpt>
      <trkpt lat="46.77699" lon="5.62719">
        <ele>463</ele>
        <time>2019-10-03T11:06:37Z</time>
      </trkpt>
      <trkpt lat="46.77702" lon="5.62714">
        <ele>463</ele>
        <time>2019-10-03T11:06:41Z</time>
      </trkpt>
      <trkpt lat="46.77706" lon="5.62708">
        <ele>463</ele>
        <time>2019-10-03T11:06:46Z</time>
      </trkpt>
      <trkpt lat="46.77709" lon="5.62702">
        <ele>463</ele>
        <time>2019-10-03T11:06:50Z</time>
      </trkpt>
      <trkpt lat="46.77713" lon="5.62696">
        <ele>463</ele>
        <time>2019-10-03T11:06:55Z</time>
      </trkpt>
      <trkpt lat="46.77733" lon="5.62656">
        <ele>461</ele>
        <time>2019-10-03T11:07:24Z</time>
      </trkpt>
      <trkpt lat="46.77734" lon="5.62649">
        <ele>461</ele>
        <time>2019-10-03T11:07:29Z</time>
      </trkpt>
      <trkpt lat="46.77746" lon="5.62632">
        <ele>461</ele>
        <time>2019-10-03T11:07:41Z</time>
      </trkpt>
      <trkpt lat="46.7775" lon="5.62627">
        <ele>461</ele>
        <time>2019-10-03T11:07:45Z</time>
      </trkpt>
      <trkpt lat="46.77754" lon="5.62623">
        <ele>460</ele>
        <time>2019-10-03T11:07:49Z</time>
      </trkpt>
      <trkpt lat="46.77762" lon="5.62614">
        <ele>460</ele>
        <time>2019-10-03T11:07:59Z</time>
      </trkpt>
      <trkpt lat="46.77782" lon="5.62592">
        <ele>461</ele>
        <time>2019-10-03T11:08:19Z</time>
      </trkpt>
      <trkpt lat="46.77795" lon="5.62582">
        <ele>460</ele>
        <time>2019-10-03T11:08:31Z</time>
      </trkpt>
      <trkpt lat="46.77808" lon="5.62582">
        <ele>461</ele>
        <time>2019-10-03T11:08:43Z</time>
      </trkpt>
      <trkpt lat="46.77817" lon="5.62584">
        <ele>460</ele>
        <time>2019-10-03T11:08:51Z</time>
      </trkpt>
      <trkpt lat="46.77846" lon="5.62584">
        <ele>459</ele>
        <time>2019-10-03T11:09:15Z</time>
      </trkpt>
      <trkpt lat="46.77851" lon="5.62583">
        <ele>459</ele>
        <time>2019-10-03T11:09:19Z</time>
      </trkpt>
      <trkpt lat="46.77855" lon="5.62581">
        <ele>459</ele>
        <time>2019-10-03T11:09:23Z</time>
      </trkpt>
      <trkpt lat="46.77859" lon="5.6258">
        <ele>459</ele>
        <time>2019-10-03T11:09:27Z</time>
      </trkpt>
      <trkpt lat="46.7787" lon="5.62581">
        <ele>459</ele>
        <time>2019-10-03T11:09:35Z</time>
      </trkpt>
      <trkpt lat="46.77903" lon="5.62594">
        <ele>461</ele>
        <time>2019-10-03T11:10:03Z</time>
      </trkpt>
      <trkpt lat="46.77907" lon="5.62593">
        <ele>461</ele>
        <time>2019-10-03T11:10:07Z</time>
      </trkpt>
      <trkpt lat="46.77912" lon="5.62593">
        <ele>461</ele>
        <time>2019-10-03T11:10:11Z</time>
      </trkpt>
      <trkpt lat="46.77922" lon="5.62587">
        <ele>461</ele>
        <time>2019-10-03T11:10:21Z</time>
      </trkpt>
      <trkpt lat="46.77927" lon="5.62583">
        <ele>460</ele>
        <time>2019-10-03T11:10:26Z</time>
      </trkpt>
      <trkpt lat="46.77943" lon="5.6257">
        <ele>459</ele>
        <time>2019-10-03T11:10:42Z</time>
      </trkpt>
      <trkpt lat="46.77962" lon="5.62557">
        <ele>458</ele>
        <time>2019-10-03T11:10:58Z</time>
      </trkpt>
      <trkpt lat="46.77977" lon="5.62553">
        <ele>457</ele>
        <time>2019-10-03T11:11:11Z</time>
      </trkpt>
      <trkpt lat="46.77982" lon="5.62553">
        <ele>457</ele>
        <time>2019-10-03T11:11:15Z</time>
      </trkpt>
      <trkpt lat="46.77991" lon="5.62554">
        <ele>457</ele>
        <time>2019-10-03T11:11:23Z</time>
      </trkpt>
      <trkpt lat="46.78002" lon="5.62553">
        <ele>457</ele>
        <time>2019-10-03T11:11:31Z</time>
      </trkpt>
      <trkpt lat="46.78007" lon="5.62553">
        <ele>457</ele>
        <time>2019-10-03T11:11:35Z</time>
      </trkpt>
      <trkpt lat="46.78017" lon="5.62555">
        <ele>457</ele>
        <time>2019-10-03T11:11:44Z</time>
      </trkpt>
      <trkpt lat="46.78022" lon="5.62556">
        <ele>458</ele>
        <time>2019-10-03T11:11:48Z</time>
      </trkpt>
      <trkpt lat="46.78027" lon="5.62556">
        <ele>457</ele>
        <time>2019-10-03T11:11:52Z</time>
      </trkpt>
      <trkpt lat="46.78032" lon="5.62556">
        <ele>458</ele>
        <time>2019-10-03T11:11:56Z</time>
      </trkpt>
      <trkpt lat="46.78047" lon="5.62555">
        <ele>458</ele>
        <time>2019-10-03T11:12:08Z</time>
      </trkpt>
      <trkpt lat="46.78052" lon="5.62555">
        <ele>458</ele>
        <time>2019-10-03T11:12:13Z</time>
      </trkpt>
      <trkpt lat="46.78078" lon="5.62556">
        <ele>457</ele>
        <time>2019-10-03T11:12:33Z</time>
      </trkpt>
      <trkpt lat="46.78084" lon="5.62555">
        <ele>458</ele>
        <time>2019-10-03T11:12:37Z</time>
      </trkpt>
      <trkpt lat="46.78089" lon="5.62554">
        <ele>457</ele>
        <time>2019-10-03T11:12:41Z</time>
      </trkpt>
      <trkpt lat="46.78094" lon="5.62553">
        <ele>457</ele>
        <time>2019-10-03T11:12:44Z</time>
      </trkpt>
      <trkpt lat="46.78104" lon="5.6255">
        <ele>457</ele>
        <time>2019-10-03T11:12:52Z</time>
      </trkpt>
      <trkpt lat="46.78117" lon="5.62544">
        <ele>456</ele>
        <time>2019-10-03T11:13:04Z</time>
      </trkpt>
      <trkpt lat="46.78122" lon="5.62541">
        <ele>456</ele>
        <time>2019-10-03T11:13:08Z</time>
      </trkpt>
      <trkpt lat="46.78127" lon="5.62538">
        <ele>456</ele>
        <time>2019-10-03T11:13:12Z</time>
      </trkpt>
      <trkpt lat="46.78132" lon="5.62535">
        <ele>456</ele>
        <time>2019-10-03T11:13:16Z</time>
      </trkpt>
      <trkpt lat="46.78137" lon="5.62531">
        <ele>455</ele>
        <time>2019-10-03T11:13:20Z</time>
      </trkpt>
      <trkpt lat="46.78142" lon="5.62528">
        <ele>456</ele>
        <time>2019-10-03T11:13:25Z</time>
      </trkpt>
      <trkpt lat="46.78154" lon="5.62514">
        <ele>455</ele>
        <time>2019-10-03T11:13:37Z</time>
      </trkpt>
      <trkpt lat="46.7816" lon="5.62505">
        <ele>456</ele>
        <time>2019-10-03T11:13:44Z</time>
      </trkpt>
      <trkpt lat="46.78163" lon="5.62499">
        <ele>455</ele>
        <time>2019-10-03T11:13:48Z</time>
      </trkpt>
      <trkpt lat="46.78167" lon="5.62496">
        <ele>455</ele>
        <time>2019-10-03T11:13:52Z</time>
      </trkpt>
      <trkpt lat="46.78182" lon="5.62489">
        <ele>456</ele>
        <time>2019-10-03T11:14:04Z</time>
      </trkpt>
      <trkpt lat="46.78192" lon="5.62487">
        <ele>456</ele>
        <time>2019-10-03T11:14:11Z</time>
      </trkpt>
      <trkpt lat="46.78197" lon="5.62487">
        <ele>456</ele>
        <time>2019-10-03T11:14:15Z</time>
      </trkpt>
      <trkpt lat="46.78202" lon="5.62488">
        <ele>456</ele>
        <time>2019-10-03T11:14:19Z</time>
      </trkpt>
      <trkpt lat="46.7821" lon="5.62487">
        <ele>456</ele>
        <time>2019-10-03T11:14:27Z</time>
      </trkpt>
      <trkpt lat="46.78216" lon="5.6249">
        <ele>456</ele>
        <time>2019-10-03T11:14:33Z</time>
      </trkpt>
      <trkpt lat="46.7822" lon="5.6249">
        <ele>456</ele>
        <time>2019-10-03T11:14:38Z</time>
      </trkpt>
      <trkpt lat="46.78225" lon="5.62494">
        <ele>457</ele>
        <time>2019-10-03T11:14:43Z</time>
      </trkpt>
      <trkpt lat="46.78236" lon="5.62499">
        <ele>457</ele>
        <time>2019-10-03T11:14:55Z</time>
      </trkpt>
      <trkpt lat="46.78241" lon="5.62499">
        <ele>457</ele>
        <time>2019-10-03T11:15:21Z</time>
      </trkpt>
      <trkpt lat="46.78271" lon="5.62498">
        <ele>460</ele>
        <time>2019-10-03T11:23:12Z</time>
      </trkpt>
      <trkpt lat="46.78277" lon="5.62497">
        <ele>460</ele>
        <time>2019-10-03T11:23:16Z</time>
      </trkpt>
      <trkpt lat="46.78282" lon="5.62499">
        <ele>460</ele>
        <time>2019-10-03T11:23:19Z</time>
      </trkpt>
      <trkpt lat="46.78291" lon="5.62507">
        <ele>462</ele>
        <time>2019-10-03T11:23:27Z</time>
      </trkpt>
      <trkpt lat="46.78295" lon="5.62512">
        <ele>462</ele>
        <time>2019-10-03T11:23:31Z</time>
      </trkpt>
      <trkpt lat="46.78299" lon="5.62515">
        <ele>463</ele>
        <time>2019-10-03T11:23:35Z</time>
      </trkpt>
      <trkpt lat="46.78312" lon="5.62527">
        <ele>463</ele>
        <time>2019-10-03T11:23:46Z</time>
      </trkpt>
      <trkpt lat="46.78319" lon="5.62535">
        <ele>463</ele>
        <time>2019-10-03T11:23:54Z</time>
      </trkpt>
      <trkpt lat="46.78347" lon="5.62567">
        <ele>467</ele>
        <time>2019-10-03T11:24:23Z</time>
      </trkpt>
      <trkpt lat="46.78354" lon="5.62574">
        <ele>466</ele>
        <time>2019-10-03T11:24:31Z</time>
      </trkpt>
      <trkpt lat="46.78361" lon="5.62585">
        <ele>466</ele>
        <time>2019-10-03T11:24:40Z</time>
      </trkpt>
      <trkpt lat="46.78392" lon="5.6262">
        <ele>466</ele>
        <time>2019-10-03T11:25:14Z</time>
      </trkpt>
      <trkpt lat="46.78401" lon="5.62627">
        <ele>466</ele>
        <time>2019-10-03T11:25:23Z</time>
      </trkpt>
      <trkpt lat="46.78407" lon="5.62636">
        <ele>466</ele>
        <time>2019-10-03T11:25:29Z</time>
      </trkpt>
      <trkpt lat="46.78415" lon="5.62642">
        <ele>466</ele>
        <time>2019-10-03T11:25:35Z</time>
      </trkpt>
      <trkpt lat="46.78433" lon="5.62652">
        <ele>467</ele>
        <time>2019-10-03T11:25:51Z</time>
      </trkpt>
      <trkpt lat="46.78442" lon="5.62652">
        <ele>468</ele>
        <time>2019-10-03T11:25:57Z</time>
      </trkpt>
      <trkpt lat="46.78478" lon="5.62669">
        <ele>470</ele>
        <time>2019-10-03T11:26:29Z</time>
      </trkpt>
      <trkpt lat="46.78487" lon="5.6267">
        <ele>470</ele>
        <time>2019-10-03T11:26:39Z</time>
      </trkpt>
      <trkpt lat="46.78501" lon="5.62675">
        <ele>471</ele>
        <time>2019-10-03T11:26:53Z</time>
      </trkpt>
      <trkpt lat="46.78521" lon="5.62674">
        <ele>472</ele>
        <time>2019-10-03T11:27:11Z</time>
      </trkpt>
      <trkpt lat="46.7853" lon="5.62677">
        <ele>473</ele>
        <time>2019-10-03T11:27:17Z</time>
      </trkpt>
      <trkpt lat="46.78549" lon="5.62676">
        <ele>473</ele>
        <time>2019-10-03T11:27:35Z</time>
      </trkpt>
      <trkpt lat="46.78557" lon="5.6267">
        <ele>473</ele>
        <time>2019-10-03T11:27:44Z</time>
      </trkpt>
      <trkpt lat="46.78567" lon="5.62671">
        <ele>473</ele>
        <time>2019-10-03T11:27:53Z</time>
      </trkpt>
      <trkpt lat="46.78588" lon="5.62672">
        <ele>474</ele>
        <time>2019-10-03T11:28:06Z</time>
      </trkpt>
      <trkpt lat="46.78599" lon="5.62664">
        <ele>474</ele>
        <time>2019-10-03T11:28:17Z</time>
      </trkpt>
      <trkpt lat="46.78618" lon="5.62657">
        <ele>474</ele>
        <time>2019-10-03T11:28:30Z</time>
      </trkpt>
      <trkpt lat="46.78626" lon="5.6265">
        <ele>474</ele>
        <time>2019-10-03T11:28:37Z</time>
      </trkpt>
      <trkpt lat="46.78642" lon="5.62633">
        <ele>474</ele>
        <time>2019-10-03T11:28:52Z</time>
      </trkpt>
      <trkpt lat="46.78651" lon="5.62627">
        <ele>474</ele>
        <time>2019-10-03T11:29:00Z</time>
      </trkpt>
      <trkpt lat="46.78657" lon="5.62615">
        <ele>474</ele>
        <time>2019-10-03T11:29:08Z</time>
      </trkpt>
      <trkpt lat="46.78666" lon="5.62608">
        <ele>474</ele>
        <time>2019-10-03T11:29:15Z</time>
      </trkpt>
      <trkpt lat="46.78691" lon="5.62587">
        <ele>474</ele>
        <time>2019-10-03T11:29:37Z</time>
      </trkpt>
      <trkpt lat="46.78699" lon="5.62581">
        <ele>474</ele>
        <time>2019-10-03T11:29:46Z</time>
      </trkpt>
      <trkpt lat="46.78722" lon="5.62556">
        <ele>475</ele>
        <time>2019-10-03T11:30:08Z</time>
      </trkpt>
      <trkpt lat="46.78725" lon="5.62543">
        <ele>475</ele>
        <time>2019-10-03T11:30:13Z</time>
      </trkpt>
      <trkpt lat="46.78732" lon="5.62533">
        <ele>475</ele>
        <time>2019-10-03T11:30:21Z</time>
      </trkpt>
      <trkpt lat="46.7874" lon="5.62526">
        <ele>476</ele>
        <time>2019-10-03T11:30:29Z</time>
      </trkpt>
      <trkpt lat="46.7875" lon="5.62504">
        <ele>476</ele>
        <time>2019-10-03T11:30:48Z</time>
      </trkpt>
      <trkpt lat="46.78759" lon="5.62496">
        <ele>477</ele>
        <time>2019-10-03T11:30:55Z</time>
      </trkpt>
      <trkpt lat="46.78768" lon="5.6249">
        <ele>477</ele>
        <time>2019-10-03T11:31:01Z</time>
      </trkpt>
      <trkpt lat="46.78777" lon="5.62488">
        <ele>477</ele>
        <time>2019-10-03T11:31:07Z</time>
      </trkpt>
      <trkpt lat="46.78789" lon="5.62489">
        <ele>477</ele>
        <time>2019-10-03T11:31:20Z</time>
      </trkpt>
      <trkpt lat="46.78798" lon="5.62484">
        <ele>476</ele>
        <time>2019-10-03T11:31:29Z</time>
      </trkpt>
      <trkpt lat="46.78808" lon="5.6248">
        <ele>477</ele>
        <time>2019-10-03T11:31:35Z</time>
      </trkpt>
      <trkpt lat="46.78833" lon="5.62461">
        <ele>477</ele>
        <time>2019-10-03T11:31:56Z</time>
      </trkpt>
      <trkpt lat="46.78845" lon="5.62446">
        <ele>476</ele>
        <time>2019-10-03T11:32:11Z</time>
      </trkpt>
      <trkpt lat="46.78871" lon="5.62426">
        <ele>476</ele>
        <time>2019-10-03T11:32:33Z</time>
      </trkpt>
      <trkpt lat="46.78899" lon="5.62389">
        <ele>470</ele>
        <time>2019-10-03T11:33:09Z</time>
      </trkpt>
      <trkpt lat="46.78903" lon="5.62374">
        <ele>470</ele>
        <time>2019-10-03T11:33:18Z</time>
      </trkpt>
      <trkpt lat="46.78911" lon="5.62365">
        <ele>466</ele>
        <time>2019-10-03T11:33:28Z</time>
      </trkpt>
      <trkpt lat="46.78914" lon="5.62353">
        <ele>463</ele>
        <time>2019-10-03T11:33:37Z</time>
      </trkpt>
      <trkpt lat="46.78908" lon="5.62341">
        <ele>462</ele>
        <time>2019-10-03T11:33:46Z</time>
      </trkpt>
      <trkpt lat="46.78884" lon="5.62315">
        <ele>455</ele>
        <time>2019-10-03T11:34:19Z</time>
      </trkpt>
      <trkpt lat="46.78879" lon="5.62303">
        <ele>452</ele>
        <time>2019-10-03T11:34:28Z</time>
      </trkpt>
      <trkpt lat="46.78872" lon="5.62295">
        <ele>450</ele>
        <time>2019-10-03T11:34:37Z</time>
      </trkpt>
      <trkpt lat="46.78863" lon="5.6229">
        <ele>448</ele>
        <time>2019-10-03T11:34:46Z</time>
      </trkpt>
      <trkpt lat="46.78854" lon="5.62281">
        <ele>447</ele>
        <time>2019-10-03T11:34:57Z</time>
      </trkpt>
      <trkpt lat="46.78846" lon="5.62273">
        <ele>447</ele>
        <time>2019-10-03T11:35:05Z</time>
      </trkpt>
      <trkpt lat="46.78838" lon="5.62267">
        <ele>446</ele>
        <time>2019-10-03T11:35:11Z</time>
      </trkpt>
      <trkpt lat="46.78833" lon="5.62265">
        <ele>445</ele>
        <time>2019-10-03T11:35:18Z</time>
      </trkpt>
      <trkpt lat="46.78828" lon="5.62259">
        <ele>443</ele>
        <time>2019-10-03T11:35:24Z</time>
      </trkpt>
      <trkpt lat="46.78823" lon="5.62258">
        <ele>443</ele>
        <time>2019-10-03T11:35:32Z</time>
      </trkpt>
      <trkpt lat="46.78807" lon="5.62244">
        <ele>439</ele>
        <time>2019-10-03T11:35:53Z</time>
      </trkpt>
      <trkpt lat="46.78802" lon="5.6224">
        <ele>439</ele>
        <time>2019-10-03T11:35:57Z</time>
      </trkpt>
      <trkpt lat="46.78788" lon="5.62228">
        <ele>437</ele>
        <time>2019-10-03T11:36:11Z</time>
      </trkpt>
      <trkpt lat="46.78782" lon="5.62218">
        <ele>437</ele>
        <time>2019-10-03T11:36:19Z</time>
      </trkpt>
      <trkpt lat="46.78771" lon="5.62216">
        <ele>436</ele>
        <time>2019-10-03T11:36:32Z</time>
      </trkpt>
      <trkpt lat="46.78747" lon="5.62196">
        <ele>433</ele>
        <time>2019-10-03T11:37:01Z</time>
      </trkpt>
      <trkpt lat="46.78736" lon="5.62177">
        <ele>431</ele>
        <time>2019-10-03T11:37:21Z</time>
      </trkpt>
      <trkpt lat="46.78729" lon="5.62164">
        <ele>431</ele>
        <time>2019-10-03T11:37:39Z</time>
      </trkpt>
      <trkpt lat="46.78719" lon="5.62152">
        <ele>430</ele>
        <time>2019-10-03T11:37:56Z</time>
      </trkpt>
      <trkpt lat="46.78699" lon="5.62111">
        <ele>425</ele>
        <time>2019-10-03T11:38:28Z</time>
      </trkpt>
      <trkpt lat="46.78671" lon="5.62059">
        <ele>421</ele>
        <time>2019-10-03T11:38:57Z</time>
      </trkpt>
      <trkpt lat="46.78667" lon="5.62048">
        <ele>421</ele>
        <time>2019-10-03T11:39:07Z</time>
      </trkpt>
      <trkpt lat="46.78659" lon="5.62021">
        <ele>417</ele>
        <time>2019-10-03T11:39:28Z</time>
      </trkpt>
      <trkpt lat="46.78652" lon="5.62007">
        <ele>415</ele>
        <time>2019-10-03T11:39:38Z</time>
      </trkpt>
      <trkpt lat="46.78647" lon="5.61997">
        <ele>415</ele>
        <time>2019-10-03T11:39:45Z</time>
      </trkpt>
      <trkpt lat="46.78644" lon="5.61991">
        <ele>414</ele>
        <time>2019-10-03T11:39:49Z</time>
      </trkpt>
      <trkpt lat="46.78643" lon="5.61984">
        <ele>413</ele>
        <time>2019-10-03T11:39:54Z</time>
      </trkpt>
      <trkpt lat="46.78642" lon="5.61975">
        <ele>414</ele>
        <time>2019-10-03T11:40:01Z</time>
      </trkpt>
      <trkpt lat="46.78639" lon="5.61969">
        <ele>414</ele>
        <time>2019-10-03T11:40:05Z</time>
      </trkpt>
      <trkpt lat="46.78637" lon="5.61962">
        <ele>414</ele>
        <time>2019-10-03T11:40:10Z</time>
      </trkpt>
      <trkpt lat="46.7863" lon="5.6194">
        <ele>412</ele>
        <time>2019-10-03T11:40:31Z</time>
      </trkpt>
      <trkpt lat="46.78628" lon="5.61934">
        <ele>412</ele>
        <time>2019-10-03T11:40:35Z</time>
      </trkpt>
      <trkpt lat="46.78624" lon="5.61925">
        <ele>413</ele>
        <time>2019-10-03T11:40:43Z</time>
      </trkpt>
      <trkpt lat="46.78616" lon="5.61918">
        <ele>413</ele>
        <time>2019-10-03T11:40:52Z</time>
      </trkpt>
      <trkpt lat="46.78611" lon="5.61921">
        <ele>413</ele>
        <time>2019-10-03T11:41:19Z</time>
      </trkpt>
      <trkpt lat="46.78613" lon="5.61911">
        <ele>414</ele>
        <time>2019-10-03T11:41:42Z</time>
      </trkpt>
      <trkpt lat="46.78611" lon="5.61905">
        <ele>414</ele>
        <time>2019-10-03T11:41:48Z</time>
      </trkpt>
      <trkpt lat="46.78616" lon="5.61896">
        <ele>411</ele>
        <time>2019-10-03T11:42:13Z</time>
      </trkpt>
      <trkpt lat="46.78619" lon="5.61889">
        <ele>411</ele>
        <time>2019-10-03T11:42:20Z</time>
      </trkpt>
      <trkpt lat="46.78617" lon="5.61888">
        <ele>413</ele>
        <time>2019-10-03T11:44:49Z</time>
      </trkpt>
      <trkpt lat="46.78612" lon="5.61882">
        <ele>411</ele>
        <time>2019-10-03T11:45:12Z</time>
      </trkpt>
      <trkpt lat="46.78609" lon="5.61877">
        <ele>411</ele>
        <time>2019-10-03T11:45:16Z</time>
      </trkpt>
      <trkpt lat="46.78605" lon="5.61871">
        <ele>412</ele>
        <time>2019-10-03T11:45:21Z</time>
      </trkpt>
      <trkpt lat="46.786" lon="5.61867">
        <ele>413</ele>
        <time>2019-10-03T11:45:29Z</time>
      </trkpt>
      <trkpt lat="46.78596" lon="5.61871">
        <ele>414</ele>
        <time>2019-10-03T11:46:17Z</time>
      </trkpt>
      <trkpt lat="46.78588" lon="5.61877">
        <ele>415</ele>
        <time>2019-10-03T11:46:47Z</time>
      </trkpt>
      <trkpt lat="46.78582" lon="5.61882">
        <ele>413</ele>
        <time>2019-10-03T11:46:59Z</time>
      </trkpt>
      <trkpt lat="46.7858" lon="5.61876">
        <ele>413</ele>
        <time>2019-10-03T11:47:04Z</time>
      </trkpt>
      <trkpt lat="46.78568" lon="5.61852">
        <ele>411</ele>
        <time>2019-10-03T11:47:29Z</time>
      </trkpt>
      <trkpt lat="46.78563" lon="5.61848">
        <ele>412</ele>
        <time>2019-10-03T11:47:46Z</time>
      </trkpt>
      <trkpt lat="46.78562" lon="5.61841">
        <ele>411</ele>
        <time>2019-10-03T11:47:51Z</time>
      </trkpt>
      <trkpt lat="46.78581" lon="5.61816">
        <ele>409</ele>
        <time>2019-10-03T11:48:20Z</time>
      </trkpt>
      <trkpt lat="46.78577" lon="5.6181">
        <ele>405</ele>
        <time>2019-10-03T11:48:30Z</time>
      </trkpt>
      <trkpt lat="46.78582" lon="5.61811">
        <ele>405</ele>
        <time>2019-10-03T11:48:36Z</time>
      </trkpt>
      <trkpt lat="46.78607" lon="5.6181">
        <ele>404</ele>
        <time>2019-10-03T11:49:07Z</time>
      </trkpt>
      <trkpt lat="46.78613" lon="5.61807">
        <ele>403</ele>
        <time>2019-10-03T11:49:37Z</time>
      </trkpt>
      <trkpt lat="46.78606" lon="5.618">
        <ele>402</ele>
        <time>2019-10-03T11:49:54Z</time>
      </trkpt>
      <trkpt lat="46.78602" lon="5.61798">
        <ele>402</ele>
        <time>2019-10-03T11:50:08Z</time>
      </trkpt>
      <trkpt lat="46.78599" lon="5.61792">
        <ele>402</ele>
        <time>2019-10-03T11:50:20Z</time>
      </trkpt>
      <trkpt lat="46.78592" lon="5.61779">
        <ele>402</ele>
        <time>2019-10-03T11:50:31Z</time>
      </trkpt>
      <trkpt lat="46.78588" lon="5.61771">
        <ele>401</ele>
        <time>2019-10-03T11:50:37Z</time>
      </trkpt>
      <trkpt lat="46.78585" lon="5.61764">
        <ele>401</ele>
        <time>2019-10-03T11:50:42Z</time>
      </trkpt>
      <trkpt lat="46.78577" lon="5.61754">
        <ele>401</ele>
        <time>2019-10-03T11:50:49Z</time>
      </trkpt>
      <trkpt lat="46.78573" lon="5.61736">
        <ele>398</ele>
        <time>2019-10-03T11:52:09Z</time>
      </trkpt>
      <trkpt lat="46.78563" lon="5.6173">
        <ele>399</ele>
        <time>2019-10-03T11:52:33Z</time>
      </trkpt>
      <trkpt lat="46.78554" lon="5.61719">
        <ele>401</ele>
        <time>2019-10-03T11:53:00Z</time>
      </trkpt>
      <trkpt lat="46.78546" lon="5.61712">
        <ele>401</ele>
        <time>2019-10-03T11:53:09Z</time>
      </trkpt>
      <trkpt lat="46.78539" lon="5.61703">
        <ele>401</ele>
        <time>2019-10-03T11:53:17Z</time>
      </trkpt>
      <trkpt lat="46.78523" lon="5.61691">
        <ele>397</ele>
        <time>2019-10-03T11:53:50Z</time>
      </trkpt>
      <trkpt lat="46.78519" lon="5.61687">
        <ele>397</ele>
        <time>2019-10-03T11:53:56Z</time>
      </trkpt>
      <trkpt lat="46.78512" lon="5.61684">
        <ele>397</ele>
        <time>2019-10-03T11:54:04Z</time>
      </trkpt>
      <trkpt lat="46.78507" lon="5.61677">
        <ele>397</ele>
        <time>2019-10-03T11:54:13Z</time>
      </trkpt>
      <trkpt lat="46.78503" lon="5.61672">
        <ele>397</ele>
        <time>2019-10-03T11:54:18Z</time>
      </trkpt>
      <trkpt lat="46.78496" lon="5.61664">
        <ele>396</ele>
        <time>2019-10-03T11:54:26Z</time>
      </trkpt>
      <trkpt lat="46.78492" lon="5.61662">
        <ele>396</ele>
        <time>2019-10-03T11:54:30Z</time>
      </trkpt>
      <trkpt lat="46.78486" lon="5.61662">
        <ele>396</ele>
        <time>2019-10-03T11:54:35Z</time>
      </trkpt>
      <trkpt lat="46.78477" lon="5.61664">
        <ele>395</ele>
        <time>2019-10-03T11:54:45Z</time>
      </trkpt>
      <trkpt lat="46.78471" lon="5.61664">
        <ele>394</ele>
        <time>2019-10-03T11:54:53Z</time>
      </trkpt>
      <trkpt lat="46.78466" lon="5.61661">
        <ele>393</ele>
        <time>2019-10-03T11:54:59Z</time>
      </trkpt>
      <trkpt lat="46.78462" lon="5.61658">
        <ele>393</ele>
        <time>2019-10-03T11:55:05Z</time>
      </trkpt>
      <trkpt lat="46.7845" lon="5.6165">
        <ele>391</ele>
        <time>2019-10-03T11:55:23Z</time>
      </trkpt>
      <trkpt lat="46.78448" lon="5.61644">
        <ele>390</ele>
        <time>2019-10-03T11:55:28Z</time>
      </trkpt>
      <trkpt lat="46.78443" lon="5.61639">
        <ele>389</ele>
        <time>2019-10-03T11:55:36Z</time>
      </trkpt>
      <trkpt lat="46.78441" lon="5.61624">
        <ele>388</ele>
        <time>2019-10-03T11:55:54Z</time>
      </trkpt>
      <trkpt lat="46.78444" lon="5.61607">
        <ele>387</ele>
        <time>2019-10-03T11:56:12Z</time>
      </trkpt>
      <trkpt lat="46.7843" lon="5.61593">
        <ele>383</ele>
        <time>2019-10-03T11:56:32Z</time>
      </trkpt>
      <trkpt lat="46.78403" lon="5.6157">
        <ele>375</ele>
        <time>2019-10-03T11:57:09Z</time>
      </trkpt>
      <trkpt lat="46.78392" lon="5.61562">
        <ele>372</ele>
        <time>2019-10-03T11:57:24Z</time>
      </trkpt>
      <trkpt lat="46.78388" lon="5.61558">
        <ele>371</ele>
        <time>2019-10-03T11:57:29Z</time>
      </trkpt>
      <trkpt lat="46.78375" lon="5.61549">
        <ele>369</ele>
        <time>2019-10-03T11:57:47Z</time>
      </trkpt>
      <trkpt lat="46.78364" lon="5.61551">
        <ele>365</ele>
        <time>2019-10-03T11:58:01Z</time>
      </trkpt>
      <trkpt lat="46.78359" lon="5.61553">
        <ele>364</ele>
        <time>2019-10-03T11:58:09Z</time>
      </trkpt>
      <trkpt lat="46.78355" lon="5.61556">
        <ele>363</ele>
        <time>2019-10-03T11:58:15Z</time>
      </trkpt>
      <trkpt lat="46.78353" lon="5.61562">
        <ele>361</ele>
        <time>2019-10-03T11:58:21Z</time>
      </trkpt>
      <trkpt lat="46.78353" lon="5.61569">
        <ele>359</ele>
        <time>2019-10-03T11:58:26Z</time>
      </trkpt>
      <trkpt lat="46.78364" lon="5.6161">
        <ele>354</ele>
        <time>2019-10-03T11:59:04Z</time>
      </trkpt>
      <trkpt lat="46.78375" lon="5.61643">
        <ele>350</ele>
        <time>2019-10-03T11:59:43Z</time>
      </trkpt>
      <trkpt lat="46.78381" lon="5.61678">
        <ele>346</ele>
        <time>2019-10-03T12:00:13Z</time>
      </trkpt>
      <trkpt lat="46.78379" lon="5.61687">
        <ele>343</ele>
        <time>2019-10-03T12:00:25Z</time>
      </trkpt>
      <trkpt lat="46.78373" lon="5.61694">
        <ele>341</ele>
        <time>2019-10-03T12:00:37Z</time>
      </trkpt>
      <trkpt lat="46.78368" lon="5.61688">
        <ele>341</ele>
        <time>2019-10-03T12:00:50Z</time>
      </trkpt>
      <trkpt lat="46.78365" lon="5.61675">
        <ele>339</ele>
        <time>2019-10-03T12:01:01Z</time>
      </trkpt>
      <trkpt lat="46.78354" lon="5.61651">
        <ele>340</ele>
        <time>2019-10-03T12:01:24Z</time>
      </trkpt>
      <trkpt lat="46.78345" lon="5.61635">
        <ele>337</ele>
        <time>2019-10-03T12:01:50Z</time>
      </trkpt>
      <trkpt lat="46.7834" lon="5.61631">
        <ele>335</ele>
        <time>2019-10-03T12:02:00Z</time>
      </trkpt>
      <trkpt lat="46.78339" lon="5.61637">
        <ele>333</ele>
        <time>2019-10-03T12:02:18Z</time>
      </trkpt>
      <trkpt lat="46.78332" lon="5.61647">
        <ele>331</ele>
        <time>2019-10-03T12:02:48Z</time>
      </trkpt>
      <trkpt lat="46.78328" lon="5.61653">
        <ele>332</ele>
        <time>2019-10-03T12:02:53Z</time>
      </trkpt>
      <trkpt lat="46.78326" lon="5.61658">
        <ele>332</ele>
        <time>2019-10-03T12:02:58Z</time>
      </trkpt>
      <trkpt lat="46.78321" lon="5.6166">
        <ele>332</ele>
        <time>2019-10-03T12:03:06Z</time>
      </trkpt>
      <trkpt lat="46.78314" lon="5.61659">
        <ele>331</ele>
        <time>2019-10-03T12:03:36Z</time>
      </trkpt>
      <trkpt lat="46.78309" lon="5.61661">
        <ele>331</ele>
        <time>2019-10-03T12:03:42Z</time>
      </trkpt>
      <trkpt lat="46.78304" lon="5.6166">
        <ele>332</ele>
        <time>2019-10-03T12:03:56Z</time>
      </trkpt>
      <trkpt lat="46.78296" lon="5.61643">
        <ele>329</ele>
        <time>2019-10-03T12:04:26Z</time>
      </trkpt>
      <trkpt lat="46.78286" lon="5.61627">
        <ele>329</ele>
        <time>2019-10-03T12:04:41Z</time>
      </trkpt>
      <trkpt lat="46.78277" lon="5.61613">
        <ele>328</ele>
        <time>2019-10-03T12:04:54Z</time>
      </trkpt>
      <trkpt lat="46.78268" lon="5.61602">
        <ele>326</ele>
        <time>2019-10-03T12:05:08Z</time>
      </trkpt>
      <trkpt lat="46.78266" lon="5.61599">
        <ele>324</ele>
        <time>2019-10-03T12:05:38Z</time>
      </trkpt>
      <trkpt lat="46.78258" lon="5.61596">
        <ele>325</ele>
        <time>2019-10-03T12:05:56Z</time>
      </trkpt>
      <trkpt lat="46.78253" lon="5.61596">
        <ele>325</ele>
        <time>2019-10-03T12:06:02Z</time>
      </trkpt>
      <trkpt lat="46.78248" lon="5.61597">
        <ele>325</ele>
        <time>2019-10-03T12:06:07Z</time>
      </trkpt>
      <trkpt lat="46.78243" lon="5.61599">
        <ele>326</ele>
        <time>2019-10-03T12:06:12Z</time>
      </trkpt>
      <trkpt lat="46.78238" lon="5.616">
        <ele>326</ele>
        <time>2019-10-03T12:06:16Z</time>
      </trkpt>
      <trkpt lat="46.78215" lon="5.616">
        <ele>328</ele>
        <time>2019-10-03T12:06:47Z</time>
      </trkpt>
      <trkpt lat="46.7821" lon="5.61596">
        <ele>328</ele>
        <time>2019-10-03T12:06:54Z</time>
      </trkpt>
      <trkpt lat="46.78202" lon="5.6159">
        <ele>332</ele>
        <time>2019-10-03T12:07:08Z</time>
      </trkpt>
      <trkpt lat="46.78197" lon="5.61586">
        <ele>332</ele>
        <time>2019-10-03T12:07:16Z</time>
      </trkpt>
      <trkpt lat="46.78186" lon="5.61575">
        <ele>337</ele>
        <time>2019-10-03T12:07:32Z</time>
      </trkpt>
      <trkpt lat="46.78178" lon="5.61562">
        <ele>337</ele>
        <time>2019-10-03T12:07:48Z</time>
      </trkpt>
      <trkpt lat="46.78174" lon="5.61556">
        <ele>338</ele>
        <time>2019-10-03T12:07:52Z</time>
      </trkpt>
      <trkpt lat="46.7817" lon="5.61551">
        <ele>338</ele>
        <time>2019-10-03T12:07:55Z</time>
      </trkpt>
      <trkpt lat="46.78166" lon="5.61546">
        <ele>338</ele>
        <time>2019-10-03T12:07:59Z</time>
      </trkpt>
      <trkpt lat="46.78162" lon="5.61542">
        <ele>338</ele>
        <time>2019-10-03T12:08:04Z</time>
      </trkpt>
      <trkpt lat="46.78144" lon="5.61527">
        <ele>342</ele>
        <time>2019-10-03T12:08:27Z</time>
      </trkpt>
      <trkpt lat="46.78139" lon="5.61522">
        <ele>342</ele>
        <time>2019-10-03T12:08:35Z</time>
      </trkpt>
      <trkpt lat="46.78135" lon="5.61517">
        <ele>343</ele>
        <time>2019-10-03T12:08:40Z</time>
      </trkpt>
      <trkpt lat="46.78129" lon="5.61511">
        <ele>343</ele>
        <time>2019-10-03T12:08:48Z</time>
      </trkpt>
      <trkpt lat="46.78118" lon="5.61502">
        <ele>344</ele>
        <time>2019-10-03T12:09:05Z</time>
      </trkpt>
      <trkpt lat="46.78113" lon="5.61501">
        <ele>345</ele>
        <time>2019-10-03T12:09:11Z</time>
      </trkpt>
      <trkpt lat="46.78109" lon="5.61497">
        <ele>346</ele>
        <time>2019-10-03T12:09:16Z</time>
      </trkpt>
      <trkpt lat="46.78103" lon="5.61498">
        <ele>348</ele>
        <time>2019-10-03T12:09:23Z</time>
      </trkpt>
      <trkpt lat="46.78098" lon="5.61498">
        <ele>348</ele>
        <time>2019-10-03T12:09:28Z</time>
      </trkpt>
      <trkpt lat="46.78091" lon="5.61497">
        <ele>349</ele>
        <time>2019-10-03T12:09:36Z</time>
      </trkpt>
      <trkpt lat="46.78086" lon="5.61497">
        <ele>349</ele>
        <time>2019-10-03T12:09:44Z</time>
      </trkpt>
      <trkpt lat="46.78082" lon="5.61499">
        <ele>350</ele>
        <time>2019-10-03T12:09:56Z</time>
      </trkpt>
      <trkpt lat="46.78072" lon="5.61496">
        <ele>353</ele>
        <time>2019-10-03T12:10:06Z</time>
      </trkpt>
      <trkpt lat="46.78068" lon="5.61493">
        <ele>355</ele>
        <time>2019-10-03T12:10:10Z</time>
      </trkpt>
      <trkpt lat="46.78063" lon="5.6149">
        <ele>355</ele>
        <time>2019-10-03T12:10:14Z</time>
      </trkpt>
      <trkpt lat="46.78058" lon="5.61488">
        <ele>356</ele>
        <time>2019-10-03T12:10:19Z</time>
      </trkpt>
      <trkpt lat="46.78052" lon="5.61488">
        <ele>356</ele>
        <time>2019-10-03T12:10:24Z</time>
      </trkpt>
      <trkpt lat="46.78027" lon="5.61483">
        <ele>360</ele>
        <time>2019-10-03T12:10:50Z</time>
      </trkpt>
      <trkpt lat="46.78022" lon="5.61483">
        <ele>360</ele>
        <time>2019-10-03T12:10:55Z</time>
      </trkpt>
      <trkpt lat="46.78005" lon="5.61482">
        <ele>361</ele>
        <time>2019-10-03T12:11:10Z</time>
      </trkpt>
      <trkpt lat="46.77991" lon="5.61479">
        <ele>363</ele>
        <time>2019-10-03T12:11:22Z</time>
      </trkpt>
      <trkpt lat="46.77976" lon="5.61479">
        <ele>363</ele>
        <time>2019-10-03T12:11:37Z</time>
      </trkpt>
      <trkpt lat="46.7797" lon="5.61479">
        <ele>364</ele>
        <time>2019-10-03T12:11:42Z</time>
      </trkpt>
      <trkpt lat="46.77959" lon="5.61479">
        <ele>364</ele>
        <time>2019-10-03T12:11:55Z</time>
      </trkpt>
      <trkpt lat="46.77951" lon="5.61476">
        <ele>364</ele>
        <time>2019-10-03T12:12:03Z</time>
      </trkpt>
      <trkpt lat="46.77946" lon="5.61474">
        <ele>364</ele>
        <time>2019-10-03T12:12:08Z</time>
      </trkpt>
      <trkpt lat="46.77926" lon="5.61466">
        <ele>365</ele>
        <time>2019-10-03T12:12:28Z</time>
      </trkpt>
      <trkpt lat="46.77922" lon="5.61462">
        <ele>365</ele>
        <time>2019-10-03T12:12:38Z</time>
      </trkpt>
      <trkpt lat="46.77922" lon="5.61451">
        <ele>366</ele>
        <time>2019-10-03T12:12:50Z</time>
      </trkpt>
      <trkpt lat="46.77926" lon="5.61446">
        <ele>366</ele>
        <time>2019-10-03T12:13:02Z</time>
      </trkpt>
      <trkpt lat="46.77926" lon="5.61447">
        <ele>367</ele>
        <time>2019-10-03T12:15:03Z</time>
      </trkpt>
      <trkpt lat="46.77929" lon="5.61438">
        <ele>366</ele>
        <time>2019-10-03T12:15:39Z</time>
      </trkpt>
      <trkpt lat="46.77932" lon="5.61433">
        <ele>367</ele>
        <time>2019-10-03T12:15:51Z</time>
      </trkpt>
      <trkpt lat="46.77933" lon="5.61426">
        <ele>367</ele>
        <time>2019-10-03T12:16:15Z</time>
      </trkpt>
      <trkpt lat="46.77935" lon="5.6142">
        <ele>366</ele>
        <time>2019-10-03T12:16:27Z</time>
      </trkpt>
      <trkpt lat="46.77936" lon="5.61412">
        <ele>367</ele>
        <time>2019-10-03T12:16:33Z</time>
      </trkpt>
      <trkpt lat="46.77937" lon="5.61405">
        <ele>367</ele>
        <time>2019-10-03T12:16:38Z</time>
      </trkpt>
      <trkpt lat="46.77939" lon="5.61397">
        <ele>368</ele>
        <time>2019-10-03T12:16:46Z</time>
      </trkpt>
      <trkpt lat="46.7794" lon="5.61391">
        <ele>368</ele>
        <time>2019-10-03T12:16:52Z</time>
      </trkpt>
      <trkpt lat="46.77943" lon="5.61385">
        <ele>368</ele>
        <time>2019-10-03T12:16:58Z</time>
      </trkpt>
      <trkpt lat="46.77944" lon="5.61372">
        <ele>368</ele>
        <time>2019-10-03T12:17:10Z</time>
      </trkpt>
      <trkpt lat="46.77948" lon="5.61352">
        <ele>370</ele>
        <time>2019-10-03T12:17:25Z</time>
      </trkpt>
      <trkpt lat="46.77942" lon="5.61335">
        <ele>370</ele>
        <time>2019-10-03T12:17:42Z</time>
      </trkpt>
      <trkpt lat="46.77937" lon="5.61323">
        <ele>371</ele>
        <time>2019-10-03T12:17:52Z</time>
      </trkpt>
      <trkpt lat="46.77926" lon="5.61316">
        <ele>371</ele>
        <time>2019-10-03T12:18:04Z</time>
      </trkpt>
      <trkpt lat="46.77918" lon="5.6131">
        <ele>372</ele>
        <time>2019-10-03T12:18:12Z</time>
      </trkpt>
      <trkpt lat="46.77909" lon="5.61306">
        <ele>373</ele>
        <time>2019-10-03T12:18:23Z</time>
      </trkpt>
      <trkpt lat="46.779" lon="5.61298">
        <ele>373</ele>
        <time>2019-10-03T12:18:31Z</time>
      </trkpt>
      <trkpt lat="46.77895" lon="5.61252">
        <ele>374</ele>
        <time>2019-10-03T12:19:03Z</time>
      </trkpt>
      <trkpt lat="46.7789" lon="5.6124">
        <ele>375</ele>
        <time>2019-10-03T12:19:09Z</time>
      </trkpt>
      <trkpt lat="46.77893" lon="5.61226">
        <ele>375</ele>
        <time>2019-10-03T12:19:19Z</time>
      </trkpt>
      <trkpt lat="46.77888" lon="5.61214">
        <ele>374</ele>
        <time>2019-10-03T12:19:25Z</time>
      </trkpt>
      <trkpt lat="46.77882" lon="5.61204">
        <ele>374</ele>
        <time>2019-10-03T12:19:29Z</time>
      </trkpt>
      <trkpt lat="46.77893" lon="5.61195">
        <ele>375</ele>
        <time>2019-10-03T12:19:37Z</time>
      </trkpt>
      <trkpt lat="46.77889" lon="5.61178">
        <ele>376</ele>
        <time>2019-10-03T12:19:46Z</time>
      </trkpt>
      <trkpt lat="46.77891" lon="5.61163">
        <ele>378</ele>
        <time>2019-10-03T12:19:55Z</time>
      </trkpt>
      <trkpt lat="46.77883" lon="5.61137">
        <ele>380</ele>
        <time>2019-10-03T12:20:12Z</time>
      </trkpt>
      <trkpt lat="46.77876" lon="5.61128">
        <ele>379</ele>
        <time>2019-10-03T12:20:19Z</time>
      </trkpt>
      <trkpt lat="46.77864" lon="5.61108">
        <ele>380</ele>
        <time>2019-10-03T12:20:29Z</time>
      </trkpt>
      <trkpt lat="46.77856" lon="5.61097">
        <ele>380</ele>
        <time>2019-10-03T12:20:39Z</time>
      </trkpt>
      <trkpt lat="46.77822" lon="5.61085">
        <ele>380</ele>
        <time>2019-10-03T12:21:12Z</time>
      </trkpt>
      <trkpt lat="46.77815" lon="5.61077">
        <ele>381</ele>
        <time>2019-10-03T12:21:19Z</time>
      </trkpt>
      <trkpt lat="46.77805" lon="5.6107">
        <ele>381</ele>
        <time>2019-10-03T12:21:27Z</time>
      </trkpt>
      <trkpt lat="46.77796" lon="5.61066">
        <ele>380</ele>
        <time>2019-10-03T12:21:39Z</time>
      </trkpt>
      <trkpt lat="46.77767" lon="5.61042">
        <ele>383</ele>
        <time>2019-10-03T12:22:11Z</time>
      </trkpt>
      <trkpt lat="46.77751" lon="5.61023">
        <ele>384</ele>
        <time>2019-10-03T12:22:27Z</time>
      </trkpt>
      <trkpt lat="46.77742" lon="5.61016">
        <ele>385</ele>
        <time>2019-10-03T12:22:35Z</time>
      </trkpt>
      <trkpt lat="46.77734" lon="5.61011">
        <ele>385</ele>
        <time>2019-10-03T12:22:43Z</time>
      </trkpt>
      <trkpt lat="46.77726" lon="5.61005">
        <ele>385</ele>
        <time>2019-10-03T12:22:50Z</time>
      </trkpt>
      <trkpt lat="46.7771" lon="5.60996">
        <ele>385</ele>
        <time>2019-10-03T12:23:09Z</time>
      </trkpt>
      <trkpt lat="46.77694" lon="5.60983">
        <ele>385</ele>
        <time>2019-10-03T12:23:25Z</time>
      </trkpt>
      <trkpt lat="46.77685" lon="5.6098">
        <ele>384</ele>
        <time>2019-10-03T12:23:37Z</time>
      </trkpt>
      <trkpt lat="46.77668" lon="5.60963">
        <ele>383</ele>
        <time>2019-10-03T12:23:54Z</time>
      </trkpt>
      <trkpt lat="46.77659" lon="5.60956">
        <ele>383</ele>
        <time>2019-10-03T12:24:01Z</time>
      </trkpt>
      <trkpt lat="46.77652" lon="5.60947">
        <ele>384</ele>
        <time>2019-10-03T12:24:08Z</time>
      </trkpt>
      <trkpt lat="46.77645" lon="5.6094">
        <ele>384</ele>
        <time>2019-10-03T12:24:16Z</time>
      </trkpt>
      <trkpt lat="46.77637" lon="5.60936">
        <ele>384</ele>
        <time>2019-10-03T12:24:24Z</time>
      </trkpt>
      <trkpt lat="46.77605" lon="5.60912">
        <ele>384</ele>
        <time>2019-10-03T12:24:57Z</time>
      </trkpt>
      <trkpt lat="46.77595" lon="5.60903">
        <ele>384</ele>
        <time>2019-10-03T12:25:06Z</time>
      </trkpt>
      <trkpt lat="46.77587" lon="5.60895">
        <ele>384</ele>
        <time>2019-10-03T12:25:16Z</time>
      </trkpt>
      <trkpt lat="46.77567" lon="5.60879">
        <ele>382</ele>
        <time>2019-10-03T12:25:37Z</time>
      </trkpt>
      <trkpt lat="46.77559" lon="5.60872">
        <ele>383</ele>
        <time>2019-10-03T12:25:45Z</time>
      </trkpt>
      <trkpt lat="46.77551" lon="5.60863">
        <ele>383</ele>
        <time>2019-10-03T12:25:54Z</time>
      </trkpt>
      <trkpt lat="46.77544" lon="5.60856">
        <ele>382</ele>
        <time>2019-10-03T12:26:03Z</time>
      </trkpt>
      <trkpt lat="46.77533" lon="5.60849">
        <ele>383</ele>
        <time>2019-10-03T12:26:14Z</time>
      </trkpt>
      <trkpt lat="46.77509" lon="5.60832">
        <ele>381</ele>
        <time>2019-10-03T12:26:43Z</time>
      </trkpt>
      <trkpt lat="46.77474" lon="5.60802">
        <ele>379</ele>
        <time>2019-10-03T12:27:17Z</time>
      </trkpt>
      <trkpt lat="46.77447" lon="5.6078">
        <ele>376</ele>
        <time>2019-10-03T12:27:54Z</time>
      </trkpt>
      <trkpt lat="46.77433" lon="5.6077">
        <ele>374</ele>
        <time>2019-10-03T12:28:10Z</time>
      </trkpt>
      <trkpt lat="46.77424" lon="5.60778">
        <ele>371</ele>
        <time>2019-10-03T12:28:19Z</time>
      </trkpt>
      <trkpt lat="46.77396" lon="5.60783">
        <ele>367</ele>
        <time>2019-10-03T12:28:46Z</time>
      </trkpt>
      <trkpt lat="46.77388" lon="5.60779">
        <ele>367</ele>
        <time>2019-10-03T12:28:55Z</time>
      </trkpt>
      <trkpt lat="46.77382" lon="5.60768">
        <ele>366</ele>
        <time>2019-10-03T12:29:08Z</time>
      </trkpt>
      <trkpt lat="46.77374" lon="5.60761">
        <ele>364</ele>
        <time>2019-10-03T12:29:16Z</time>
      </trkpt>
      <trkpt lat="46.77362" lon="5.60741">
        <ele>364</ele>
        <time>2019-10-03T12:29:37Z</time>
      </trkpt>
      <trkpt lat="46.77348" lon="5.6073">
        <ele>363</ele>
        <time>2019-10-03T12:29:55Z</time>
      </trkpt>
      <trkpt lat="46.7734" lon="5.60721">
        <ele>362</ele>
        <time>2019-10-03T12:30:02Z</time>
      </trkpt>
      <trkpt lat="46.77331" lon="5.60716">
        <ele>362</ele>
        <time>2019-10-03T12:30:10Z</time>
      </trkpt>
      <trkpt lat="46.77322" lon="5.60713">
        <ele>359</ele>
        <time>2019-10-03T12:30:18Z</time>
      </trkpt>
      <trkpt lat="46.77314" lon="5.60703">
        <ele>359</ele>
        <time>2019-10-03T12:30:29Z</time>
      </trkpt>
      <trkpt lat="46.77297" lon="5.60672">
        <ele>353</ele>
        <time>2019-10-03T12:30:53Z</time>
      </trkpt>
      <trkpt lat="46.77288" lon="5.60668">
        <ele>352</ele>
        <time>2019-10-03T12:31:02Z</time>
      </trkpt>
      <trkpt lat="46.7728" lon="5.6066">
        <ele>350</ele>
        <time>2019-10-03T12:31:12Z</time>
      </trkpt>
      <trkpt lat="46.7727" lon="5.60656">
        <ele>350</ele>
        <time>2019-10-03T12:31:24Z</time>
      </trkpt>
      <trkpt lat="46.77255" lon="5.60637">
        <ele>346</ele>
        <time>2019-10-03T12:31:46Z</time>
      </trkpt>
      <trkpt lat="46.77249" lon="5.60618">
        <ele>343</ele>
        <time>2019-10-03T12:32:02Z</time>
      </trkpt>
      <trkpt lat="46.77248" lon="5.60603">
        <ele>344</ele>
        <time>2019-10-03T12:32:10Z</time>
      </trkpt>
      <trkpt lat="46.77247" lon="5.6059">
        <ele>340</ele>
        <time>2019-10-03T12:32:18Z</time>
      </trkpt>
      <trkpt lat="46.77249" lon="5.60574">
        <ele>338</ele>
        <time>2019-10-03T12:32:31Z</time>
      </trkpt>
      <trkpt lat="46.7725" lon="5.60549">
        <ele>337</ele>
        <time>2019-10-03T12:32:50Z</time>
      </trkpt>
      <trkpt lat="46.77254" lon="5.60534">
        <ele>337</ele>
        <time>2019-10-03T12:32:58Z</time>
      </trkpt>
      <trkpt lat="46.77243" lon="5.60539">
        <ele>329</ele>
        <time>2019-10-03T12:33:21Z</time>
      </trkpt>
      <trkpt lat="46.77241" lon="5.60549">
        <ele>327</ele>
        <time>2019-10-03T12:34:02Z</time>
      </trkpt>
      <trkpt lat="46.77237" lon="5.60557">
        <ele>325</ele>
        <time>2019-10-03T12:34:10Z</time>
      </trkpt>
      <trkpt lat="46.77234" lon="5.60564">
        <ele>325</ele>
        <time>2019-10-03T12:34:15Z</time>
      </trkpt>
      <trkpt lat="46.77227" lon="5.60575">
        <ele>323</ele>
        <time>2019-10-03T12:34:24Z</time>
      </trkpt>
      <trkpt lat="46.77221" lon="5.60587">
        <ele>322</ele>
        <time>2019-10-03T12:34:33Z</time>
      </trkpt>
      <trkpt lat="46.77213" lon="5.60625">
        <ele>321</ele>
        <time>2019-10-03T12:34:58Z</time>
      </trkpt>
      <trkpt lat="46.77213" lon="5.60632">
        <ele>320</ele>
        <time>2019-10-03T12:35:02Z</time>
      </trkpt>
      <trkpt lat="46.77212" lon="5.60639">
        <ele>320</ele>
        <time>2019-10-03T12:35:07Z</time>
      </trkpt>
      <trkpt lat="46.77205" lon="5.60688">
        <ele>316</ele>
        <time>2019-10-03T12:35:41Z</time>
      </trkpt>
      <trkpt lat="46.77202" lon="5.60697">
        <ele>316</ele>
        <time>2019-10-03T12:35:48Z</time>
      </trkpt>
      <trkpt lat="46.772" lon="5.60709">
        <ele>313</ele>
        <time>2019-10-03T12:35:58Z</time>
      </trkpt>
      <trkpt lat="46.772" lon="5.60716">
        <ele>312</ele>
        <time>2019-10-03T12:36:04Z</time>
      </trkpt>
      <trkpt lat="46.77197" lon="5.60729">
        <ele>310</ele>
        <time>2019-10-03T12:36:17Z</time>
      </trkpt>
      <trkpt lat="46.77191" lon="5.60733">
        <ele>310</ele>
        <time>2019-10-03T12:36:25Z</time>
      </trkpt>
      <trkpt lat="46.77186" lon="5.60742">
        <ele>308</ele>
        <time>2019-10-03T12:36:37Z</time>
      </trkpt>
      <trkpt lat="46.77181" lon="5.60744">
        <ele>308</ele>
        <time>2019-10-03T12:36:43Z</time>
      </trkpt>
      <trkpt lat="46.77174" lon="5.60753">
        <ele>306</ele>
        <time>2019-10-03T12:36:54Z</time>
      </trkpt>
      <trkpt lat="46.77172" lon="5.60759">
        <ele>305</ele>
        <time>2019-10-03T12:36:59Z</time>
      </trkpt>
      <trkpt lat="46.77161" lon="5.60741">
        <ele>295</ele>
        <time>2019-10-03T12:44:07Z</time>
      </trkpt>
      <trkpt lat="46.77158" lon="5.60736">
        <ele>294</ele>
        <time>2019-10-03T12:44:11Z</time>
      </trkpt>
      <trkpt lat="46.77155" lon="5.60731">
        <ele>293</ele>
        <time>2019-10-03T12:44:16Z</time>
      </trkpt>
      <trkpt lat="46.77151" lon="5.6072">
        <ele>293</ele>
        <time>2019-10-03T12:44:30Z</time>
      </trkpt>
      <trkpt lat="46.77151" lon="5.60713">
        <ele>293</ele>
        <time>2019-10-03T12:44:36Z</time>
      </trkpt>
      <trkpt lat="46.77152" lon="5.60704">
        <ele>292</ele>
        <time>2019-10-03T12:45:12Z</time>
      </trkpt>
      <trkpt lat="46.77153" lon="5.60697">
        <ele>292</ele>
        <time>2019-10-03T12:45:18Z</time>
      </trkpt>
      <trkpt lat="46.77157" lon="5.60684">
        <ele>292</ele>
        <time>2019-10-03T12:45:28Z</time>
      </trkpt>
      <trkpt lat="46.77155" lon="5.60677">
        <ele>291</ele>
        <time>2019-10-03T12:45:32Z</time>
      </trkpt>
      <trkpt lat="46.77147" lon="5.60663">
        <ele>288</ele>
        <time>2019-10-03T12:45:44Z</time>
      </trkpt>
      <trkpt lat="46.77144" lon="5.60657">
        <ele>288</ele>
        <time>2019-10-03T12:45:48Z</time>
      </trkpt>
      <trkpt lat="46.77142" lon="5.60649">
        <ele>288</ele>
        <time>2019-10-03T12:45:52Z</time>
      </trkpt>
      <trkpt lat="46.7714" lon="5.60643">
        <ele>287</ele>
        <time>2019-10-03T12:45:56Z</time>
      </trkpt>
      <trkpt lat="46.77138" lon="5.60637">
        <ele>287</ele>
        <time>2019-10-03T12:46:00Z</time>
      </trkpt>
      <trkpt lat="46.77135" lon="5.6062">
        <ele>287</ele>
        <time>2019-10-03T12:46:13Z</time>
      </trkpt>
      <trkpt lat="46.77134" lon="5.60612">
        <ele>288</ele>
        <time>2019-10-03T12:46:17Z</time>
      </trkpt>
      <trkpt lat="46.77132" lon="5.60604">
        <ele>287</ele>
        <time>2019-10-03T12:46:20Z</time>
      </trkpt>
      <trkpt lat="46.77124" lon="5.60576">
        <ele>287</ele>
        <time>2019-10-03T12:46:40Z</time>
      </trkpt>
      <trkpt lat="46.77121" lon="5.60569">
        <ele>286</ele>
        <time>2019-10-03T12:46:46Z</time>
      </trkpt>
      <trkpt lat="46.77119" lon="5.60557">
        <ele>286</ele>
        <time>2019-10-03T12:46:54Z</time>
      </trkpt>
      <trkpt lat="46.7712" lon="5.60547">
        <ele>286</ele>
        <time>2019-10-03T12:46:59Z</time>
      </trkpt>
      <trkpt lat="46.77122" lon="5.60539">
        <ele>285</ele>
        <time>2019-10-03T12:47:03Z</time>
      </trkpt>
      <trkpt lat="46.77125" lon="5.60533">
        <ele>284</ele>
        <time>2019-10-03T12:47:07Z</time>
      </trkpt>
      <trkpt lat="46.77129" lon="5.6052">
        <ele>284</ele>
        <time>2019-10-03T12:47:18Z</time>
      </trkpt>
      <trkpt lat="46.77127" lon="5.60478">
        <ele>283</ele>
        <time>2019-10-03T12:47:39Z</time>
      </trkpt>
      <trkpt lat="46.77137" lon="5.60451">
        <ele>281</ele>
        <time>2019-10-03T12:47:55Z</time>
      </trkpt>
      <trkpt lat="46.7714" lon="5.60439">
        <ele>282</ele>
        <time>2019-10-03T12:48:02Z</time>
      </trkpt>
      <trkpt lat="46.77141" lon="5.60411">
        <ele>284</ele>
        <time>2019-10-03T12:48:16Z</time>
      </trkpt>
      <trkpt lat="46.77141" lon="5.60397">
        <ele>283</ele>
        <time>2019-10-03T12:48:24Z</time>
      </trkpt>
      <trkpt lat="46.77142" lon="5.60384">
        <ele>283</ele>
        <time>2019-10-03T12:48:34Z</time>
      </trkpt>
      <trkpt lat="46.77149" lon="5.60356">
        <ele>284</ele>
        <time>2019-10-03T12:48:50Z</time>
      </trkpt>
      <trkpt lat="46.7715" lon="5.60349">
        <ele>284</ele>
        <time>2019-10-03T12:48:55Z</time>
      </trkpt>
      <trkpt lat="46.77147" lon="5.60341">
        <ele>283</ele>
        <time>2019-10-03T12:49:03Z</time>
      </trkpt>
      <trkpt lat="46.77145" lon="5.60334">
        <ele>282</ele>
        <time>2019-10-03T12:49:09Z</time>
      </trkpt>
      <trkpt lat="46.7714" lon="5.60327">
        <ele>282</ele>
        <time>2019-10-03T12:49:17Z</time>
      </trkpt>
      <trkpt lat="46.77136" lon="5.60325">
        <ele>282</ele>
        <time>2019-10-03T12:49:22Z</time>
      </trkpt>
      <trkpt lat="46.77119" lon="5.60323">
        <ele>282</ele>
        <time>2019-10-03T12:49:37Z</time>
      </trkpt>
      <trkpt lat="46.77115" lon="5.60323">
        <ele>281</ele>
        <time>2019-10-03T12:49:41Z</time>
      </trkpt>
      <trkpt lat="46.77107" lon="5.60323">
        <ele>281</ele>
        <time>2019-10-03T12:49:48Z</time>
      </trkpt>
      <trkpt lat="46.77072" lon="5.60321">
        <ele>277</ele>
        <time>2019-10-03T12:50:23Z</time>
      </trkpt>
      <trkpt lat="46.77057" lon="5.60324">
        <ele>276</ele>
        <time>2019-10-03T12:50:38Z</time>
      </trkpt>
      <trkpt lat="46.77031" lon="5.60325">
        <ele>273</ele>
        <time>2019-10-03T12:51:07Z</time>
      </trkpt>
      <trkpt lat="46.77026" lon="5.60325">
        <ele>273</ele>
        <time>2019-10-03T12:51:12Z</time>
      </trkpt>
      <trkpt lat="46.77008" lon="5.60327">
        <ele>270</ele>
        <time>2019-10-03T12:51:43Z</time>
      </trkpt>
      <trkpt lat="46.77003" lon="5.60327">
        <ele>269</ele>
        <time>2019-10-03T12:51:49Z</time>
      </trkpt>
      <trkpt lat="46.76998" lon="5.60326">
        <ele>268</ele>
        <time>2019-10-03T12:51:54Z</time>
      </trkpt>
      <trkpt lat="46.76978" lon="5.60322">
        <ele>268</ele>
        <time>2019-10-03T12:52:12Z</time>
      </trkpt>
      <trkpt lat="46.76954" lon="5.60314">
        <ele>265</ele>
        <time>2019-10-03T12:52:37Z</time>
      </trkpt>
      <trkpt lat="46.7693" lon="5.60289">
        <ele>261</ele>
        <time>2019-10-03T12:53:09Z</time>
      </trkpt>
      <trkpt lat="46.76926" lon="5.60287">
        <ele>261</ele>
        <time>2019-10-03T12:53:13Z</time>
      </trkpt>
      <trkpt lat="46.7692" lon="5.60286">
        <ele>261</ele>
        <time>2019-10-03T12:53:18Z</time>
      </trkpt>
      <trkpt lat="46.76915" lon="5.60283">
        <ele>260</ele>
        <time>2019-10-03T12:53:22Z</time>
      </trkpt>
      <trkpt lat="46.7689" lon="5.60278">
        <ele>256</ele>
        <time>2019-10-03T12:53:43Z</time>
      </trkpt>
      <trkpt lat="46.7686" lon="5.6025">
        <ele>251</ele>
        <time>2019-10-03T12:54:14Z</time>
      </trkpt>
      <trkpt lat="46.76856" lon="5.60245">
        <ele>251</ele>
        <time>2019-10-03T12:54:18Z</time>
      </trkpt>
      <trkpt lat="46.76851" lon="5.60241">
        <ele>251</ele>
        <time>2019-10-03T12:54:22Z</time>
      </trkpt>
      <trkpt lat="46.76822" lon="5.6021">
        <ele>249</ele>
        <time>2019-10-03T12:54:52Z</time>
      </trkpt>
      <trkpt lat="46.76818" lon="5.60204">
        <ele>249</ele>
        <time>2019-10-03T12:54:56Z</time>
      </trkpt>
      <trkpt lat="46.76814" lon="5.60198">
        <ele>249</ele>
        <time>2019-10-03T12:55:00Z</time>
      </trkpt>
      <trkpt lat="46.768" lon="5.60175">
        <ele>248</ele>
        <time>2019-10-03T12:55:16Z</time>
      </trkpt>
      <trkpt lat="46.76796" lon="5.60168">
        <ele>247</ele>
        <time>2019-10-03T12:55:23Z</time>
      </trkpt>
      <trkpt lat="46.76789" lon="5.60158">
        <ele>247</ele>
        <time>2019-10-03T12:55:31Z</time>
      </trkpt>
      <trkpt lat="46.76786" lon="5.60153">
        <ele>247</ele>
        <time>2019-10-03T12:55:35Z</time>
      </trkpt>
      <trkpt lat="46.76779" lon="5.60141">
        <ele>247</ele>
        <time>2019-10-03T12:55:44Z</time>
      </trkpt>
      <trkpt lat="46.76773" lon="5.60129">
        <ele>247</ele>
        <time>2019-10-03T12:55:52Z</time>
      </trkpt>
      <trkpt lat="46.7677" lon="5.60123">
        <ele>247</ele>
        <time>2019-10-03T12:55:56Z</time>
      </trkpt>
      <trkpt lat="46.76766" lon="5.60117">
        <ele>248</ele>
        <time>2019-10-03T12:56:00Z</time>
      </trkpt>
      <trkpt lat="46.76762" lon="5.60112">
        <ele>247</ele>
        <time>2019-10-03T12:56:04Z</time>
      </trkpt>
      <trkpt lat="46.76748" lon="5.60091">
        <ele>248</ele>
        <time>2019-10-03T12:56:20Z</time>
      </trkpt>
      <trkpt lat="46.76723" lon="5.60057">
        <ele>245</ele>
        <time>2019-10-03T12:56:51Z</time>
      </trkpt>
      <trkpt lat="46.76718" lon="5.60044">
        <ele>246</ele>
        <time>2019-10-03T12:56:59Z</time>
      </trkpt>
      <trkpt lat="46.76717" lon="5.60031">
        <ele>245</ele>
        <time>2019-10-03T12:57:08Z</time>
      </trkpt>
      <trkpt lat="46.76711" lon="5.60019">
        <ele>245</ele>
        <time>2019-10-03T12:57:17Z</time>
      </trkpt>
      <trkpt lat="46.76705" lon="5.60007">
        <ele>245</ele>
        <time>2019-10-03T12:57:27Z</time>
      </trkpt>
      <trkpt lat="46.76698" lon="5.6">
        <ele>244</ele>
        <time>2019-10-03T12:57:47Z</time>
      </trkpt>
    </trkseg>
  </trk>
</gpx>